Hoppmann, Mario; Tippenhauer, Sandra; Badewien, Thomas Henry (2026): Continuous thermosalinograph oceanography along RV HEINCKE cruise track HE662 [dataset]. Alfred Wegener Institute, Helmholtz Centre for Polar and Marine Research, Bremerhaven, PANGAEA, https://doi.pangaea.de/10.1594/PANGAEA.993559 (DOI registration in progress)
Always quote citation above when using data! You can download the citation in several formats below.
Published: 2026-05-05
Abstract:
Raw data acquired by a thermosalinograph (SBE21, Sea-Bird GmbH) in combination with an external temperature sensor (SBE38, Sea-Bird GmbH) aboard RV Heincke were processed to generate a calibrated, quality-controlled dataset of seawater temperature and salinity. The raw sensor data were initially retrieved from the DSHIP database (https://dship.awi.de) at a temporal resolution of 1 second and converted into temperature and conductivity using the pre-deployment calibration coefficients. The thermosalinograph system aboard RV Heincke is typically replaced after each expedition season, with a recalibration conducted at the manufacturer's facilities after each exchange. After post-cruise recalibration of the instruments, additional correction factors were calculated and applied to account for sensor drift. Salinity was calculated from internally measured temperatures and conductivities following the Practical Salinity Scale (PSS-78). The processed dataset is provided as 1-minute averages of salinity and seawater external temperature, synchronized with the positional data from the expedition's master track. Quality flags were assigned in accordance with the SeaDataNet Data Quality Control Procedures (May 2010).
Related to:
Badewien, Thomas Henry (2025): Master tracks in different resolutions of HEINCKE cruise HE662, Bremerhaven - Bremerhaven, 2025-05-24 - 2025-06-13 [dataset]. Alfred Wegener Institute, Helmholtz Centre for Polar and Marine Research, Bremerhaven, PANGAEA, https://doi.org/10.1594/PANGAEA.983369
Data processing report:
Hoppmann, Mario; Tippenhauer, Sandra (2026): Continuous thermosalinograph oceanography along RV HEINCKE cruise track HE662 - Data Processing Report. FIELAX - Gesellschaft für wissenschaftliche Datenverarbeitung mbH, HE662_TSG_nav.pdf
Project(s):
DAM Underway Research Data (DAM_Underway)
Physical Oceanography @ AWI (AWI_PhyOce)
Coverage:
Median Latitude: 55.911754 * Median Longitude: 17.381162 * South-bound Latitude: 54.207618 * West-bound Longitude: 10.235689 * North-bound Latitude: 56.362865 * East-bound Longitude: 18.971644
Date/Time Start: 2025-05-25T07:36:00 * Date/Time End: 2025-06-11T10:38:00
Minimum DEPTH, water: 2.0 m * Maximum DEPTH, water: 2.0 m
Event(s):
HE662_0_Underway-3 * Latitude Start: 54.487699 * Longitude Start: 10.324188 * Latitude End: 54.370256 * Longitude End: 10.168978 * Date/Time Start: 2025-05-25T07:36:09 * Date/Time End: 2025-06-12T06:03:25 * Elevation: -16.0 m * O2A Registry URI: https://registry.o2a-data.de/items/8558 * Campaign: HE662 (BASS) * Basis: Heincke * Method/Device: Thermosalinograph (TSG) * Comment: interuptions at DEWAR and Kieler Foerde
Parameter(s):
License:
Creative Commons Attribution 4.0 International (CC-BY-4.0)
Status:
Curation Level: Enhanced curation (CurationLevelC) * Processing Level: PANGAEA data processing level 2 (ProcLevel2)
Size:
134010 data points
Data
| 1 Date/Time | 2 Latitude | 3 Longitude | 4 Depth water [m] | 5 Temp [°C] | 6 QF water temp | 7 Cond [mS/cm] | 8 T intern [°C] | 9 Sal | 10 QF sal |
|---|---|---|---|---|---|---|---|---|---|
| 2025-05-25T07:36:00 | 54.487565 | 10.323342 | 2.0 | 13.451 | 2 | 18.419 | 13.925 | 14.170 | 2 |
| 2025-05-25T07:37:00 | 54.488590 | 10.327947 | 2.0 | 13.457 | 2 | 16.432 | 13.715 | 12.584 | 2 |
| 2025-05-25T07:38:00 | 54.489575 | 10.332597 | 2.0 | 13.472 | 2 | 16.997 | 13.688 | 13.064 | 2 |
| 2025-05-25T07:39:00 | 54.490596 | 10.337235 | 2.0 | 13.485 | 2 | 17.003 | 13.688 | 13.069 | 2 |
| 2025-05-25T07:40:00 | 54.491538 | 10.341912 | 2.0 | 13.496 | 2 | 17.030 | 13.692 | 13.090 | 2 |
| 2025-05-25T07:41:00 | 54.492556 | 10.346554 | 2.0 | 13.502 | 2 | 17.025 | 13.697 | 13.085 | 2 |
| 2025-05-25T07:42:00 | 54.493524 | 10.351228 | 2.0 | 13.496 | 2 | 17.014 | 13.696 | 13.076 | 2 |
| 2025-05-25T07:43:00 | 54.494532 | 10.355888 | 2.0 | 13.490 | 2 | 17.003 | 13.687 | 13.070 | 2 |
| 2025-05-25T07:44:00 | 54.495534 | 10.360552 | 2.0 | 13.472 | 2 | 16.996 | 13.676 | 13.067 | 2 |
| 2025-05-25T07:45:00 | 54.496662 | 10.365140 | 2.0 | 13.449 | 2 | 16.988 | 13.654 | 13.068 | 2 |
| 2025-05-25T07:46:00 | 54.497716 | 10.369782 | 2.0 | 13.431 | 2 | 16.979 | 13.632 | 13.068 | 2 |
| 2025-05-25T07:47:00 | 54.498841 | 10.374387 | 2.0 | 13.416 | 2 | 16.975 | 13.614 | 13.071 | 2 |
| 2025-05-25T07:48:00 | 54.499868 | 10.379054 | 2.0 | 13.406 | 2 | 16.975 | 13.599 | 13.076 | 2 |
| 2025-05-25T07:49:00 | 54.500932 | 10.383685 | 2.0 | 13.392 | 2 | 16.975 | 13.588 | 13.080 | 2 |
| 2025-05-25T07:50:00 | 54.501943 | 10.388338 | 2.0 | 13.375 | 2 | 16.839 | 13.571 | 12.972 | 2 |
| 2025-05-25T07:51:00 | 54.502937 | 10.393008 | 2.0 | 13.350 | 2 | 16.735 | 13.552 | 12.891 | 2 |
| 2025-05-25T07:52:00 | 54.503884 | 10.397724 | 2.0 | 13.318 | 2 | 16.977 | 13.525 | 13.103 | 2 |
| 2025-05-25T07:53:00 | 54.504873 | 10.402408 | 2.0 | 13.289 | 2 | 16.988 | 13.495 | 13.122 | 2 |
| 2025-05-25T07:54:00 | 54.505910 | 10.407061 | 2.0 | 13.276 | 2 | 17.002 | 13.470 | 13.143 | 2 |
| 2025-05-25T07:55:00 | 54.506868 | 10.411772 | 2.0 | 13.261 | 2 | 17.016 | 13.454 | 13.160 | 2 |
| 2025-05-25T07:56:00 | 54.507892 | 10.416439 | 2.0 | 13.252 | 2 | 17.030 | 13.442 | 13.176 | 2 |
| 2025-05-25T07:57:00 | 54.508849 | 10.421147 | 2.0 | 13.251 | 2 | 17.043 | 13.432 | 13.190 | 2 |
| 2025-05-25T07:58:00 | 54.509852 | 10.425836 | 2.0 | 13.253 | 2 | 17.059 | 13.431 | 13.204 | 2 |
| 2025-05-25T07:59:00 | 54.510855 | 10.430546 | 2.0 | 13.256 | 2 | 16.950 | 13.433 | 13.112 | 2 |
| 2025-05-25T08:00:00 | 54.511831 | 10.435280 | 2.0 | 13.249 | 2 | 17.070 | 13.433 | 13.213 | 2 |
| 2025-05-25T08:01:00 | 54.512802 | 10.440013 | 2.0 | 13.246 | 2 | 17.076 | 13.427 | 13.220 | 2 |
| 2025-05-25T08:02:00 | 54.513828 | 10.444735 | 2.0 | 13.241 | 2 | 17.097 | 13.424 | 13.238 | 2 |
| 2025-05-25T08:03:00 | 54.514817 | 10.449483 | 2.0 | 13.234 | 2 | 16.977 | 13.418 | 13.139 | 2 |
| 2025-05-25T08:04:00 | 54.515801 | 10.454234 | 2.0 | 13.220 | 2 | 17.133 | 13.411 | 13.273 | 2 |
| 2025-05-25T08:05:00 | 54.516788 | 10.458972 | 2.0 | 13.180 | 2 | 17.090 | 13.394 | 13.243 | 2 |
| 2025-05-25T08:06:00 | 54.517804 | 10.463665 | 2.0 | 13.136 | 2 | 17.156 | 13.349 | 13.314 | 2 |
| 2025-05-25T08:07:00 | 54.518774 | 10.468349 | 2.0 | 13.124 | 2 | 17.114 | 13.312 | 13.292 | 2 |
| 2025-05-25T08:08:00 | 54.519764 | 10.473020 | 2.0 | 13.171 | 2 | 17.096 | 13.321 | 13.273 | 2 |
| 2025-05-25T08:09:00 | 54.520745 | 10.477735 | 2.0 | 13.139 | 2 | 17.096 | 13.338 | 13.267 | 2 |
| 2025-05-25T08:10:00 | 54.521684 | 10.482470 | 2.0 | 13.161 | 2 | 17.060 | 13.320 | 13.243 | 2 |
| 2025-05-25T08:11:00 | 54.522731 | 10.487146 | 2.0 | 13.204 | 2 | 17.050 | 13.346 | 13.226 | 2 |
| 2025-05-25T08:12:00 | 54.523752 | 10.491857 | 2.0 | 13.206 | 2 | 17.067 | 13.379 | 13.229 | 2 |
| 2025-05-25T08:13:00 | 54.524727 | 10.496606 | 2.0 | 13.217 | 2 | 17.057 | 13.385 | 13.218 | 2 |
| 2025-05-25T08:14:00 | 54.525759 | 10.501342 | 2.0 | 13.216 | 2 | 17.037 | 13.393 | 13.199 | 2 |
| 2025-05-25T08:15:00 | 54.526732 | 10.506114 | 2.0 | 13.230 | 2 | 17.017 | 13.394 | 13.181 | 2 |
| 2025-05-25T08:16:00 | 54.527751 | 10.510860 | 2.0 | 13.273 | 2 | 17.018 | 13.411 | 13.176 | 2 |
| 2025-05-25T08:17:00 | 54.528784 | 10.515619 | 2.0 | 13.281 | 2 | 17.023 | 13.446 | 13.169 | 2 |
| 2025-05-25T08:18:00 | 54.529830 | 10.520382 | 2.0 | 13.283 | 2 | 17.006 | 13.455 | 13.151 | 2 |
| 2025-05-25T08:19:00 | 54.530848 | 10.525151 | 2.0 | 13.281 | 2 | 16.985 | 13.457 | 13.133 | 2 |
| 2025-05-25T08:20:00 | 54.531828 | 10.529943 | 2.0 | 13.285 | 2 | 16.970 | 13.456 | 13.121 | 2 |
| 2025-05-25T08:21:00 | 54.532633 | 10.534805 | 2.0 | 13.291 | 2 | 16.963 | 13.460 | 13.113 | 2 |
| 2025-05-25T08:22:00 | 54.532817 | 10.539801 | 2.0 | 13.303 | 2 | 16.963 | 13.467 | 13.111 | 2 |
| 2025-05-25T08:23:00 | 54.533105 | 10.544797 | 2.0 | 13.317 | 2 | 16.966 | 13.480 | 13.109 | 2 |
| 2025-05-25T08:24:00 | 54.533334 | 10.549826 | 2.0 | 13.329 | 2 | 16.971 | 13.493 | 13.109 | 2 |
| 2025-05-25T08:25:00 | 54.533536 | 10.554861 | 2.0 | 13.341 | 2 | 16.981 | 13.507 | 13.112 | 2 |
| 2025-05-25T08:26:00 | 54.533710 | 10.559897 | 2.0 | 13.385 | 2 | 16.985 | 13.514 | 13.113 | 2 |
| 2025-05-25T08:27:00 | 54.533926 | 10.564924 | 2.0 | 13.397 | 2 | 17.012 | 13.566 | 13.118 | 2 |
| 2025-05-25T08:28:00 | 54.534173 | 10.569966 | 2.0 | 13.354 | 2 | 17.012 | 13.563 | 13.119 | 2 |
| 2025-05-25T08:29:00 | 54.534354 | 10.575000 | 2.0 | 13.337 | 2 | 16.980 | 13.525 | 13.105 | 2 |
| 2025-05-25T08:30:00 | 54.534518 | 10.580035 | 2.0 | 13.299 | 2 | 16.962 | 13.507 | 13.096 | 2 |
| 2025-05-25T08:31:00 | 54.534750 | 10.585073 | 2.0 | 13.272 | 2 | 16.769 | 13.469 | 12.947 | 2 |
| 2025-05-25T08:32:00 | 54.534925 | 10.590119 | 2.0 | 13.274 | 2 | 16.808 | 13.449 | 12.987 | 2 |
| 2025-05-25T08:33:00 | 54.535179 | 10.595188 | 2.0 | 13.306 | 2 | 16.914 | 13.455 | 13.074 | 2 |
| 2025-05-25T08:34:00 | 54.535340 | 10.600256 | 2.0 | 13.350 | 2 | 16.899 | 13.488 | 13.050 | 2 |
| 2025-05-25T08:35:00 | 54.535561 | 10.605297 | 2.0 | 13.355 | 2 | 16.910 | 13.520 | 13.048 | 2 |
| 2025-05-25T08:36:00 | 54.535736 | 10.610360 | 2.0 | 13.367 | 2 | 16.779 | 13.529 | 12.936 | 2 |
| 2025-05-25T08:37:00 | 54.535981 | 10.615445 | 2.0 | 13.398 | 2 | 16.950 | 13.543 | 13.074 | 2 |
| 2025-05-25T08:38:00 | 54.536157 | 10.620564 | 2.0 | 13.447 | 2 | 16.615 | 13.580 | 12.781 | 2 |
| 2025-05-25T08:39:00 | 54.536362 | 10.625661 | 2.0 | 13.465 | 2 | 16.597 | 13.619 | 12.753 | 2 |
| 2025-05-25T08:40:00 | 54.536562 | 10.630760 | 2.0 | 13.470 | 2 | 16.954 | 13.638 | 13.045 | 2 |
| 2025-05-25T08:41:00 | 54.536799 | 10.635856 | 2.0 | 13.472 | 2 | 16.701 | 13.642 | 12.832 | 2 |
| 2025-05-25T08:42:00 | 54.536956 | 10.640967 | 2.0 | 13.472 | 2 | 16.699 | 13.643 | 12.830 | 2 |
| 2025-05-25T08:43:00 | 54.537163 | 10.646066 | 2.0 | 13.470 | 2 | 16.955 | 13.644 | 13.044 | 2 |
| 2025-05-25T08:44:00 | 54.537398 | 10.651168 | 2.0 | 13.468 | 2 | 16.770 | 13.642 | 12.890 | 2 |
| 2025-05-25T08:45:00 | 54.537587 | 10.656291 | 2.0 | 13.463 | 2 | 16.865 | 13.640 | 12.970 | 2 |
| 2025-05-25T08:46:00 | 54.537830 | 10.661377 | 2.0 | 13.465 | 2 | 16.839 | 13.631 | 12.951 | 2 |
| 2025-05-25T08:47:00 | 54.538010 | 10.666476 | 2.0 | 13.515 | 2 | 16.620 | 13.646 | 12.763 | 2 |
| 2025-05-25T08:48:00 | 54.538253 | 10.671561 | 2.0 | 13.535 | 2 | 16.710 | 13.687 | 12.825 | 2 |
| 2025-05-25T08:49:00 | 54.538430 | 10.676639 | 2.0 | 13.567 | 2 | 16.777 | 13.707 | 12.874 | 2 |
| 2025-05-25T08:50:00 | 54.538674 | 10.681709 | 2.0 | 13.582 | 2 | 16.998 | 13.744 | 13.046 | 2 |
| 2025-05-25T08:51:00 | 54.538867 | 10.686790 | 2.0 | 13.574 | 2 | 17.035 | 13.750 | 13.075 | 2 |
| 2025-05-25T08:52:00 | 54.539095 | 10.691863 | 2.0 | 13.501 | 2 | 17.029 | 13.732 | 13.076 | 2 |
| 2025-05-25T08:53:00 | 54.539260 | 10.696936 | 2.0 | 13.541 | 2 | 16.985 | 13.685 | 13.055 | 2 |
| 2025-05-25T08:54:00 | 54.539533 | 10.701986 | 2.0 | 13.550 | 2 | 16.956 | 13.713 | 13.022 | 2 |
| 2025-05-25T08:55:00 | 54.540115 | 10.706971 | 2.0 | 13.492 | 2 | 16.933 | 13.708 | 13.004 | 2 |
| 2025-05-25T08:56:00 | 54.540605 | 10.711966 | 2.0 | 13.490 | 2 | 16.895 | 13.664 | 12.987 | 2 |
| 2025-05-25T08:57:00 | 54.541299 | 10.716889 | 2.0 | 13.490 | 2 | 16.882 | 13.662 | 12.977 | 2 |
| 2025-05-25T08:58:00 | 54.541930 | 10.721843 | 2.0 | 13.485 | 2 | 16.883 | 13.661 | 12.978 | 2 |
| 2025-05-25T08:59:00 | 54.542636 | 10.726765 | 2.0 | 13.482 | 2 | 16.888 | 13.656 | 12.984 | 2 |
| 2025-05-25T09:00:00 | 54.543262 | 10.731706 | 2.0 | 13.479 | 2 | 16.895 | 13.653 | 12.991 | 2 |
| 2025-05-25T09:01:00 | 54.543921 | 10.736632 | 2.0 | 13.474 | 2 | 16.904 | 13.649 | 13.000 | 2 |
| 2025-05-25T09:02:00 | 54.544606 | 10.741530 | 2.0 | 13.473 | 2 | 16.905 | 13.645 | 13.002 | 2 |
| 2025-05-25T09:03:00 | 54.545282 | 10.746434 | 2.0 | 13.505 | 2 | 16.918 | 13.653 | 13.010 | 2 |
| 2025-05-25T09:04:00 | 54.545899 | 10.751366 | 2.0 | 13.520 | 2 | 16.937 | 13.678 | 13.017 | 2 |
| 2025-05-25T09:05:00 | 54.546539 | 10.756282 | 2.0 | 13.513 | 2 | 16.947 | 13.688 | 13.022 | 2 |
| 2025-05-25T09:06:00 | 54.547208 | 10.761179 | 2.0 | 13.496 | 2 | 16.952 | 13.681 | 13.029 | 2 |
| 2025-05-25T09:07:00 | 54.547853 | 10.766095 | 2.0 | 13.461 | 2 | 16.949 | 13.662 | 13.033 | 2 |
| 2025-05-25T09:08:00 | 54.548539 | 10.771015 | 2.0 | 13.418 | 2 | 16.936 | 13.625 | 13.035 | 2 |
| 2025-05-25T09:09:00 | 54.549208 | 10.775942 | 2.0 | 13.414 | 2 | 16.926 | 13.592 | 13.037 | 2 |
| 2025-05-25T09:10:00 | 54.549874 | 10.780868 | 2.0 | 13.408 | 2 | 16.809 | 13.585 | 12.942 | 2 |
| 2025-05-25T09:11:00 | 54.550538 | 10.785791 | 2.0 | 13.405 | 2 | 16.945 | 13.580 | 13.057 | 2 |
| 2025-05-25T09:12:00 | 54.551185 | 10.790759 | 2.0 | 13.406 | 2 | 16.954 | 13.577 | 13.066 | 2 |
| 2025-05-25T09:13:00 | 54.551829 | 10.795727 | 2.0 | 13.408 | 2 | 16.658 | 13.579 | 12.817 | 2 |
| 2025-05-25T09:14:00 | 54.552518 | 10.800673 | 2.0 | 13.410 | 2 | 16.706 | 13.580 | 12.857 | 2 |
| 2025-05-25T09:15:00 | 54.553183 | 10.805638 | 2.0 | 13.409 | 2 | 16.975 | 13.582 | 13.082 | 2 |
| 2025-05-25T09:16:00 | 54.553878 | 10.810597 | 2.0 | 13.406 | 2 | 16.982 | 13.581 | 13.088 | 2 |
| 2025-05-25T09:17:00 | 54.554493 | 10.815584 | 2.0 | 13.401 | 2 | 16.664 | 13.578 | 12.823 | 2 |
| 2025-05-25T09:18:00 | 54.555188 | 10.820534 | 2.0 | 13.394 | 2 | 16.704 | 13.573 | 12.858 | 2 |
| 2025-05-25T09:19:00 | 54.555842 | 10.825540 | 2.0 | 13.384 | 2 | 16.614 | 13.565 | 12.785 | 2 |
| 2025-05-25T09:20:00 | 54.556550 | 10.830512 | 2.0 | 13.378 | 2 | 16.723 | 13.555 | 12.880 | 2 |
| 2025-05-25T09:21:00 | 54.557169 | 10.835484 | 2.0 | 13.374 | 2 | 16.521 | 13.549 | 12.713 | 2 |
| 2025-05-25T09:22:00 | 54.557854 | 10.840441 | 2.0 | 13.378 | 2 | 16.660 | 13.546 | 12.830 | 2 |
| 2025-05-25T09:23:00 | 54.558547 | 10.845430 | 2.0 | 13.386 | 2 | 16.783 | 13.550 | 12.932 | 2 |
| 2025-05-25T09:24:00 | 54.559187 | 10.850433 | 2.0 | 13.400 | 2 | 16.975 | 13.560 | 13.089 | 2 |
| 2025-05-25T09:25:00 | 54.559875 | 10.855386 | 2.0 | 13.410 | 2 | 16.879 | 13.572 | 13.005 | 2 |
| 2025-05-25T09:26:00 | 54.560518 | 10.860362 | 2.0 | 13.413 | 2 | 16.863 | 13.582 | 12.988 | 2 |
| 2025-05-25T09:27:00 | 54.561167 | 10.865360 | 2.0 | 13.403 | 2 | 17.101 | 13.583 | 13.187 | 2 |
| 2025-05-25T09:28:00 | 54.561883 | 10.870326 | 2.0 | 13.393 | 2 | 16.967 | 13.572 | 13.079 | 2 |
| 2025-05-25T09:29:00 | 54.562538 | 10.875303 | 2.0 | 13.392 | 2 | 16.088 | 13.564 | 12.347 | 2 |
| 2025-05-25T09:30:00 | 54.563178 | 10.880292 | 2.0 | 13.392 | 2 | 15.736 | 13.563 | 12.054 | 2 |
| 2025-05-25T09:31:00 | 54.563887 | 10.885254 | 2.0 | 13.393 | 2 | 16.302 | 13.564 | 12.525 | 2 |
| 2025-05-25T09:32:00 | 54.564559 | 10.890235 | 2.0 | 13.383 | 2 | 17.221 | 13.562 | 13.295 | 2 |
| 2025-05-25T09:33:00 | 54.565056 | 10.895276 | 2.0 | 13.373 | 2 | 17.228 | 13.553 | 13.304 | 2 |
| 2025-05-25T09:34:00 | 54.565379 | 10.900360 | 2.0 | 13.359 | 2 | 17.232 | 13.541 | 13.312 | 2 |
| 2025-05-25T09:35:00 | 54.565727 | 10.905462 | 2.0 | 13.353 | 2 | 17.240 | 13.528 | 13.323 | 2 |
| 2025-05-25T09:36:00 | 54.566116 | 10.910554 | 2.0 | 13.345 | 2 | 17.252 | 13.523 | 13.335 | 2 |
| 2025-05-25T09:37:00 | 54.566469 | 10.915645 | 2.0 | 13.336 | 2 | 17.261 | 13.514 | 13.345 | 2 |
| 2025-05-25T09:38:00 | 54.566846 | 10.920745 | 2.0 | 13.327 | 2 | 17.265 | 13.506 | 13.351 | 2 |
| 2025-05-25T09:39:00 | 54.567221 | 10.925854 | 2.0 | 13.316 | 2 | 17.271 | 13.497 | 13.360 | 2 |
| 2025-05-25T09:40:00 | 54.567554 | 10.930983 | 2.0 | 13.304 | 2 | 17.276 | 13.485 | 13.368 | 2 |
| 2025-05-25T09:41:00 | 54.567950 | 10.936107 | 2.0 | 13.288 | 2 | 17.284 | 13.472 | 13.379 | 2 |
| 2025-05-25T09:42:00 | 54.568314 | 10.941227 | 2.0 | 13.274 | 2 | 17.297 | 13.458 | 13.395 | 2 |
| 2025-05-25T09:43:00 | 54.568688 | 10.946351 | 2.0 | 13.258 | 2 | 17.313 | 13.443 | 13.414 | 2 |
| 2025-05-25T09:44:00 | 54.569053 | 10.951481 | 2.0 | 13.244 | 2 | 17.321 | 13.428 | 13.426 | 2 |
| 2025-05-25T09:45:00 | 54.569434 | 10.956615 | 2.0 | 13.237 | 2 | 17.337 | 13.415 | 13.444 | 2 |
| 2025-05-25T09:46:00 | 54.569789 | 10.961759 | 2.0 | 13.225 | 2 | 17.349 | 13.406 | 13.457 | 2 |
| 2025-05-25T09:47:00 | 54.570186 | 10.966895 | 2.0 | 13.218 | 2 | 17.368 | 13.396 | 13.477 | 2 |
| 2025-05-25T09:48:00 | 54.570535 | 10.972039 | 2.0 | 13.211 | 2 | 17.381 | 13.388 | 13.490 | 2 |
| 2025-05-25T09:49:00 | 54.570940 | 10.977198 | 2.0 | 13.211 | 2 | 17.397 | 13.383 | 13.506 | 2 |
| 2025-05-25T09:50:00 | 54.571280 | 10.982348 | 2.0 | 13.216 | 2 | 17.411 | 13.382 | 13.518 | 2 |
| 2025-05-25T09:51:00 | 54.571708 | 10.987468 | 2.0 | 13.226 | 2 | 17.425 | 13.388 | 13.528 | 2 |
| 2025-05-25T09:52:00 | 54.572078 | 10.992628 | 2.0 | 13.241 | 2 | 17.440 | 13.399 | 13.536 | 2 |
| 2025-05-25T09:53:00 | 54.572431 | 10.997792 | 2.0 | 13.257 | 2 | 17.453 | 13.414 | 13.542 | 2 |
| 2025-05-25T09:54:00 | 54.572836 | 11.002947 | 2.0 | 13.272 | 2 | 17.473 | 13.429 | 13.554 | 2 |
| 2025-05-25T09:55:00 | 54.573197 | 11.008111 | 2.0 | 13.294 | 2 | 17.495 | 13.445 | 13.567 | 2 |
| 2025-05-25T09:56:00 | 54.573539 | 11.013272 | 2.0 | 13.309 | 2 | 17.517 | 13.465 | 13.578 | 2 |
| 2025-05-25T09:57:00 | 54.573963 | 11.018419 | 2.0 | 13.325 | 2 | 17.532 | 13.481 | 13.585 | 2 |
| 2025-05-25T09:58:00 | 54.574306 | 11.023591 | 2.0 | 13.337 | 2 | 17.539 | 13.495 | 13.586 | 2 |
| 2025-05-25T09:59:00 | 54.574690 | 11.028761 | 2.0 | 13.348 | 2 | 17.537 | 13.506 | 13.580 | 2 |
| 2025-05-25T10:00:00 | 54.575066 | 11.033929 | 2.0 | 13.370 | 2 | 17.531 | 13.521 | 13.570 | 2 |
| 2025-05-25T10:01:00 | 54.575437 | 11.039133 | 2.0 | 13.397 | 2 | 17.529 | 13.543 | 13.561 | 2 |
| 2025-05-25T10:02:00 | 54.575824 | 11.044327 | 2.0 | 13.412 | 2 | 17.536 | 13.565 | 13.559 | 2 |
| 2025-05-25T10:03:00 | 54.576150 | 11.049536 | 2.0 | 13.426 | 2 | 17.552 | 13.582 | 13.566 | 2 |
| 2025-05-25T10:04:00 | 54.576531 | 11.054737 | 2.0 | 13.439 | 2 | 17.575 | 13.597 | 13.580 | 2 |
| 2025-05-25T10:05:00 | 54.576914 | 11.059948 | 2.0 | 13.433 | 2 | 17.593 | 13.606 | 13.592 | 2 |
| 2025-05-25T10:06:00 | 54.577299 | 11.065159 | 2.0 | 13.433 | 2 | 17.602 | 13.604 | 13.600 | 2 |
| 2025-05-25T10:07:00 | 54.577657 | 11.070373 | 2.0 | 13.425 | 2 | 17.611 | 13.600 | 13.609 | 2 |
| 2025-05-25T10:08:00 | 54.577990 | 11.075602 | 2.0 | 13.422 | 2 | 17.620 | 13.595 | 13.619 | 2 |
| 2025-05-25T10:09:00 | 54.578266 | 11.080848 | 2.0 | 13.421 | 2 | 17.627 | 13.592 | 13.626 | 2 |
| 2025-05-25T10:10:00 | 54.578391 | 11.086106 | 2.0 | 13.409 | 2 | 17.634 | 13.589 | 13.633 | 2 |
| 2025-05-25T10:11:00 | 54.578491 | 11.091363 | 2.0 | 13.399 | 2 | 17.631 | 13.578 | 13.634 | 2 |
| 2025-05-25T10:12:00 | 54.578469 | 11.096612 | 2.0 | 13.392 | 2 | 17.638 | 13.567 | 13.644 | 2 |
| 2025-05-25T10:13:00 | 54.578457 | 11.101865 | 2.0 | 13.395 | 2 | 17.669 | 13.564 | 13.671 | 2 |
| 2025-05-25T10:14:00 | 54.578424 | 11.107117 | 2.0 | 13.421 | 2 | 17.713 | 13.570 | 13.706 | 2 |
| 2025-05-25T10:15:00 | 54.578388 | 11.112364 | 2.0 | 13.408 | 2 | 17.713 | 13.591 | 13.698 | 2 |
| 2025-05-25T10:16:00 | 54.578170 | 11.117581 | 2.0 | 13.411 | 2 | 17.805 | 13.575 | 13.782 | 2 |
| 2025-05-25T10:17:00 | 54.578033 | 11.122780 | 2.0 | 13.357 | 2 | 17.839 | 13.578 | 13.809 | 2 |
| 2025-05-25T10:18:00 | 54.577803 | 11.127959 | 2.0 | 13.317 | 2 | 17.938 | 13.514 | 13.916 | 2 |
| 2025-05-25T10:19:00 | 54.577591 | 11.133114 | 2.0 | 13.245 | 2 | 18.036 | 13.465 | 14.016 | 2 |
| 2025-05-25T10:20:00 | 54.577261 | 11.138199 | 2.0 | 13.144 | 2 | 18.129 | 13.419 | 14.112 | 2 |
| 2025-05-25T10:21:00 | 54.576517 | 11.143088 | 2.0 | 12.743 | 2 | 18.245 | 13.198 | 14.293 | 2 |
| 2025-05-25T10:22:00 | 54.575423 | 11.147697 | 2.0 | 12.710 | 2 | 18.214 | 12.913 | 14.373 | 2 |
| 2025-05-25T10:23:00 | 54.574233 | 11.152178 | 2.0 | 12.727 | 2 | 18.073 | 12.895 | 14.259 | 2 |
| 2025-05-25T10:24:00 | 54.573092 | 11.156659 | 2.0 | 12.760 | 2 | 17.989 | 12.908 | 14.182 | 2 |
| 2025-05-25T10:25:00 | 54.571979 | 11.161122 | 2.0 | 12.806 | 2 | 17.911 | 12.944 | 14.102 | 2 |
| 2025-05-25T10:26:00 | 54.570840 | 11.165535 | 2.0 | 12.841 | 2 | 17.855 | 12.978 | 14.041 | 2 |
| 2025-05-25T10:27:00 | 54.569701 | 11.169932 | 2.0 | 12.878 | 2 | 17.799 | 13.018 | 13.978 | 2 |
| 2025-05-25T10:28:00 | 54.568597 | 11.174345 | 2.0 | 12.897 | 2 | 17.740 | 13.049 | 13.917 | 2 |
| 2025-05-25T10:29:00 | 54.567481 | 11.178728 | 2.0 | 12.883 | 2 | 17.697 | 13.070 | 13.872 | 2 |
| 2025-05-25T10:30:00 | 54.566376 | 11.183099 | 2.0 | 12.941 | 2 | 17.717 | 13.065 | 13.891 | 2 |
| 2025-05-25T10:31:00 | 54.565268 | 11.187457 | 2.0 | 12.971 | 2 | 17.681 | 13.110 | 13.844 | 2 |
| 2025-05-25T10:32:00 | 54.564229 | 11.191888 | 2.0 | 12.982 | 2 | 17.665 | 13.141 | 13.819 | 2 |
| 2025-05-25T10:33:00 | 54.563117 | 11.196266 | 2.0 | 12.965 | 2 | 17.670 | 13.148 | 13.821 | 2 |
| 2025-05-25T10:34:00 | 54.562024 | 11.200661 | 2.0 | 12.936 | 2 | 17.684 | 13.134 | 13.838 | 2 |
| 2025-05-25T10:35:00 | 54.560937 | 11.205045 | 2.0 | 12.875 | 2 | 17.703 | 13.102 | 13.866 | 2 |
| 2025-05-25T10:36:00 | 54.559860 | 11.209417 | 2.0 | 12.820 | 2 | 17.737 | 13.033 | 13.920 | 2 |
| 2025-05-25T10:37:00 | 54.558768 | 11.213766 | 2.0 | 12.781 | 2 | 17.741 | 12.989 | 13.939 | 2 |
| 2025-05-25T10:38:00 | 54.557733 | 11.218156 | 2.0 | 12.696 | 2 | 17.760 | 12.931 | 13.977 | 2 |
| 2025-05-25T10:39:00 | 54.556723 | 11.222576 | 2.0 | 12.585 | 2 | 17.804 | 12.852 | 14.044 | 2 |
| 2025-05-25T10:40:00 | 54.555720 | 11.227023 | 2.0 | 12.668 | 2 | 17.832 | 12.796 | 14.089 | 2 |
| 2025-05-25T10:41:00 | 54.554685 | 11.231467 | 2.0 | 12.504 | 2 | 17.831 | 12.827 | 14.076 | 2 |
| 2025-05-25T10:42:00 | 54.553536 | 11.235739 | 2.0 | 12.422 | 2 | 18.003 | 12.648 | 14.291 | 2 |
| 2025-05-25T10:43:00 | 54.552401 | 11.240014 | 2.0 | 12.441 | 2 | 17.992 | 12.605 | 14.298 | 2 |
| 2025-05-25T10:44:00 | 54.551223 | 11.244242 | 2.0 | 12.429 | 2 | 17.984 | 12.614 | 14.288 | 2 |
| 2025-05-25T10:45:00 | 54.550070 | 11.248489 | 2.0 | 12.441 | 2 | 17.971 | 12.604 | 14.280 | 2 |
| 2025-05-25T10:46:00 | 54.548887 | 11.252716 | 2.0 | 12.476 | 2 | 17.980 | 12.626 | 14.280 | 2 |
| 2025-05-25T10:47:00 | 54.547727 | 11.256963 | 2.0 | 12.476 | 2 | 18.001 | 12.649 | 14.289 | 2 |
| 2025-05-25T10:48:00 | 54.546590 | 11.261240 | 2.0 | 12.473 | 2 | 17.951 | 12.650 | 14.246 | 2 |
| 2025-05-25T10:49:00 | 54.545442 | 11.265527 | 2.0 | 12.464 | 2 | 17.897 | 12.644 | 14.201 | 2 |
| 2025-05-25T10:50:00 | 54.544235 | 11.269781 | 2.0 | 12.481 | 2 | 17.895 | 12.645 | 14.199 | 2 |
| 2025-05-25T10:51:00 | 54.543027 | 11.274021 | 2.0 | 12.493 | 2 | 17.920 | 12.656 | 14.217 | 2 |
| 2025-05-25T10:52:00 | 54.541835 | 11.278279 | 2.0 | 12.523 | 2 | 17.945 | 12.676 | 14.231 | 2 |
| 2025-05-25T10:53:00 | 54.540695 | 11.282582 | 2.0 | 12.540 | 2 | 17.935 | 12.693 | 14.216 | 2 |
| 2025-05-25T10:54:00 | 54.539507 | 11.286817 | 2.0 | 12.550 | 2 | 17.971 | 12.726 | 14.234 | 2 |
| 2025-05-25T10:55:00 | 54.538422 | 11.291130 | 2.0 | 12.524 | 2 | 17.935 | 12.699 | 14.214 | 2 |
| 2025-05-25T10:56:00 | 54.537209 | 11.295365 | 2.0 | 12.601 | 2 | 17.934 | 12.714 | 14.207 | 2 |
| 2025-05-25T10:57:00 | 54.536020 | 11.299569 | 2.0 | 12.609 | 2 | 17.944 | 12.762 | 14.198 | 2 |
| 2025-05-25T10:58:00 | 54.534853 | 11.303808 | 2.0 | 12.578 | 2 | 17.875 | 12.773 | 14.134 | 2 |
| 2025-05-25T10:59:00 | 54.533692 | 11.308063 | 2.0 | 12.622 | 2 | 17.820 | 12.767 | 14.089 | 2 |
| 2025-05-25T11:00:00 | 54.532483 | 11.312281 | 2.0 | 12.628 | 2 | 17.735 | 12.788 | 14.008 | 2 |
| 2025-05-25T11:01:00 | 54.531322 | 11.316537 | 2.0 | 12.630 | 2 | 17.644 | 12.803 | 13.924 | 2 |
| 2025-05-25T11:02:00 | 54.530141 | 11.320768 | 2.0 | 12.633 | 2 | 17.600 | 12.806 | 13.886 | 2 |
| 2025-05-25T11:03:00 | 54.528991 | 11.325043 | 2.0 | 12.636 | 2 | 17.581 | 12.795 | 13.873 | 2 |
| 2025-05-25T11:04:00 | 54.527839 | 11.329315 | 2.0 | 12.649 | 2 | 17.556 | 12.801 | 13.850 | 2 |
| 2025-05-25T11:05:00 | 54.526636 | 11.333534 | 2.0 | 12.692 | 2 | 17.506 | 12.830 | 13.796 | 2 |
| 2025-05-25T11:06:00 | 54.525465 | 11.337756 | 2.0 | 12.705 | 2 | 17.458 | 12.866 | 13.742 | 2 |
| 2025-05-25T11:07:00 | 54.524324 | 11.342033 | 2.0 | 12.732 | 2 | 17.404 | 12.876 | 13.692 | 2 |
| 2025-05-25T11:08:00 | 54.523133 | 11.346279 | 2.0 | 12.750 | 2 | 17.373 | 12.902 | 13.656 | 2 |
| 2025-05-25T11:09:00 | 54.521951 | 11.350544 | 2.0 | 12.777 | 2 | 17.348 | 12.926 | 13.626 | 2 |
| 2025-05-25T11:10:00 | 54.520793 | 11.354828 | 2.0 | 12.785 | 2 | 17.330 | 12.947 | 13.604 | 2 |
| 2025-05-25T11:11:00 | 54.519643 | 11.359124 | 2.0 | 12.803 | 2 | 17.314 | 12.958 | 13.586 | 2 |
| 2025-05-25T11:12:00 | 54.518452 | 11.363395 | 2.0 | 12.810 | 2 | 17.308 | 12.973 | 13.575 | 2 |
| 2025-05-25T11:13:00 | 54.517283 | 11.367684 | 2.0 | 12.822 | 2 | 17.308 | 12.981 | 13.573 | 2 |
| 2025-05-25T11:14:00 | 54.516118 | 11.371996 | 2.0 | 12.830 | 2 | 17.312 | 12.993 | 13.572 | 2 |
| 2025-05-25T11:15:00 | 54.514907 | 11.376274 | 2.0 | 12.845 | 2 | 17.318 | 13.002 | 13.574 | 2 |
| 2025-05-25T11:16:00 | 54.513744 | 11.380594 | 2.0 | 12.852 | 2 | 17.326 | 13.014 | 13.576 | 2 |
| 2025-05-25T11:17:00 | 54.512576 | 11.384921 | 2.0 | 12.865 | 2 | 17.332 | 13.024 | 13.578 | 2 |
| 2025-05-25T11:18:00 | 54.511367 | 11.389193 | 2.0 | 12.870 | 2 | 17.338 | 13.034 | 13.579 | 2 |
| 2025-05-25T11:19:00 | 54.510174 | 11.393489 | 2.0 | 12.863 | 2 | 17.350 | 13.038 | 13.588 | 2 |
| 2025-05-25T11:20:00 | 54.508996 | 11.397802 | 2.0 | 12.846 | 2 | 17.368 | 13.027 | 13.607 | 2 |
| 2025-05-25T11:21:00 | 54.507846 | 11.402137 | 2.0 | 12.862 | 2 | 17.382 | 13.022 | 13.621 | 2 |
| 2025-05-25T11:22:00 | 54.506622 | 11.406417 | 2.0 | 12.822 | 2 | 17.380 | 13.029 | 13.617 | 2 |
| 2025-05-25T11:23:00 | 54.505419 | 11.410716 | 2.0 | 12.810 | 2 | 17.312 | 12.982 | 13.576 | 2 |
| 2025-05-25T11:24:00 | 54.504238 | 11.415021 | 2.0 | 12.752 | 2 | 17.269 | 12.967 | 13.544 | 2 |
| 2025-05-25T11:25:00 | 54.503033 | 11.419294 | 2.0 | 12.751 | 2 | 17.192 | 12.929 | 13.492 | 2 |
| 2025-05-25T11:26:00 | 54.501812 | 11.423560 | 2.0 | 12.751 | 2 | 17.137 | 12.924 | 13.447 | 2 |
| 2025-05-25T11:27:00 | 54.500660 | 11.427889 | 2.0 | 12.753 | 2 | 17.097 | 12.923 | 13.413 | 2 |
| 2025-05-25T11:28:00 | 54.499514 | 11.432241 | 2.0 | 12.761 | 2 | 17.072 | 12.926 | 13.391 | 2 |
| 2025-05-25T11:29:00 | 54.498298 | 11.436542 | 2.0 | 12.768 | 2 | 17.052 | 12.933 | 13.371 | 2 |
| 2025-05-25T11:30:00 | 54.497089 | 11.440828 | 2.0 | 12.768 | 2 | 16.751 | 12.938 | 13.113 | 2 |
| 2025-05-25T11:31:00 | 54.495905 | 11.445092 | 2.0 | 12.769 | 2 | 16.949 | 12.938 | 13.282 | 2 |
| 2025-05-25T11:32:00 | 54.494725 | 11.449376 | 2.0 | 12.773 | 2 | 16.884 | 12.941 | 13.225 | 2 |
| 2025-05-25T11:33:00 | 54.493542 | 11.453667 | 2.0 | 12.772 | 2 | 16.821 | 12.943 | 13.171 | 2 |
| 2025-05-25T11:34:00 | 54.492373 | 11.457969 | 2.0 | 12.775 | 2 | 16.774 | 12.943 | 13.131 | 2 |
| 2025-05-25T11:35:00 | 54.491178 | 11.462235 | 2.0 | 12.767 | 2 | 16.766 | 12.945 | 13.123 | 2 |
| 2025-05-25T11:36:00 | 54.490050 | 11.466568 | 2.0 | 12.740 | 2 | 16.730 | 12.930 | 13.098 | 2 |
| 2025-05-25T11:37:00 | 54.488863 | 11.470853 | 2.0 | 12.727 | 2 | 16.662 | 12.911 | 13.047 | 2 |
| 2025-05-25T11:38:00 | 54.487697 | 11.475183 | 2.0 | 12.627 | 2 | 16.606 | 12.886 | 13.008 | 2 |
| 2025-05-25T11:39:00 | 54.486494 | 11.479496 | 2.0 | 12.628 | 2 | 16.031 | 12.798 | 12.548 | 2 |
| 2025-05-25T11:40:00 | 54.485292 | 11.483801 | 2.0 | 12.650 | 2 | 16.016 | 12.806 | 12.533 | 2 |
| 2025-05-25T11:41:00 | 54.484123 | 11.488144 | 2.0 | 12.667 | 2 | 15.748 | 12.824 | 12.299 | 2 |
| 2025-05-25T11:42:00 | 54.482891 | 11.492423 | 2.0 | 12.684 | 2 | 16.009 | 12.841 | 12.515 | 2 |
| 2025-05-25T11:43:00 | 54.481672 | 11.496719 | 2.0 | 12.699 | 2 | 15.908 | 12.858 | 12.424 | 2 |
| 2025-05-25T11:44:00 | 54.480496 | 11.501057 | 2.0 | 12.703 | 2 | 15.356 | 12.870 | 11.953 | 2 |
| 2025-05-25T11:45:00 | 54.479316 | 11.505397 | 2.0 | 12.705 | 2 | 15.724 | 12.872 | 12.263 | 2 |
| 2025-05-25T11:46:00 | 54.478135 | 11.509745 | 2.0 | 12.712 | 2 | 15.662 | 12.876 | 12.210 | 2 |
| 2025-05-25T11:47:00 | 54.476931 | 11.514083 | 2.0 | 12.717 | 2 | 15.557 | 12.883 | 12.119 | 2 |
| 2025-05-25T11:48:00 | 54.475736 | 11.518451 | 2.0 | 12.731 | 2 | 15.457 | 12.890 | 12.032 | 2 |
| 2025-05-25T11:49:00 | 54.474536 | 11.522832 | 2.0 | 12.744 | 2 | 15.387 | 12.905 | 11.968 | 2 |
| 2025-05-25T11:50:00 | 54.473321 | 11.527212 | 2.0 | 12.752 | 2 | 15.314 | 12.916 | 11.903 | 2 |
| 2025-05-25T11:51:00 | 54.472123 | 11.531588 | 2.0 | 12.756 | 2 | 15.253 | 12.922 | 11.850 | 2 |
| 2025-05-25T11:52:00 | 54.470899 | 11.535933 | 2.0 | 12.758 | 2 | 15.195 | 12.925 | 11.800 | 2 |
| 2025-05-25T11:53:00 | 54.469715 | 11.540353 | 2.0 | 12.760 | 2 | 15.140 | 12.929 | 11.752 | 2 |
| 2025-05-25T11:54:00 | 54.468475 | 11.544734 | 2.0 | 12.759 | 2 | 15.100 | 12.929 | 11.719 | 2 |
| 2025-05-25T11:55:00 | 54.467261 | 11.549181 | 2.0 | 12.770 | 2 | 15.044 | 12.933 | 11.670 | 2 |
| 2025-05-25T11:56:00 | 54.466036 | 11.553623 | 2.0 | 12.770 | 2 | 15.029 | 12.939 | 11.656 | 2 |
| 2025-05-25T11:57:00 | 54.464815 | 11.558061 | 2.0 | 12.774 | 2 | 15.023 | 12.941 | 11.650 | 2 |
| 2025-05-25T11:58:00 | 54.463566 | 11.562491 | 2.0 | 12.790 | 2 | 15.026 | 12.945 | 11.651 | 2 |
| 2025-05-25T11:59:00 | 54.462304 | 11.566915 | 2.0 | 12.804 | 2 | 15.021 | 12.960 | 11.643 | 2 |
| 2025-05-25T12:00:00 | 54.461117 | 11.571421 | 2.0 | 12.830 | 2 | 15.022 | 12.980 | 11.637 | 2 |
| 2025-05-25T12:01:00 | 54.459920 | 11.575931 | 2.0 | 12.866 | 2 | 15.046 | 13.003 | 11.650 | 2 |
| 2025-05-25T12:02:00 | 54.458658 | 11.580376 | 2.0 | 12.901 | 2 | 15.079 | 13.038 | 11.667 | 2 |
| 2025-05-25T12:03:00 | 54.457429 | 11.584843 | 2.0 | 12.930 | 2 | 15.078 | 13.073 | 11.656 | 2 |
| 2025-05-25T12:04:00 | 54.456200 | 11.589301 | 2.0 | 12.960 | 2 | 15.100 | 13.102 | 11.665 | 2 |
| 2025-05-25T12:05:00 | 54.454994 | 11.593794 | 2.0 | 12.983 | 2 | 15.090 | 13.130 | 11.649 | 2 |
| 2025-05-25T12:06:00 | 54.453733 | 11.598259 | 2.0 | 13.002 | 2 | 15.077 | 13.153 | 11.631 | 2 |
| 2025-05-25T12:07:00 | 54.452519 | 11.602784 | 2.0 | 13.015 | 2 | 15.077 | 13.170 | 11.625 | 2 |
| 2025-05-25T12:08:00 | 54.451262 | 11.607249 | 2.0 | 13.024 | 2 | 15.076 | 13.183 | 11.621 | 2 |
| 2025-05-25T12:09:00 | 54.450022 | 11.611751 | 2.0 | 13.031 | 2 | 15.074 | 13.192 | 11.616 | 2 |
| 2025-05-25T12:10:00 | 54.448773 | 11.616268 | 2.0 | 13.031 | 2 | 15.075 | 13.198 | 11.615 | 2 |
| 2025-05-25T12:11:00 | 54.447511 | 11.620759 | 2.0 | 13.030 | 2 | 15.073 | 13.198 | 11.614 | 2 |
| 2025-05-25T12:12:00 | 54.446287 | 11.625314 | 2.0 | 13.026 | 2 | 15.071 | 13.197 | 11.612 | 2 |
| 2025-05-25T12:13:00 | 54.445003 | 11.629804 | 2.0 | 13.019 | 2 | 15.089 | 13.191 | 11.629 | 2 |
| 2025-05-25T12:14:00 | 54.443775 | 11.634365 | 2.0 | 13.012 | 2 | 15.111 | 13.185 | 11.649 | 2 |
| 2025-05-25T12:15:00 | 54.442505 | 11.638900 | 2.0 | 13.014 | 2 | 15.134 | 13.180 | 11.670 | 2 |
| 2025-05-25T12:16:00 | 54.441282 | 11.643473 | 2.0 | 13.010 | 2 | 15.151 | 13.180 | 11.684 | 2 |
| 2025-05-25T12:17:00 | 54.440023 | 11.648045 | 2.0 | 13.002 | 2 | 15.166 | 13.177 | 11.698 | 2 |
| 2025-05-25T12:18:00 | 54.438729 | 11.652592 | 2.0 | 12.986 | 2 | 15.178 | 13.168 | 11.711 | 2 |
| 2025-05-25T12:19:00 | 54.437515 | 11.657201 | 2.0 | 12.969 | 2 | 15.207 | 13.153 | 11.740 | 2 |
| 2025-05-25T12:20:00 | 54.436224 | 11.661763 | 2.0 | 12.954 | 2 | 15.233 | 13.136 | 11.767 | 2 |
| 2025-05-25T12:21:00 | 54.434929 | 11.666316 | 2.0 | 12.946 | 2 | 15.272 | 13.122 | 11.804 | 2 |
| 2025-05-25T12:22:00 | 54.433680 | 11.670921 | 2.0 | 12.936 | 2 | 15.313 | 13.112 | 11.841 | 2 |
| 2025-05-25T12:23:00 | 54.432444 | 11.675552 | 2.0 | 12.930 | 2 | 15.347 | 13.104 | 11.872 | 2 |
| 2025-05-25T12:24:00 | 54.431133 | 11.680110 | 2.0 | 12.926 | 2 | 15.395 | 13.098 | 11.914 | 2 |
| 2025-05-25T12:25:00 | 54.429862 | 11.684727 | 2.0 | 12.924 | 2 | 15.444 | 13.096 | 11.956 | 2 |
| 2025-05-25T12:26:00 | 54.428609 | 11.689401 | 2.0 | 12.919 | 2 | 15.512 | 13.092 | 12.014 | 2 |
| 2025-05-25T12:27:00 | 54.427311 | 11.694023 | 2.0 | 12.920 | 2 | 15.568 | 13.090 | 12.062 | 2 |
| 2025-05-25T12:28:00 | 54.426031 | 11.698661 | 2.0 | 12.902 | 2 | 15.629 | 13.088 | 12.114 | 2 |
| 2025-05-25T12:29:00 | 54.424728 | 11.703299 | 2.0 | 12.912 | 2 | 15.697 | 13.075 | 12.175 | 2 |
| 2025-05-25T12:30:00 | 54.423469 | 11.707994 | 2.0 | 12.921 | 2 | 15.716 | 13.083 | 12.189 | 2 |
| 2025-05-25T12:31:00 | 54.422192 | 11.712676 | 2.0 | 12.924 | 2 | 15.750 | 13.089 | 12.216 | 2 |
| 2025-05-25T12:32:00 | 54.420897 | 11.717371 | 2.0 | 12.921 | 2 | 15.797 | 13.092 | 12.254 | 2 |
| 2025-05-25T12:33:00 | 54.419556 | 11.722022 | 2.0 | 12.901 | 2 | 15.845 | 13.090 | 12.295 | 2 |
| 2025-05-25T12:34:00 | 54.418263 | 11.726693 | 2.0 | 12.885 | 2 | 15.935 | 13.065 | 12.379 | 2 |
| 2025-05-25T12:35:00 | 54.416980 | 11.731376 | 2.0 | 12.885 | 2 | 15.999 | 13.056 | 12.436 | 2 |
| 2025-05-25T12:36:00 | 54.415689 | 11.736076 | 2.0 | 12.876 | 2 | 16.061 | 13.054 | 12.489 | 2 |
| 2025-05-25T12:37:00 | 54.414372 | 11.740768 | 2.0 | 12.856 | 2 | 15.886 | 13.043 | 12.345 | 2 |
| 2025-05-25T12:38:00 | 54.413101 | 11.745510 | 2.0 | 12.841 | 2 | 16.152 | 13.023 | 12.576 | 2 |
| 2025-05-25T12:39:00 | 54.411811 | 11.750241 | 2.0 | 12.823 | 2 | 16.086 | 13.011 | 12.524 | 2 |
| 2025-05-25T12:40:00 | 54.410540 | 11.754994 | 2.0 | 12.778 | 2 | 16.141 | 12.990 | 12.578 | 2 |
| 2025-05-25T12:41:00 | 54.409815 | 11.760034 | 2.0 | 12.704 | 2 | 16.350 | 12.930 | 12.775 | 2 |
| 2025-05-25T12:42:00 | 54.409194 | 11.765161 | 2.0 | 12.703 | 2 | 16.422 | 12.880 | 12.853 | 2 |
| 2025-05-25T12:43:00 | 54.408554 | 11.770285 | 2.0 | 12.699 | 2 | 16.432 | 12.874 | 12.864 | 2 |
| 2025-05-25T12:44:00 | 54.408099 | 11.775440 | 2.0 | 12.662 | 2 | 16.453 | 12.868 | 12.884 | 2 |
| 2025-05-25T12:45:00 | 54.407946 | 11.780646 | 2.0 | 12.597 | 2 | 16.512 | 12.821 | 12.950 | 2 |
| 2025-05-25T12:46:00 | 54.407699 | 11.785844 | 2.0 | 12.491 | 2 | 16.006 | 12.754 | 12.541 | 2 |
| 2025-05-25T12:47:00 | 54.407496 | 11.791034 | 2.0 | 12.502 | 2 | 16.625 | 12.686 | 13.093 | 2 |
| 2025-05-25T12:48:00 | 54.407293 | 11.796218 | 2.0 | 12.440 | 2 | 16.725 | 12.662 | 13.187 | 2 |
| 2025-05-25T12:49:00 | 54.407070 | 11.801370 | 2.0 | 12.347 | 2 | 16.794 | 12.594 | 13.269 | 2 |
| 2025-05-25T12:50:00 | 54.406868 | 11.806467 | 2.0 | 12.226 | 2 | 16.879 | 12.512 | 13.371 | 2 |
| 2025-05-25T12:51:00 | 54.406702 | 11.811513 | 2.0 | 12.106 | 2 | 16.983 | 12.391 | 13.504 | 2 |
| 2025-05-25T12:52:00 | 54.406496 | 11.816483 | 2.0 | 12.128 | 2 | 16.991 | 12.294 | 13.546 | 2 |
| 2025-05-25T12:53:00 | 54.406308 | 11.821453 | 2.0 | 12.161 | 2 | 16.928 | 12.309 | 13.486 | 2 |
| 2025-05-25T12:54:00 | 54.406074 | 11.826405 | 2.0 | 12.211 | 2 | 16.888 | 12.343 | 13.439 | 2 |
| 2025-05-25T12:55:00 | 54.405923 | 11.831367 | 2.0 | 12.231 | 2 | 16.873 | 12.390 | 13.410 | 2 |
| 2025-05-25T12:56:00 | 54.405786 | 11.836339 | 2.0 | 12.197 | 2 | 16.904 | 12.397 | 13.434 | 2 |
| 2025-05-25T12:57:00 | 54.405557 | 11.841275 | 2.0 | 12.207 | 2 | 17.057 | 12.371 | 13.575 | 2 |
| 2025-05-25T12:58:00 | 54.405474 | 11.846210 | 2.0 | 12.362 | 2 | 17.125 | 12.409 | 13.621 | 2 |
| 2025-05-25T12:59:00 | 54.405289 | 11.851081 | 2.0 | 12.485 | 2 | 17.037 | 12.550 | 13.494 | 2 |
| 2025-05-25T13:00:00 | 54.405083 | 11.855955 | 2.0 | 12.640 | 2 | 16.860 | 12.678 | 13.297 | 2 |
| 2025-05-25T13:01:00 | 54.405066 | 11.860830 | 2.0 | 13.003 | 2 | 16.587 | 12.865 | 12.999 | 2 |
| 2025-05-25T13:02:00 | 54.405082 | 11.865730 | 2.0 | 13.336 | 2 | 15.913 | 13.202 | 12.316 | 2 |
| 2025-05-25T13:03:00 | 54.404958 | 11.870588 | 2.0 | 13.408 | 2 | 15.216 | 13.477 | 11.648 | 2 |
| 2025-05-25T13:04:00 | 54.404866 | 11.875427 | 2.0 | 13.400 | 2 | 14.812 | 13.556 | 11.290 | 2 |
| 2025-05-25T13:05:00 | 54.404838 | 11.880292 | 2.0 | 13.381 | 2 | 14.695 | 13.542 | 11.197 | 2 |
| 2025-05-25T13:06:00 | 54.404869 | 11.885187 | 2.0 | 13.407 | 2 | 14.656 | 13.545 | 11.164 | 2 |
| 2025-05-25T13:07:00 | 54.404834 | 11.890074 | 2.0 | 13.407 | 2 | 14.466 | 13.571 | 11.000 | 2 |
| 2025-05-25T13:08:00 | 54.404781 | 11.894942 | 2.0 | 13.381 | 2 | 14.301 | 13.563 | 10.866 | 2 |
| 2025-05-25T13:09:00 | 54.404778 | 11.899811 | 2.0 | 13.350 | 2 | 14.206 | 13.539 | 10.795 | 2 |
| 2025-05-25T13:10:00 | 54.404796 | 11.904692 | 2.0 | 13.309 | 2 | 14.033 | 13.516 | 10.659 | 2 |
| 2025-05-25T13:11:00 | 54.404754 | 11.909588 | 2.0 | 13.269 | 2 | 14.091 | 13.463 | 10.721 | 2 |
| 2025-05-25T13:12:00 | 54.404702 | 11.914485 | 2.0 | 13.253 | 2 | 13.951 | 13.436 | 10.613 | 2 |
| 2025-05-25T13:13:00 | 54.404689 | 11.919379 | 2.0 | 13.203 | 2 | 14.070 | 13.412 | 10.718 | 2 |
| 2025-05-25T13:14:00 | 54.404626 | 11.924267 | 2.0 | 13.168 | 2 | 13.797 | 13.366 | 10.506 | 2 |
| 2025-05-25T13:15:00 | 54.404571 | 11.929147 | 2.0 | 13.128 | 2 | 13.987 | 13.330 | 10.672 | 2 |
| 2025-05-25T13:16:00 | 54.404546 | 11.934029 | 2.0 | 13.095 | 2 | 14.040 | 13.294 | 10.726 | 2 |
| 2025-05-25T13:17:00 | 54.404472 | 11.938878 | 2.0 | 13.085 | 2 | 14.029 | 13.264 | 10.726 | 2 |
| 2025-05-25T13:18:00 | 54.404445 | 11.943721 | 2.0 | 13.080 | 2 | 14.020 | 13.253 | 10.721 | 2 |
| 2025-05-25T13:19:00 | 54.404393 | 11.948547 | 2.0 | 13.086 | 2 | 14.011 | 13.247 | 10.715 | 2 |
| 2025-05-25T13:20:00 | 54.404380 | 11.953375 | 2.0 | 13.080 | 2 | 14.010 | 13.251 | 10.714 | 2 |
| 2025-05-25T13:21:00 | 54.404373 | 11.958195 | 2.0 | 13.070 | 2 | 14.007 | 13.247 | 10.712 | 2 |
| 2025-05-25T13:22:00 | 54.404306 | 11.963018 | 2.0 | 13.067 | 2 | 14.010 | 13.236 | 10.718 | 2 |
| 2025-05-25T13:23:00 | 54.404293 | 11.967844 | 2.0 | 13.059 | 2 | 14.009 | 13.236 | 10.717 | 2 |
| 2025-05-25T13:24:00 | 54.404266 | 11.972678 | 2.0 | 13.062 | 2 | 14.007 | 13.229 | 10.717 | 2 |
| 2025-05-25T13:25:00 | 54.404223 | 11.977523 | 2.0 | 13.071 | 2 | 14.010 | 13.231 | 10.719 | 2 |
| 2025-05-25T13:26:00 | 54.404138 | 11.982368 | 2.0 | 13.084 | 2 | 14.014 | 13.240 | 10.720 | 2 |
| 2025-05-25T13:27:00 | 54.404092 | 11.987214 | 2.0 | 13.085 | 2 | 14.009 | 13.249 | 10.713 | 2 |
| 2025-05-25T13:28:00 | 54.404097 | 11.992068 | 2.0 | 13.078 | 2 | 14.005 | 13.252 | 10.709 | 2 |
| 2025-05-25T13:29:00 | 54.404070 | 11.996940 | 2.0 | 13.073 | 2 | 14.003 | 13.244 | 10.710 | 2 |
| 2025-05-25T13:30:00 | 54.404009 | 12.001806 | 2.0 | 13.091 | 2 | 14.012 | 13.244 | 10.717 | 2 |
| 2025-05-25T13:31:00 | 54.403990 | 12.006653 | 2.0 | 13.083 | 2 | 14.014 | 13.255 | 10.716 | 2 |
| 2025-05-25T13:32:00 | 54.403957 | 12.011499 | 2.0 | 13.084 | 2 | 14.019 | 13.250 | 10.721 | 2 |
| 2025-05-25T13:33:00 | 54.403931 | 12.016353 | 2.0 | 13.095 | 2 | 14.024 | 13.252 | 10.725 | 2 |
| 2025-05-25T13:34:00 | 54.403908 | 12.021224 | 2.0 | 13.118 | 2 | 14.027 | 13.266 | 10.723 | 2 |
| 2025-05-25T13:35:00 | 54.403846 | 12.026117 | 2.0 | 13.138 | 2 | 14.030 | 13.285 | 10.721 | 2 |
| 2025-05-25T13:36:00 | 54.403848 | 12.031005 | 2.0 | 13.153 | 2 | 14.035 | 13.304 | 10.719 | 2 |
| 2025-05-25T13:37:00 | 54.403787 | 12.035908 | 2.0 | 13.167 | 2 | 14.044 | 13.321 | 10.722 | 2 |
| 2025-05-25T13:38:00 | 54.403742 | 12.040815 | 2.0 | 13.188 | 2 | 14.052 | 13.335 | 10.725 | 2 |
| 2025-05-25T13:39:00 | 54.403693 | 12.045743 | 2.0 | 13.205 | 2 | 14.069 | 13.356 | 10.733 | 2 |
| 2025-05-25T13:40:00 | 54.403670 | 12.050672 | 2.0 | 13.218 | 2 | 14.009 | 13.370 | 10.679 | 2 |
| 2025-05-25T13:41:00 | 54.403624 | 12.055620 | 2.0 | 13.229 | 2 | 14.096 | 13.383 | 10.748 | 2 |
| 2025-05-25T13:42:00 | 54.403560 | 12.060559 | 2.0 | 13.244 | 2 | 14.105 | 13.396 | 10.752 | 2 |
| 2025-05-25T13:43:00 | 54.403541 | 12.065514 | 2.0 | 13.255 | 2 | 14.122 | 13.410 | 10.762 | 2 |
| 2025-05-25T13:44:00 | 54.403482 | 12.070460 | 2.0 | 13.265 | 2 | 14.138 | 13.422 | 10.771 | 2 |
| 2025-05-25T13:45:00 | 54.403451 | 12.075404 | 2.0 | 13.278 | 2 | 14.158 | 13.434 | 10.785 | 2 |
| 2025-05-25T13:46:00 | 54.403422 | 12.080368 | 2.0 | 13.277 | 2 | 14.176 | 13.444 | 10.797 | 2 |
| 2025-05-25T13:47:00 | 54.403362 | 12.085342 | 2.0 | 13.272 | 2 | 14.206 | 13.441 | 10.822 | 2 |
| 2025-05-25T13:48:00 | 54.403318 | 12.090330 | 2.0 | 13.276 | 2 | 14.233 | 13.438 | 10.845 | 2 |
| 2025-05-25T13:49:00 | 54.403338 | 12.095319 | 2.0 | 13.289 | 2 | 14.251 | 13.445 | 10.858 | 2 |
| 2025-05-25T13:50:00 | 54.403261 | 12.100299 | 2.0 | 13.263 | 2 | 14.277 | 13.454 | 10.877 | 2 |
| 2025-05-25T13:51:00 | 54.403266 | 12.105252 | 2.0 | 12.968 | 2 | 14.161 | 13.366 | 10.806 | 2 |
| 2025-05-25T13:52:00 | 54.403244 | 12.110150 | 2.0 | 12.514 | 2 | 13.547 | 13.021 | 10.393 | 2 |
| 2025-05-25T13:53:00 | 54.403185 | 12.115009 | 2.0 | 12.354 | 2 | 12.886 | 12.683 | 9.933 | 2 |
| 2025-05-25T13:54:00 | 54.403097 | 12.119860 | 2.0 | 12.374 | 2 | 12.552 | 12.554 | 9.688 | 2 |
| 2025-05-25T13:55:00 | 54.403168 | 12.124719 | 2.0 | 12.344 | 2 | 12.496 | 12.547 | 9.643 | 2 |
| 2025-05-25T13:56:00 | 54.403099 | 12.129613 | 2.0 | 12.338 | 2 | 12.477 | 12.522 | 9.633 | 2 |
| 2025-05-25T13:57:00 | 54.403035 | 12.134480 | 2.0 | 12.352 | 2 | 12.428 | 12.517 | 9.594 | 2 |
| 2025-05-25T13:58:00 | 54.403024 | 12.139354 | 2.0 | 12.348 | 2 | 12.384 | 12.522 | 9.556 | 2 |
| 2025-05-25T13:59:00 | 54.402950 | 12.144219 | 2.0 | 12.346 | 2 | 12.363 | 12.525 | 9.537 | 2 |
| 2025-05-25T14:00:00 | 54.402865 | 12.149089 | 2.0 | 12.343 | 2 | 12.340 | 12.518 | 9.520 | 2 |
| 2025-05-25T14:01:00 | 54.402798 | 12.153986 | 2.0 | 12.334 | 2 | 12.341 | 12.515 | 9.522 | 2 |
| 2025-05-25T14:02:00 | 54.403016 | 12.158758 | 2.0 | 12.336 | 2 | 12.300 | 12.507 | 9.489 | 2 |
| 2025-05-25T14:03:00 | 54.404770 | 12.162157 | 2.0 | 12.339 | 2 | 12.302 | 12.512 | 9.490 | 2 |
| 2025-05-25T14:04:00 | 54.406995 | 12.164917 | 2.0 | 12.341 | 2 | 12.314 | 12.511 | 9.500 | 2 |
| 2025-05-25T14:05:00 | 54.409129 | 12.168031 | 2.0 | 12.341 | 2 | 12.331 | 12.513 | 9.514 | 2 |
| 2025-05-25T14:06:00 | 54.411291 | 12.171089 | 2.0 | 12.345 | 2 | 12.168 | 12.512 | 9.378 | 2 |
| 2025-05-25T14:07:00 | 54.413440 | 12.174183 | 2.0 | 12.363 | 2 | 12.221 | 12.520 | 9.420 | 2 |
| 2025-05-25T14:08:00 | 54.415621 | 12.177237 | 2.0 | 12.369 | 2 | 12.424 | 12.535 | 9.586 | 2 |
| 2025-05-25T14:09:00 | 54.417837 | 12.180256 | 2.0 | 12.379 | 2 | 12.452 | 12.544 | 9.607 | 2 |
| 2025-05-25T14:10:00 | 54.420013 | 12.183372 | 2.0 | 12.378 | 2 | 12.502 | 12.549 | 9.647 | 2 |
| 2025-05-25T14:11:00 | 54.422184 | 12.186505 | 2.0 | 12.381 | 2 | 12.513 | 12.551 | 9.656 | 2 |
| 2025-05-25T14:12:00 | 54.424267 | 12.189815 | 2.0 | 12.384 | 2 | 12.535 | 12.551 | 9.674 | 2 |
| 2025-05-25T14:13:00 | 54.426390 | 12.193034 | 2.0 | 12.390 | 2 | 12.562 | 12.555 | 9.696 | 2 |
| 2025-05-25T14:14:00 | 54.428534 | 12.196256 | 2.0 | 12.388 | 2 | 12.587 | 12.560 | 9.715 | 2 |
| 2025-05-25T14:15:00 | 54.430658 | 12.199525 | 2.0 | 12.386 | 2 | 12.589 | 12.558 | 9.718 | 2 |
| 2025-05-25T14:16:00 | 54.432764 | 12.202834 | 2.0 | 12.404 | 2 | 12.575 | 12.558 | 9.706 | 2 |
| 2025-05-25T14:17:00 | 54.434915 | 12.206053 | 2.0 | 12.412 | 2 | 12.609 | 12.577 | 9.729 | 2 |
| 2025-05-25T14:18:00 | 54.437022 | 12.209400 | 2.0 | 12.408 | 2 | 12.672 | 12.580 | 9.781 | 2 |
| 2025-05-25T14:19:00 | 54.439159 | 12.212684 | 2.0 | 12.435 | 2 | 12.690 | 12.582 | 9.796 | 2 |
| 2025-05-25T14:20:00 | 54.441286 | 12.215955 | 2.0 | 12.415 | 2 | 12.728 | 12.601 | 9.823 | 2 |
| 2025-05-25T14:21:00 | 54.443436 | 12.219200 | 2.0 | 12.416 | 2 | 12.788 | 12.587 | 9.876 | 2 |
| 2025-05-25T14:22:00 | 54.445566 | 12.222509 | 2.0 | 12.433 | 2 | 12.747 | 12.587 | 9.842 | 2 |
| 2025-05-25T14:23:00 | 54.447697 | 12.225825 | 2.0 | 12.436 | 2 | 12.792 | 12.607 | 9.875 | 2 |
| 2025-05-25T14:24:00 | 54.449854 | 12.229117 | 2.0 | 12.416 | 2 | 12.839 | 12.601 | 9.915 | 2 |
| 2025-05-25T14:25:00 | 54.451980 | 12.232469 | 2.0 | 12.405 | 2 | 12.829 | 12.584 | 9.911 | 2 |
| 2025-05-25T14:26:00 | 54.454087 | 12.235843 | 2.0 | 12.421 | 2 | 12.825 | 12.578 | 9.910 | 2 |
| 2025-05-25T14:27:00 | 54.456205 | 12.239207 | 2.0 | 12.454 | 2 | 12.826 | 12.595 | 9.906 | 2 |
| 2025-05-25T14:28:00 | 54.458359 | 12.242537 | 2.0 | 12.465 | 2 | 12.867 | 12.627 | 9.932 | 2 |
| 2025-05-25T14:29:00 | 54.460507 | 12.245892 | 2.0 | 12.478 | 2 | 12.884 | 12.635 | 9.944 | 2 |
| 2025-05-25T14:30:00 | 54.462615 | 12.249305 | 2.0 | 12.470 | 2 | 12.886 | 12.645 | 9.943 | 2 |
| 2025-05-25T14:31:00 | 54.464728 | 12.252641 | 2.0 | 12.481 | 2 | 12.847 | 12.643 | 9.911 | 2 |
| 2025-05-25T14:32:00 | 54.466811 | 12.256004 | 2.0 | 12.511 | 2 | 12.855 | 12.654 | 9.915 | 2 |
| 2025-05-25T14:33:00 | 54.468830 | 12.259478 | 2.0 | 12.523 | 2 | 12.923 | 12.683 | 9.964 | 2 |
| 2025-05-25T14:34:00 | 54.470892 | 12.262891 | 2.0 | 12.525 | 2 | 12.929 | 12.690 | 9.967 | 2 |
| 2025-05-25T14:35:00 | 54.472967 | 12.266264 | 2.0 | 12.544 | 2 | 12.932 | 12.695 | 9.968 | 2 |
| 2025-05-25T14:36:00 | 54.474987 | 12.269728 | 2.0 | 12.580 | 2 | 12.967 | 12.717 | 9.992 | 2 |
| 2025-05-25T14:37:00 | 54.477065 | 12.273111 | 2.0 | 12.582 | 2 | 12.998 | 12.748 | 10.009 | 2 |
| 2025-05-25T14:38:00 | 54.479117 | 12.276498 | 2.0 | 12.597 | 2 | 12.995 | 12.751 | 10.006 | 2 |
| 2025-05-25T14:39:00 | 54.481178 | 12.279890 | 2.0 | 12.638 | 2 | 13.013 | 12.770 | 10.016 | 2 |
| 2025-05-25T14:40:00 | 54.483242 | 12.283277 | 2.0 | 12.640 | 2 | 13.053 | 12.805 | 10.040 | 2 |
| 2025-05-25T14:41:00 | 54.485301 | 12.286655 | 2.0 | 12.636 | 2 | 13.035 | 12.805 | 10.025 | 2 |
| 2025-05-25T14:42:00 | 54.487322 | 12.290100 | 2.0 | 12.639 | 2 | 12.847 | 12.803 | 9.869 | 2 |
| 2025-05-25T14:43:00 | 54.489382 | 12.293504 | 2.0 | 12.651 | 2 | 12.752 | 12.806 | 9.790 | 2 |
| 2025-05-25T14:44:00 | 54.491423 | 12.296936 | 2.0 | 12.709 | 2 | 12.917 | 12.822 | 9.923 | 2 |
| 2025-05-25T14:45:00 | 54.493523 | 12.300324 | 2.0 | 12.777 | 2 | 13.173 | 12.887 | 10.118 | 2 |
| 2025-05-25T14:46:00 | 54.495580 | 12.303785 | 2.0 | 12.829 | 2 | 13.265 | 12.948 | 10.178 | 2 |
| 2025-05-25T14:47:00 | 54.497687 | 12.307180 | 2.0 | 13.106 | 2 | 13.387 | 13.082 | 10.244 | 2 |
| 2025-05-25T14:48:00 | 54.499720 | 12.310674 | 2.0 | 13.072 | 2 | 13.552 | 13.247 | 10.336 | 2 |
| 2025-05-25T14:49:00 | 54.501768 | 12.314082 | 2.0 | 13.020 | 2 | 13.532 | 13.227 | 10.325 | 2 |
| 2025-05-25T14:50:00 | 54.503782 | 12.317453 | 2.0 | 13.026 | 2 | 13.514 | 13.183 | 10.322 | 2 |
| 2025-05-25T14:51:00 | 54.505811 | 12.320779 | 2.0 | 13.048 | 2 | 13.505 | 13.194 | 10.311 | 2 |
| 2025-05-25T14:52:00 | 54.507849 | 12.324124 | 2.0 | 13.004 | 2 | 13.506 | 13.208 | 10.308 | 2 |
| 2025-05-25T14:53:00 | 54.509865 | 12.327479 | 2.0 | 12.817 | 2 | 13.479 | 13.137 | 10.305 | 2 |
| 2025-05-25T14:54:00 | 54.511875 | 12.330809 | 2.0 | 12.750 | 2 | 13.319 | 12.970 | 10.217 | 2 |
| 2025-05-25T14:55:00 | 54.513887 | 12.334109 | 2.0 | 12.734 | 2 | 13.227 | 12.923 | 10.154 | 2 |
| 2025-05-25T14:56:00 | 54.515887 | 12.337421 | 2.0 | 12.719 | 2 | 13.170 | 12.899 | 10.113 | 2 |
| 2025-05-25T14:57:00 | 54.517882 | 12.340758 | 2.0 | 12.708 | 2 | 13.141 | 12.889 | 10.091 | 2 |
| 2025-05-25T14:58:00 | 54.519887 | 12.344015 | 2.0 | 12.710 | 2 | 13.125 | 12.875 | 10.082 | 2 |
| 2025-05-25T14:59:00 | 54.521866 | 12.347311 | 2.0 | 12.713 | 2 | 13.106 | 12.878 | 10.065 | 2 |
| 2025-05-25T15:00:00 | 54.523854 | 12.350631 | 2.0 | 12.723 | 2 | 13.103 | 12.885 | 10.061 | 2 |
| 2025-05-25T15:01:00 | 54.525864 | 12.353953 | 2.0 | 12.718 | 2 | 13.097 | 12.890 | 10.054 | 2 |
| 2025-05-25T15:02:00 | 54.527866 | 12.357315 | 2.0 | 12.710 | 2 | 13.090 | 12.885 | 10.050 | 2 |
| 2025-05-25T15:03:00 | 54.529888 | 12.360613 | 2.0 | 12.707 | 2 | 13.085 | 12.879 | 10.047 | 2 |
| 2025-05-25T15:04:00 | 54.531884 | 12.363972 | 2.0 | 12.708 | 2 | 13.081 | 12.875 | 10.045 | 2 |
| 2025-05-25T15:05:00 | 54.533895 | 12.367283 | 2.0 | 12.713 | 2 | 13.078 | 12.878 | 10.042 | 2 |
| 2025-05-25T15:06:00 | 54.535901 | 12.370604 | 2.0 | 12.714 | 2 | 12.753 | 12.881 | 9.771 | 2 |
| 2025-05-25T15:07:00 | 54.537900 | 12.373968 | 2.0 | 12.719 | 2 | 12.860 | 12.882 | 9.860 | 2 |
| 2025-05-25T15:08:00 | 54.539937 | 12.377304 | 2.0 | 12.724 | 2 | 12.960 | 12.887 | 9.941 | 2 |
| 2025-05-25T15:09:00 | 54.541943 | 12.380670 | 2.0 | 12.743 | 2 | 13.051 | 12.895 | 10.015 | 2 |
| 2025-05-25T15:10:00 | 54.543964 | 12.384031 | 2.0 | 12.752 | 2 | 13.033 | 12.911 | 9.996 | 2 |
| 2025-05-25T15:11:00 | 54.545974 | 12.387366 | 2.0 | 12.750 | 2 | 13.123 | 12.922 | 10.067 | 2 |
| 2025-05-25T15:12:00 | 54.547965 | 12.390667 | 2.0 | 12.759 | 2 | 12.872 | 12.919 | 9.860 | 2 |
| 2025-05-25T15:13:00 | 54.549953 | 12.393956 | 2.0 | 12.758 | 2 | 13.038 | 12.924 | 9.996 | 2 |
| 2025-05-25T15:14:00 | 54.551947 | 12.397259 | 2.0 | 12.778 | 2 | 12.881 | 12.928 | 9.865 | 2 |
| 2025-05-25T15:15:00 | 54.553932 | 12.400586 | 2.0 | 12.826 | 2 | 13.066 | 12.951 | 10.012 | 2 |
| 2025-05-25T15:16:00 | 54.555904 | 12.403950 | 2.0 | 12.851 | 2 | 13.070 | 12.994 | 10.004 | 2 |
| 2025-05-25T15:17:00 | 54.557935 | 12.407206 | 2.0 | 12.860 | 2 | 13.051 | 13.017 | 9.983 | 2 |
| 2025-05-25T15:18:00 | 54.559896 | 12.410568 | 2.0 | 12.884 | 2 | 13.037 | 13.026 | 9.969 | 2 |
| 2025-05-25T15:19:00 | 54.561780 | 12.414053 | 2.0 | 12.917 | 2 | 13.038 | 13.053 | 9.963 | 2 |
| 2025-05-25T15:20:00 | 54.563722 | 12.417466 | 2.0 | 12.929 | 2 | 13.030 | 13.083 | 9.948 | 2 |
| 2025-05-25T15:21:00 | 54.565628 | 12.420940 | 2.0 | 12.949 | 2 | 13.017 | 13.098 | 9.933 | 2 |
| 2025-05-25T15:22:00 | 54.567571 | 12.424330 | 2.0 | 12.896 | 2 | 12.997 | 13.106 | 9.915 | 2 |
| 2025-05-25T15:23:00 | 54.569531 | 12.427722 | 2.0 | 12.902 | 2 | 12.914 | 13.064 | 9.857 | 2 |
| 2025-05-25T15:24:00 | 54.571442 | 12.431172 | 2.0 | 12.790 | 2 | 12.680 | 13.058 | 9.666 | 2 |
| 2025-05-25T15:25:00 | 54.573361 | 12.434611 | 2.0 | 12.790 | 2 | 12.793 | 12.974 | 9.780 | 2 |
| 2025-05-25T15:26:00 | 54.575279 | 12.438016 | 2.0 | 12.748 | 2 | 12.747 | 12.951 | 9.748 | 2 |
| 2025-05-25T15:27:00 | 54.577202 | 12.441443 | 2.0 | 12.747 | 2 | 12.713 | 12.919 | 9.728 | 2 |
| 2025-05-25T15:28:00 | 54.579149 | 12.444869 | 2.0 | 12.719 | 2 | 12.703 | 12.918 | 9.720 | 2 |
| 2025-05-25T15:29:00 | 54.581063 | 12.448360 | 2.0 | 12.685 | 2 | 12.711 | 12.876 | 9.738 | 2 |
| 2025-05-25T15:30:00 | 54.583000 | 12.451782 | 2.0 | 12.714 | 2 | 12.694 | 12.860 | 9.728 | 2 |
| 2025-05-25T15:31:00 | 54.584940 | 12.455241 | 2.0 | 12.616 | 2 | 12.542 | 12.858 | 9.602 | 2 |
| 2025-05-25T15:32:00 | 54.586878 | 12.458693 | 2.0 | 12.604 | 2 | 12.721 | 12.790 | 9.768 | 2 |
| 2025-05-25T15:33:00 | 54.588814 | 12.462141 | 2.0 | 12.604 | 2 | 12.539 | 12.777 | 9.620 | 2 |
| 2025-05-25T15:34:00 | 54.590735 | 12.465613 | 2.0 | 12.594 | 2 | 12.412 | 12.770 | 9.517 | 2 |
| 2025-05-25T15:35:00 | 54.592702 | 12.469058 | 2.0 | 12.607 | 2 | 12.674 | 12.768 | 9.735 | 2 |
| 2025-05-25T15:36:00 | 54.594669 | 12.472511 | 2.0 | 12.582 | 2 | 12.690 | 12.768 | 9.748 | 2 |
| 2025-05-25T15:37:00 | 54.596601 | 12.476026 | 2.0 | 12.582 | 2 | 12.686 | 12.752 | 9.749 | 2 |
| 2025-05-25T15:38:00 | 54.598562 | 12.479480 | 2.0 | 12.576 | 2 | 12.678 | 12.750 | 9.743 | 2 |
| 2025-05-25T15:39:00 | 54.600507 | 12.482931 | 2.0 | 12.572 | 2 | 12.667 | 12.745 | 9.735 | 2 |
| 2025-05-25T15:40:00 | 54.602463 | 12.486391 | 2.0 | 12.578 | 2 | 12.658 | 12.743 | 9.728 | 2 |
| 2025-05-25T15:41:00 | 54.604390 | 12.489925 | 2.0 | 12.583 | 2 | 12.659 | 12.747 | 9.728 | 2 |
| 2025-05-25T15:42:00 | 54.606351 | 12.493398 | 2.0 | 12.588 | 2 | 12.673 | 12.751 | 9.738 | 2 |
| 2025-05-25T15:43:00 | 54.608310 | 12.496851 | 2.0 | 12.599 | 2 | 12.693 | 12.758 | 9.753 | 2 |
| 2025-05-25T15:44:00 | 54.610264 | 12.500330 | 2.0 | 12.612 | 2 | 12.716 | 12.767 | 9.770 | 2 |
| 2025-05-25T15:45:00 | 54.612210 | 12.503860 | 2.0 | 12.631 | 2 | 12.747 | 12.782 | 9.792 | 2 |
| 2025-05-25T15:46:00 | 54.614169 | 12.507348 | 2.0 | 12.670 | 2 | 12.791 | 12.808 | 9.821 | 2 |
| 2025-05-25T15:47:00 | 54.616150 | 12.510784 | 2.0 | 12.712 | 2 | 12.615 | 12.842 | 9.667 | 2 |
| 2025-05-25T15:48:00 | 54.618096 | 12.514301 | 2.0 | 12.772 | 2 | 12.892 | 12.885 | 9.885 | 2 |
| 2025-05-25T15:49:00 | 54.620041 | 12.517804 | 2.0 | 12.843 | 2 | 12.963 | 12.946 | 9.928 | 2 |
| 2025-05-25T15:50:00 | 54.622030 | 12.521282 | 2.0 | 12.858 | 2 | 13.068 | 13.016 | 9.997 | 2 |
| 2025-05-25T15:51:00 | 54.624013 | 12.524780 | 2.0 | 12.725 | 2 | 12.985 | 12.996 | 9.934 | 2 |
| 2025-05-25T15:52:00 | 54.625949 | 12.528333 | 2.0 | 12.802 | 2 | 12.964 | 12.914 | 9.938 | 2 |
| 2025-05-25T15:53:00 | 54.627936 | 12.531832 | 2.0 | 12.837 | 2 | 13.111 | 12.974 | 10.044 | 2 |
| 2025-05-25T15:54:00 | 54.629875 | 12.535381 | 2.0 | 12.845 | 2 | 12.883 | 13.001 | 9.848 | 2 |
| 2025-05-25T15:55:00 | 54.631853 | 12.538895 | 2.0 | 12.840 | 2 | 13.095 | 13.009 | 10.021 | 2 |
| 2025-05-25T15:56:00 | 54.633847 | 12.542403 | 2.0 | 12.832 | 2 | 13.091 | 13.006 | 10.019 | 2 |
| 2025-05-25T15:57:00 | 54.635806 | 12.545981 | 2.0 | 12.806 | 2 | 13.087 | 12.993 | 10.019 | 2 |
| 2025-05-25T15:58:00 | 54.637797 | 12.549481 | 2.0 | 12.762 | 2 | 13.079 | 12.967 | 10.019 | 2 |
| 2025-05-25T15:59:00 | 54.639759 | 12.553018 | 2.0 | 12.728 | 2 | 13.067 | 12.927 | 10.020 | 2 |
| 2025-05-25T16:00:00 | 54.641700 | 12.556604 | 2.0 | 12.707 | 2 | 13.056 | 12.893 | 10.019 | 2 |
| 2025-05-25T16:01:00 | 54.643481 | 12.560420 | 2.0 | 12.692 | 2 | 13.051 | 12.872 | 10.021 | 2 |
| 2025-05-25T16:02:00 | 54.645330 | 12.564146 | 2.0 | 12.682 | 2 | 13.052 | 12.860 | 10.025 | 2 |
| 2025-05-25T16:03:00 | 54.647156 | 12.567902 | 2.0 | 12.663 | 2 | 13.056 | 12.848 | 10.031 | 2 |
| 2025-05-25T16:04:00 | 54.648969 | 12.571678 | 2.0 | 12.631 | 2 | 13.056 | 12.826 | 10.037 | 2 |
| 2025-05-25T16:05:00 | 54.650795 | 12.575413 | 2.0 | 12.590 | 2 | 13.055 | 12.793 | 10.045 | 2 |
| 2025-05-25T16:06:00 | 54.652594 | 12.579215 | 2.0 | 12.562 | 2 | 13.056 | 12.757 | 10.055 | 2 |
| 2025-05-25T16:07:00 | 54.654439 | 12.582942 | 2.0 | 12.552 | 2 | 13.068 | 12.728 | 10.073 | 2 |
| 2025-05-25T16:08:00 | 54.656243 | 12.586705 | 2.0 | 12.560 | 2 | 13.091 | 12.725 | 10.093 | 2 |
| 2025-05-25T16:09:00 | 54.658065 | 12.590461 | 2.0 | 12.541 | 2 | 13.108 | 12.726 | 10.107 | 2 |
| 2025-05-25T16:10:00 | 54.659906 | 12.594197 | 2.0 | 12.508 | 2 | 13.108 | 12.707 | 10.112 | 2 |
| 2025-05-25T16:11:00 | 54.661707 | 12.597970 | 2.0 | 12.445 | 2 | 13.032 | 12.668 | 10.059 | 2 |
| 2025-05-25T16:12:00 | 54.663511 | 12.601718 | 2.0 | 12.446 | 2 | 13.064 | 12.617 | 10.099 | 2 |
| 2025-05-25T16:13:00 | 54.665342 | 12.605413 | 2.0 | 12.481 | 2 | 13.013 | 12.626 | 10.054 | 2 |
| 2025-05-25T16:14:00 | 54.667091 | 12.609182 | 2.0 | 12.429 | 2 | 12.780 | 12.630 | 9.858 | 2 |
| 2025-05-25T16:15:00 | 54.668896 | 12.612860 | 2.0 | 12.499 | 2 | 12.642 | 12.608 | 9.749 | 2 |
| 2025-05-25T16:16:00 | 54.670693 | 12.616566 | 2.0 | 12.516 | 2 | 12.562 | 12.665 | 9.668 | 2 |
| 2025-05-25T16:17:00 | 54.672493 | 12.620266 | 2.0 | 12.502 | 2 | 12.568 | 12.682 | 9.668 | 2 |
| 2025-05-25T16:18:00 | 54.674289 | 12.623970 | 2.0 | 12.448 | 2 | 12.259 | 12.651 | 9.419 | 2 |
| 2025-05-25T16:19:00 | 54.676106 | 12.627647 | 2.0 | 12.456 | 2 | 12.412 | 12.620 | 9.554 | 2 |
| 2025-05-25T16:20:00 | 54.677922 | 12.631333 | 2.0 | 12.450 | 2 | 12.273 | 12.628 | 9.437 | 2 |
| 2025-05-25T16:21:00 | 54.679726 | 12.635044 | 2.0 | 12.421 | 2 | 12.380 | 12.612 | 9.530 | 2 |
| 2025-05-25T16:22:00 | 54.681502 | 12.638775 | 2.0 | 12.426 | 2 | 12.334 | 12.594 | 9.496 | 2 |
| 2025-05-25T16:23:00 | 54.683315 | 12.642442 | 2.0 | 12.400 | 2 | 12.307 | 12.587 | 9.475 | 2 |
| 2025-05-25T16:24:00 | 54.685102 | 12.646141 | 2.0 | 12.414 | 2 | 12.255 | 12.573 | 9.435 | 2 |
| 2025-05-25T16:25:00 | 54.686920 | 12.649828 | 2.0 | 12.401 | 2 | 12.263 | 12.583 | 9.440 | 2 |
| 2025-05-25T16:26:00 | 54.688701 | 12.653558 | 2.0 | 12.417 | 2 | 12.264 | 12.569 | 9.444 | 2 |
| 2025-05-25T16:27:00 | 54.690533 | 12.657217 | 2.0 | 12.420 | 2 | 12.261 | 12.584 | 9.438 | 2 |
| 2025-05-25T16:28:00 | 54.692271 | 12.661004 | 2.0 | 12.390 | 2 | 12.292 | 12.582 | 9.464 | 2 |
| 2025-05-25T16:29:00 | 54.693967 | 12.664854 | 2.0 | 12.380 | 2 | 12.276 | 12.565 | 9.455 | 2 |
| 2025-05-25T16:30:00 | 54.695663 | 12.668699 | 2.0 | 12.352 | 2 | 12.170 | 12.540 | 9.373 | 2 |
| 2025-05-25T16:31:00 | 54.697438 | 12.672391 | 2.0 | 11.912 | 2 | 11.931 | 12.446 | 9.197 | 2 |
| 2025-05-25T16:32:00 | 54.699134 | 12.676155 | 2.0 | 11.741 | 2 | 11.137 | 12.073 | 8.623 | 2 |
| 2025-05-25T16:33:00 | 54.700800 | 12.679956 | 2.0 | 11.688 | 2 | 10.874 | 11.916 | 8.438 | 2 |
| 2025-05-25T16:34:00 | 54.702422 | 12.683776 | 2.0 | 11.689 | 2 | 10.768 | 11.870 | 8.360 | 2 |
| 2025-05-25T16:35:00 | 54.703577 | 12.688048 | 2.0 | 11.696 | 2 | 10.732 | 11.871 | 8.330 | 2 |
| 2025-05-25T16:36:00 | 54.704385 | 12.692551 | 2.0 | 11.633 | 2 | 10.745 | 11.862 | 8.342 | 2 |
| 2025-05-25T16:37:00 | 54.705240 | 12.697033 | 2.0 | 11.588 | 2 | 10.687 | 11.795 | 8.309 | 2 |
| 2025-05-25T16:38:00 | 54.706091 | 12.701529 | 2.0 | 11.630 | 2 | 10.642 | 11.773 | 8.276 | 2 |
| 2025-05-25T16:39:00 | 54.706927 | 12.706025 | 2.0 | 11.711 | 2 | 10.674 | 11.820 | 8.292 | 2 |
| 2025-05-25T16:40:00 | 54.707792 | 12.710526 | 2.0 | 11.789 | 2 | 10.745 | 11.879 | 8.339 | 2 |
| 2025-05-25T16:41:00 | 54.708638 | 12.715036 | 2.0 | 11.934 | 2 | 10.865 | 11.987 | 8.415 | 2 |
| 2025-05-25T16:42:00 | 54.709487 | 12.719508 | 2.0 | 11.987 | 2 | 11.033 | 12.104 | 8.529 | 2 |
| 2025-05-25T16:43:00 | 54.710332 | 12.723961 | 2.0 | 11.972 | 2 | 11.090 | 12.154 | 8.565 | 2 |
| 2025-05-25T16:44:00 | 54.711186 | 12.728430 | 2.0 | 11.965 | 2 | 11.070 | 12.142 | 8.551 | 2 |
| 2025-05-25T16:45:00 | 54.712001 | 12.732933 | 2.0 | 12.103 | 2 | 11.068 | 12.153 | 8.547 | 2 |
| 2025-05-25T16:46:00 | 54.712863 | 12.737416 | 2.0 | 12.140 | 2 | 11.261 | 12.275 | 8.680 | 2 |
| 2025-05-25T16:47:00 | 54.713705 | 12.741906 | 2.0 | 12.165 | 2 | 11.343 | 12.306 | 8.741 | 2 |
| 2025-05-25T16:48:00 | 54.714580 | 12.746383 | 2.0 | 12.200 | 2 | 11.424 | 12.338 | 8.801 | 2 |
| 2025-05-25T16:49:00 | 54.715415 | 12.750863 | 2.0 | 12.230 | 2 | 11.485 | 12.369 | 8.844 | 2 |
| 2025-05-25T16:50:00 | 54.716256 | 12.755336 | 2.0 | 12.224 | 2 | 11.626 | 12.402 | 8.954 | 2 |
| 2025-05-25T16:51:00 | 54.717305 | 12.759586 | 2.0 | 11.915 | 2 | 11.569 | 12.320 | 8.926 | 2 |
| 2025-05-25T16:52:00 | 54.718381 | 12.763739 | 2.0 | 11.736 | 2 | 11.087 | 12.073 | 8.581 | 2 |
| 2025-05-25T16:53:00 | 54.719442 | 12.767878 | 2.0 | 11.564 | 2 | 10.780 | 11.904 | 8.362 | 2 |
| 2025-05-25T16:54:00 | 54.720511 | 12.772027 | 2.0 | 11.420 | 2 | 10.525 | 11.684 | 8.197 | 2 |
| 2025-05-25T16:55:00 | 54.721601 | 12.776187 | 2.0 | 11.380 | 2 | 10.455 | 11.642 | 8.148 | 2 |
| 2025-05-25T16:56:00 | 54.722687 | 12.780366 | 2.0 | 11.208 | 2 | 10.356 | 11.515 | 8.092 | 2 |
| 2025-05-25T16:57:00 | 54.723659 | 12.784609 | 2.0 | 11.101 | 2 | 10.243 | 11.380 | 8.026 | 2 |
| 2025-05-25T16:58:00 | 54.724407 | 12.788970 | 2.0 | 11.018 | 2 | 10.185 | 11.272 | 8.000 | 2 |
| 2025-05-25T16:59:00 | 54.725255 | 12.793299 | 2.0 | 10.944 | 2 | 10.151 | 11.191 | 7.989 | 2 |
| 2025-05-25T17:00:00 | 54.726038 | 12.797687 | 2.0 | 10.899 | 2 | 10.127 | 11.122 | 7.983 | 2 |
| 2025-05-25T17:01:00 | 54.726856 | 12.802070 | 2.0 | 10.858 | 2 | 10.112 | 11.077 | 7.980 | 2 |
| 2025-05-25T17:02:00 | 54.727659 | 12.806482 | 2.0 | 10.832 | 2 | 10.099 | 11.036 | 7.978 | 2 |
| 2025-05-25T17:03:00 | 54.728489 | 12.810880 | 2.0 | 10.815 | 2 | 10.091 | 11.011 | 7.977 | 2 |
| 2025-05-25T17:04:00 | 54.729320 | 12.815285 | 2.0 | 10.792 | 2 | 9.971 | 10.993 | 7.878 | 2 |
| 2025-05-25T17:05:00 | 54.730128 | 12.819710 | 2.0 | 10.759 | 2 | 10.004 | 10.965 | 7.913 | 2 |
| 2025-05-25T17:06:00 | 54.730988 | 12.824112 | 2.0 | 10.748 | 2 | 9.985 | 10.934 | 7.903 | 2 |
| 2025-05-25T17:07:00 | 54.731810 | 12.828541 | 2.0 | 10.799 | 2 | 10.018 | 10.931 | 7.932 | 2 |
| 2025-05-25T17:08:00 | 54.732618 | 12.832973 | 2.0 | 10.837 | 2 | 10.022 | 10.984 | 7.924 | 2 |
| 2025-05-25T17:09:00 | 54.733452 | 12.837392 | 2.0 | 10.843 | 2 | 10.044 | 11.011 | 7.937 | 2 |
| 2025-05-25T17:10:00 | 54.734297 | 12.841811 | 2.0 | 10.840 | 2 | 10.031 | 11.017 | 7.924 | 2 |
| 2025-05-25T17:11:00 | 54.735105 | 12.846257 | 2.0 | 10.835 | 2 | 10.093 | 11.015 | 7.978 | 2 |
| 2025-05-25T17:12:00 | 54.735931 | 12.850684 | 2.0 | 10.829 | 2 | 10.093 | 11.010 | 7.979 | 2 |
| 2025-05-25T17:13:00 | 54.736735 | 12.855130 | 2.0 | 10.822 | 2 | 10.093 | 11.003 | 7.980 | 2 |
| 2025-05-25T17:14:00 | 54.737571 | 12.859564 | 2.0 | 10.817 | 2 | 10.093 | 10.997 | 7.982 | 2 |
| 2025-05-25T17:15:00 | 54.738423 | 12.863984 | 2.0 | 10.815 | 2 | 10.094 | 10.992 | 7.983 | 2 |
| 2025-05-25T17:16:00 | 54.739248 | 12.868410 | 2.0 | 10.817 | 2 | 10.094 | 10.990 | 7.984 | 2 |
| 2025-05-25T17:17:00 | 54.740068 | 12.872825 | 2.0 | 10.819 | 2 | 10.096 | 10.992 | 7.985 | 2 |
| 2025-05-25T17:18:00 | 54.740859 | 12.877253 | 2.0 | 10.814 | 2 | 10.098 | 10.993 | 7.987 | 2 |
| 2025-05-25T17:19:00 | 54.741698 | 12.881646 | 2.0 | 10.803 | 2 | 10.099 | 10.988 | 7.989 | 2 |
| 2025-05-25T17:20:00 | 54.742536 | 12.886048 | 2.0 | 10.790 | 2 | 10.098 | 10.977 | 7.990 | 2 |
| 2025-05-25T17:21:00 | 54.743356 | 12.890452 | 2.0 | 10.784 | 2 | 10.095 | 10.965 | 7.990 | 2 |
| 2025-05-25T17:22:00 | 54.744179 | 12.894853 | 2.0 | 10.770 | 2 | 10.094 | 10.957 | 7.991 | 2 |
| 2025-05-25T17:23:00 | 54.745017 | 12.899255 | 2.0 | 10.758 | 2 | 10.089 | 10.942 | 7.990 | 2 |
| 2025-05-25T17:24:00 | 54.745837 | 12.903660 | 2.0 | 10.747 | 2 | 10.086 | 10.934 | 7.989 | 2 |
| 2025-05-25T17:25:00 | 54.746663 | 12.908065 | 2.0 | 10.736 | 2 | 10.080 | 10.921 | 7.987 | 2 |
| 2025-05-25T17:26:00 | 54.747473 | 12.912470 | 2.0 | 10.722 | 2 | 10.076 | 10.909 | 7.986 | 2 |
| 2025-05-25T17:27:00 | 54.748322 | 12.916846 | 2.0 | 10.720 | 2 | 10.073 | 10.900 | 7.985 | 2 |
| 2025-05-25T17:28:00 | 54.749147 | 12.921219 | 2.0 | 10.720 | 2 | 10.072 | 10.899 | 7.985 | 2 |
| 2025-05-25T17:29:00 | 54.749943 | 12.925607 | 2.0 | 10.704 | 2 | 10.072 | 10.896 | 7.985 | 2 |
| 2025-05-25T17:30:00 | 54.750773 | 12.929954 | 2.0 | 10.678 | 2 | 10.065 | 10.873 | 7.984 | 2 |
| 2025-05-25T17:31:00 | 54.751589 | 12.934353 | 2.0 | 10.679 | 2 | 10.058 | 10.850 | 7.983 | 2 |
| 2025-05-25T17:32:00 | 54.752450 | 12.938745 | 2.0 | 10.696 | 2 | 10.059 | 10.858 | 7.983 | 2 |
| 2025-05-25T17:33:00 | 54.753267 | 12.943154 | 2.0 | 10.726 | 2 | 10.065 | 10.876 | 7.984 | 2 |
| 2025-05-25T17:34:00 | 54.754105 | 12.947548 | 2.0 | 10.697 | 2 | 10.068 | 10.894 | 7.982 | 2 |
| 2025-05-25T17:35:00 | 54.754909 | 12.951942 | 2.0 | 10.688 | 2 | 10.064 | 10.866 | 7.985 | 2 |
| 2025-05-25T17:36:00 | 54.755734 | 12.956316 | 2.0 | 10.672 | 2 | 10.063 | 10.862 | 7.985 | 2 |
| 2025-05-25T17:37:00 | 54.756568 | 12.960694 | 2.0 | 10.661 | 2 | 10.057 | 10.842 | 7.984 | 2 |
| 2025-05-25T17:38:00 | 54.757383 | 12.965084 | 2.0 | 10.653 | 2 | 10.054 | 10.834 | 7.984 | 2 |
| 2025-05-25T17:39:00 | 54.758244 | 12.969477 | 2.0 | 10.639 | 2 | 10.051 | 10.822 | 7.984 | 2 |
| 2025-05-25T17:40:00 | 54.759050 | 12.973900 | 2.0 | 10.643 | 2 | 10.049 | 10.817 | 7.983 | 2 |
| 2025-05-25T17:41:00 | 54.759882 | 12.978319 | 2.0 | 10.635 | 2 | 10.049 | 10.815 | 7.983 | 2 |
| 2025-05-25T17:42:00 | 54.760712 | 12.982757 | 2.0 | 10.632 | 2 | 10.048 | 10.810 | 7.984 | 2 |
| 2025-05-25T17:43:00 | 54.761548 | 12.987222 | 2.0 | 10.602 | 2 | 10.046 | 10.805 | 7.983 | 2 |
| 2025-05-25T17:44:00 | 54.762389 | 12.991668 | 2.0 | 10.598 | 2 | 10.039 | 10.777 | 7.983 | 2 |
| 2025-05-25T17:45:00 | 54.763232 | 12.996120 | 2.0 | 10.589 | 2 | 10.036 | 10.774 | 7.981 | 2 |
| 2025-05-25T17:46:00 | 54.764064 | 13.000600 | 2.0 | 10.566 | 2 | 10.034 | 10.762 | 7.982 | 2 |
| 2025-05-25T17:47:00 | 54.764893 | 13.005092 | 2.0 | 10.527 | 2 | 10.025 | 10.732 | 7.981 | 2 |
| 2025-05-25T17:48:00 | 54.765713 | 13.009576 | 2.0 | 10.507 | 2 | 10.015 | 10.703 | 7.979 | 2 |
| 2025-05-25T17:49:00 | 54.766550 | 13.014067 | 2.0 | 10.497 | 2 | 10.008 | 10.682 | 7.977 | 2 |
| 2025-05-25T17:50:00 | 54.767422 | 13.018543 | 2.0 | 10.491 | 2 | 9.935 | 10.672 | 7.917 | 2 |
| 2025-05-25T17:51:00 | 54.768251 | 13.023026 | 2.0 | 10.482 | 2 | 9.974 | 10.667 | 7.951 | 2 |
| 2025-05-25T17:52:00 | 54.769059 | 13.027547 | 2.0 | 10.471 | 2 | 9.950 | 10.656 | 7.933 | 2 |
| 2025-05-25T17:53:00 | 54.769937 | 13.032078 | 2.0 | 10.430 | 2 | 9.950 | 10.648 | 7.935 | 2 |
| 2025-05-25T17:54:00 | 54.770767 | 13.036649 | 2.0 | 10.401 | 2 | 9.936 | 10.593 | 7.934 | 2 |
| 2025-05-25T17:55:00 | 54.771654 | 13.041186 | 2.0 | 10.397 | 2 | 9.941 | 10.583 | 7.941 | 2 |
| 2025-05-25T17:56:00 | 54.772471 | 13.045734 | 2.0 | 10.358 | 2 | 9.754 | 10.564 | 7.784 | 2 |
| 2025-05-25T17:57:00 | 54.773356 | 13.050276 | 2.0 | 10.350 | 2 | 9.719 | 10.536 | 7.760 | 2 |
| 2025-05-25T17:58:00 | 54.774212 | 13.054894 | 2.0 | 10.341 | 2 | 9.933 | 10.527 | 7.946 | 2 |
| 2025-05-25T17:59:00 | 54.775068 | 13.059513 | 2.0 | 10.328 | 2 | 9.927 | 10.515 | 7.944 | 2 |
| 2025-05-25T18:00:00 | 54.775919 | 13.064149 | 2.0 | 10.321 | 2 | 9.922 | 10.504 | 7.942 | 2 |
| 2025-05-25T18:01:00 | 54.776799 | 13.068773 | 2.0 | 10.315 | 2 | 9.918 | 10.497 | 7.940 | 2 |
| 2025-05-25T18:02:00 | 54.777661 | 13.073397 | 2.0 | 10.307 | 2 | 9.915 | 10.490 | 7.939 | 2 |
| 2025-05-25T18:03:00 | 54.778527 | 13.078035 | 2.0 | 10.302 | 2 | 9.911 | 10.484 | 7.937 | 2 |
| 2025-05-25T18:04:00 | 54.779377 | 13.082654 | 2.0 | 10.296 | 2 | 9.907 | 10.475 | 7.935 | 2 |
| 2025-05-25T18:05:00 | 54.780297 | 13.087272 | 2.0 | 10.297 | 2 | 9.904 | 10.473 | 7.933 | 2 |
| 2025-05-25T18:06:00 | 54.781128 | 13.091947 | 2.0 | 10.302 | 2 | 9.903 | 10.474 | 7.932 | 2 |
| 2025-05-25T18:07:00 | 54.782029 | 13.096608 | 2.0 | 10.314 | 2 | 9.904 | 10.479 | 7.932 | 2 |
| 2025-05-25T18:08:00 | 54.782907 | 13.101279 | 2.0 | 10.324 | 2 | 9.907 | 10.491 | 7.932 | 2 |
| 2025-05-25T18:09:00 | 54.783790 | 13.105941 | 2.0 | 10.331 | 2 | 9.910 | 10.501 | 7.932 | 2 |
| 2025-05-25T18:10:00 | 54.784669 | 13.110597 | 2.0 | 10.338 | 2 | 9.912 | 10.507 | 7.932 | 2 |
| 2025-05-25T18:11:00 | 54.785504 | 13.115289 | 2.0 | 10.338 | 2 | 9.913 | 10.513 | 7.932 | 2 |
| 2025-05-25T18:12:00 | 54.786414 | 13.119949 | 2.0 | 10.336 | 2 | 9.911 | 10.513 | 7.930 | 2 |
| 2025-05-25T18:13:00 | 54.787286 | 13.124621 | 2.0 | 10.343 | 2 | 9.909 | 10.512 | 7.929 | 2 |
| 2025-05-25T18:14:00 | 54.788175 | 13.129301 | 2.0 | 10.344 | 2 | 9.912 | 10.519 | 7.930 | 2 |
| 2025-05-25T18:15:00 | 54.789064 | 13.133970 | 2.0 | 10.307 | 2 | 9.909 | 10.512 | 7.929 | 2 |
| 2025-05-25T18:16:00 | 54.789884 | 13.138641 | 2.0 | 10.258 | 2 | 9.894 | 10.478 | 7.923 | 2 |
| 2025-05-25T18:17:00 | 54.790790 | 13.143280 | 2.0 | 10.165 | 2 | 9.866 | 10.416 | 7.912 | 2 |
| 2025-05-25T18:18:00 | 54.791664 | 13.147927 | 2.0 | 10.073 | 2 | 9.822 | 10.322 | 7.895 | 2 |
| 2025-05-25T18:19:00 | 54.792559 | 13.152569 | 2.0 | 10.085 | 2 | 9.791 | 10.269 | 7.879 | 2 |
| 2025-05-25T18:20:00 | 54.793391 | 13.157251 | 2.0 | 10.063 | 2 | 9.784 | 10.249 | 7.878 | 2 |
| 2025-05-25T18:21:00 | 54.794292 | 13.161926 | 2.0 | 10.062 | 2 | 9.775 | 10.243 | 7.871 | 2 |
| 2025-05-25T18:22:00 | 54.795152 | 13.166630 | 2.0 | 10.065 | 2 | 9.772 | 10.240 | 7.869 | 2 |
| 2025-05-25T18:23:00 | 54.796030 | 13.171331 | 2.0 | 10.070 | 2 | 9.771 | 10.243 | 7.868 | 2 |
| 2025-05-25T18:24:00 | 54.796939 | 13.176011 | 2.0 | 10.077 | 2 | 9.772 | 10.247 | 7.868 | 2 |
| 2025-05-25T18:25:00 | 54.797805 | 13.180722 | 2.0 | 10.087 | 2 | 9.775 | 10.254 | 7.869 | 2 |
| 2025-05-25T18:26:00 | 54.798684 | 13.185418 | 2.0 | 10.098 | 2 | 9.781 | 10.264 | 7.872 | 2 |
| 2025-05-25T18:27:00 | 54.799568 | 13.190126 | 2.0 | 10.115 | 2 | 9.788 | 10.275 | 7.875 | 2 |
| 2025-05-25T18:28:00 | 54.800474 | 13.194819 | 2.0 | 10.146 | 2 | 9.797 | 10.293 | 7.879 | 2 |
| 2025-05-25T18:29:00 | 54.801322 | 13.199539 | 2.0 | 10.204 | 2 | 9.813 | 10.323 | 7.887 | 2 |
| 2025-05-25T18:30:00 | 54.802217 | 13.204237 | 2.0 | 10.311 | 2 | 9.841 | 10.397 | 7.895 | 2 |
| 2025-05-25T18:31:00 | 54.803089 | 13.208936 | 2.0 | 10.388 | 2 | 9.889 | 10.494 | 7.915 | 2 |
| 2025-05-25T18:32:00 | 54.803993 | 13.213623 | 2.0 | 10.497 | 2 | 9.922 | 10.575 | 7.926 | 2 |
| 2025-05-25T18:33:00 | 54.804841 | 13.218353 | 2.0 | 10.635 | 2 | 9.966 | 10.690 | 7.939 | 2 |
| 2025-05-25T18:34:00 | 54.805747 | 13.223053 | 2.0 | 10.702 | 2 | 10.017 | 10.812 | 7.957 | 2 |
| 2025-05-25T18:35:00 | 54.806601 | 13.227763 | 2.0 | 10.743 | 2 | 10.045 | 10.873 | 7.967 | 2 |
| 2025-05-25T18:36:00 | 54.807526 | 13.232445 | 2.0 | 10.796 | 2 | 10.061 | 10.915 | 7.972 | 2 |
| 2025-05-25T18:37:00 | 54.808354 | 13.237195 | 2.0 | 10.847 | 2 | 10.084 | 10.971 | 7.979 | 2 |
| 2025-05-25T18:38:00 | 54.809260 | 13.241906 | 2.0 | 10.865 | 2 | 10.105 | 11.014 | 7.988 | 2 |
| 2025-05-25T18:39:00 | 54.810139 | 13.246617 | 2.0 | 10.877 | 2 | 10.115 | 11.034 | 7.992 | 2 |
| 2025-05-25T18:40:00 | 54.811018 | 13.251356 | 2.0 | 10.893 | 2 | 10.125 | 11.048 | 7.998 | 2 |
| 2025-05-25T18:41:00 | 54.811914 | 13.256101 | 2.0 | 10.912 | 2 | 10.138 | 11.064 | 8.005 | 2 |
| 2025-05-25T18:42:00 | 54.812816 | 13.260836 | 2.0 | 10.936 | 2 | 10.152 | 11.084 | 8.013 | 2 |
| 2025-05-25T18:43:00 | 54.813696 | 13.265584 | 2.0 | 10.955 | 2 | 10.168 | 11.106 | 8.022 | 2 |
| 2025-05-25T18:44:00 | 54.814584 | 13.270323 | 2.0 | 10.972 | 2 | 10.180 | 11.126 | 8.028 | 2 |
| 2025-05-25T18:45:00 | 54.815481 | 13.275056 | 2.0 | 10.988 | 2 | 10.178 | 11.142 | 8.022 | 2 |
| 2025-05-25T18:46:00 | 54.816365 | 13.279801 | 2.0 | 11.008 | 2 | 10.201 | 11.159 | 8.038 | 2 |
| 2025-05-25T18:47:00 | 54.817266 | 13.284544 | 2.0 | 11.034 | 2 | 10.230 | 11.179 | 8.059 | 2 |
| 2025-05-25T18:48:00 | 54.818143 | 13.289300 | 2.0 | 11.061 | 2 | 10.271 | 11.206 | 8.088 | 2 |
| 2025-05-25T18:49:00 | 54.819030 | 13.294048 | 2.0 | 11.071 | 2 | 10.296 | 11.230 | 8.103 | 2 |
| 2025-05-25T18:50:00 | 54.819974 | 13.298746 | 2.0 | 10.988 | 2 | 10.304 | 11.222 | 8.112 | 2 |
| 2025-05-25T18:51:00 | 54.820794 | 13.303521 | 2.0 | 11.001 | 2 | 10.282 | 11.167 | 8.105 | 2 |
| 2025-05-25T18:52:00 | 54.821694 | 13.308236 | 2.0 | 11.013 | 2 | 10.276 | 11.173 | 8.099 | 2 |
| 2025-05-25T18:53:00 | 54.822583 | 13.312953 | 2.0 | 10.999 | 2 | 10.262 | 11.181 | 8.085 | 2 |
| 2025-05-25T18:54:00 | 54.823472 | 13.317658 | 2.0 | 10.997 | 2 | 10.250 | 11.166 | 8.078 | 2 |
| 2025-05-25T18:55:00 | 54.824371 | 13.322359 | 2.0 | 11.023 | 2 | 10.253 | 11.172 | 8.080 | 2 |
| 2025-05-25T18:56:00 | 54.825232 | 13.327079 | 2.0 | 11.010 | 2 | 10.271 | 11.193 | 8.090 | 2 |
| 2025-05-25T18:57:00 | 54.826095 | 13.331793 | 2.0 | 10.927 | 2 | 10.270 | 11.156 | 8.098 | 2 |
| 2025-05-25T18:58:00 | 54.826990 | 13.336465 | 2.0 | 10.918 | 2 | 10.230 | 11.091 | 8.078 | 2 |
| 2025-05-25T18:59:00 | 54.827895 | 13.341161 | 2.0 | 10.937 | 2 | 10.224 | 11.093 | 8.072 | 2 |
| 2025-05-25T19:00:00 | 54.828763 | 13.345862 | 2.0 | 10.956 | 2 | 10.230 | 11.112 | 8.073 | 2 |
| 2025-05-25T19:01:00 | 54.829638 | 13.350559 | 2.0 | 10.986 | 2 | 10.238 | 11.129 | 8.076 | 2 |
| 2025-05-25T19:02:00 | 54.830544 | 13.355263 | 2.0 | 10.992 | 2 | 10.258 | 11.158 | 8.087 | 2 |
| 2025-05-25T19:03:00 | 54.831407 | 13.359975 | 2.0 | 10.987 | 2 | 10.269 | 11.161 | 8.096 | 2 |
| 2025-05-25T19:04:00 | 54.832298 | 13.364681 | 2.0 | 10.983 | 2 | 10.271 | 11.155 | 8.099 | 2 |
| 2025-05-25T19:05:00 | 54.833173 | 13.369385 | 2.0 | 10.988 | 2 | 10.272 | 11.154 | 8.100 | 2 |
| 2025-05-25T19:06:00 | 54.834055 | 13.374094 | 2.0 | 10.999 | 2 | 10.278 | 11.158 | 8.104 | 2 |
| 2025-05-25T19:07:00 | 54.834953 | 13.378799 | 2.0 | 10.994 | 2 | 10.285 | 11.168 | 8.108 | 2 |
| 2025-05-25T19:08:00 | 54.835845 | 13.383519 | 2.0 | 10.985 | 2 | 10.285 | 11.165 | 8.108 | 2 |
| 2025-05-25T19:09:00 | 54.836711 | 13.388249 | 2.0 | 10.999 | 2 | 10.279 | 11.158 | 8.105 | 2 |
| 2025-05-25T19:10:00 | 54.837658 | 13.392929 | 2.0 | 11.019 | 2 | 10.284 | 11.172 | 8.106 | 2 |
| 2025-05-25T19:11:00 | 54.838511 | 13.397678 | 2.0 | 10.988 | 2 | 10.291 | 11.179 | 8.110 | 2 |
| 2025-05-25T19:12:00 | 54.839398 | 13.402417 | 2.0 | 11.003 | 2 | 10.280 | 11.162 | 8.105 | 2 |
| 2025-05-25T19:13:00 | 54.840309 | 13.407147 | 2.0 | 10.988 | 2 | 10.277 | 11.163 | 8.102 | 2 |
| 2025-05-25T19:14:00 | 54.841197 | 13.411900 | 2.0 | 10.995 | 2 | 10.272 | 11.158 | 8.099 | 2 |
| 2025-05-25T19:15:00 | 54.842086 | 13.416654 | 2.0 | 11.006 | 2 | 10.275 | 11.167 | 8.099 | 2 |
| 2025-05-25T19:16:00 | 54.843002 | 13.421408 | 2.0 | 11.034 | 2 | 10.282 | 11.184 | 8.102 | 2 |
| 2025-05-25T19:17:00 | 54.843895 | 13.426193 | 2.0 | 11.020 | 2 | 10.290 | 11.198 | 8.105 | 2 |
| 2025-05-25T19:18:00 | 54.844781 | 13.430991 | 2.0 | 11.017 | 2 | 10.277 | 11.189 | 8.096 | 2 |
| 2025-05-25T19:19:00 | 54.845691 | 13.435785 | 2.0 | 11.020 | 2 | 10.272 | 11.188 | 8.092 | 2 |
| 2025-05-25T19:20:00 | 54.846589 | 13.440583 | 2.0 | 11.018 | 2 | 10.266 | 11.188 | 8.087 | 2 |
| 2025-05-25T19:21:00 | 54.847504 | 13.445364 | 2.0 | 11.019 | 2 | 10.261 | 11.189 | 8.083 | 2 |
| 2025-05-25T19:22:00 | 54.848384 | 13.450145 | 2.0 | 11.012 | 2 | 10.255 | 11.188 | 8.078 | 2 |
| 2025-05-25T19:23:00 | 54.849312 | 13.454902 | 2.0 | 10.988 | 2 | 10.245 | 11.178 | 8.072 | 2 |
| 2025-05-25T19:24:00 | 54.850186 | 13.459690 | 2.0 | 10.969 | 2 | 10.230 | 11.157 | 8.063 | 2 |
| 2025-05-25T19:25:00 | 54.851119 | 13.464442 | 2.0 | 10.937 | 2 | 10.216 | 11.135 | 8.056 | 2 |
| 2025-05-25T19:26:00 | 54.851993 | 13.469243 | 2.0 | 10.907 | 2 | 10.199 | 11.104 | 8.049 | 2 |
| 2025-05-25T19:27:00 | 54.852871 | 13.474030 | 2.0 | 10.901 | 2 | 10.184 | 11.080 | 8.041 | 2 |
| 2025-05-25T19:28:00 | 54.853795 | 13.478806 | 2.0 | 10.905 | 2 | 10.177 | 11.074 | 8.036 | 2 |
| 2025-05-25T19:29:00 | 54.854706 | 13.483618 | 2.0 | 10.903 | 2 | 10.174 | 11.076 | 8.033 | 2 |
| 2025-05-25T19:30:00 | 54.855594 | 13.488455 | 2.0 | 10.908 | 2 | 10.172 | 11.075 | 8.032 | 2 |
| 2025-05-25T19:31:00 | 54.856549 | 13.493267 | 2.0 | 10.902 | 2 | 10.171 | 11.079 | 8.030 | 2 |
| 2025-05-25T19:32:00 | 54.857411 | 13.498102 | 2.0 | 10.887 | 2 | 10.166 | 11.068 | 8.028 | 2 |
| 2025-05-25T19:33:00 | 54.858335 | 13.502900 | 2.0 | 10.897 | 2 | 10.160 | 11.060 | 8.025 | 2 |
| 2025-05-25T19:34:00 | 54.859221 | 13.507733 | 2.0 | 10.907 | 2 | 10.156 | 11.069 | 8.020 | 2 |
| 2025-05-25T19:35:00 | 54.860119 | 13.512525 | 2.0 | 10.909 | 2 | 10.153 | 11.078 | 8.015 | 2 |
| 2025-05-25T19:36:00 | 54.860994 | 13.517318 | 2.0 | 10.922 | 2 | 10.151 | 11.083 | 8.012 | 2 |
| 2025-05-25T19:37:00 | 54.861894 | 13.522120 | 2.0 | 10.936 | 2 | 10.154 | 11.093 | 8.013 | 2 |
| 2025-05-25T19:38:00 | 54.862781 | 13.526929 | 2.0 | 10.960 | 2 | 10.158 | 11.110 | 8.012 | 2 |
| 2025-05-25T19:39:00 | 54.863709 | 13.531712 | 2.0 | 10.991 | 2 | 10.168 | 11.135 | 8.015 | 2 |
| 2025-05-25T19:40:00 | 54.864584 | 13.536522 | 2.0 | 11.016 | 2 | 10.179 | 11.163 | 8.019 | 2 |
| 2025-05-25T19:41:00 | 54.865493 | 13.541323 | 2.0 | 11.034 | 2 | 10.187 | 11.185 | 8.021 | 2 |
| 2025-05-25T19:42:00 | 54.866381 | 13.546130 | 2.0 | 11.061 | 2 | 10.193 | 11.206 | 8.021 | 2 |
| 2025-05-25T19:43:00 | 54.867297 | 13.550895 | 2.0 | 11.074 | 2 | 10.199 | 11.230 | 8.021 | 2 |
| 2025-05-25T19:44:00 | 54.868208 | 13.555687 | 2.0 | 11.102 | 2 | 10.204 | 11.247 | 8.022 | 2 |
| 2025-05-25T19:45:00 | 54.869131 | 13.560477 | 2.0 | 11.112 | 2 | 10.209 | 11.270 | 8.021 | 2 |
| 2025-05-25T19:46:00 | 54.869988 | 13.565305 | 2.0 | 11.131 | 2 | 10.214 | 11.283 | 8.022 | 2 |
| 2025-05-25T19:47:00 | 54.870882 | 13.570112 | 2.0 | 11.161 | 2 | 10.222 | 11.303 | 8.025 | 2 |
| 2025-05-25T19:48:00 | 54.871774 | 13.574913 | 2.0 | 11.180 | 2 | 10.232 | 11.330 | 8.027 | 2 |
| 2025-05-25T19:49:00 | 54.872681 | 13.579717 | 2.0 | 11.208 | 2 | 10.242 | 11.351 | 8.031 | 2 |
| 2025-05-25T19:50:00 | 54.873599 | 13.584510 | 2.0 | 11.228 | 2 | 10.254 | 11.377 | 8.036 | 2 |
| 2025-05-25T19:51:00 | 54.874493 | 13.589338 | 2.0 | 11.239 | 2 | 10.266 | 11.395 | 8.042 | 2 |
| 2025-05-25T19:52:00 | 54.875388 | 13.594170 | 2.0 | 11.248 | 2 | 10.274 | 11.407 | 8.046 | 2 |
| 2025-05-25T19:53:00 | 54.876294 | 13.599000 | 2.0 | 11.254 | 2 | 10.282 | 11.416 | 8.051 | 2 |
| 2025-05-25T19:54:00 | 54.877219 | 13.603794 | 2.0 | 11.226 | 2 | 10.292 | 11.420 | 8.059 | 2 |
| 2025-05-25T19:55:00 | 54.878097 | 13.608610 | 2.0 | 11.177 | 2 | 10.280 | 11.384 | 8.056 | 2 |
| 2025-05-25T19:56:00 | 54.878996 | 13.613392 | 2.0 | 11.157 | 2 | 10.250 | 11.344 | 8.040 | 2 |
| 2025-05-25T19:57:00 | 54.879878 | 13.618187 | 2.0 | 11.161 | 2 | 10.235 | 11.329 | 8.030 | 2 |
| 2025-05-25T19:58:00 | 54.880804 | 13.622950 | 2.0 | 11.168 | 2 | 10.234 | 11.332 | 8.029 | 2 |
| 2025-05-25T19:59:00 | 54.881650 | 13.627755 | 2.0 | 11.176 | 2 | 10.238 | 11.338 | 8.031 | 2 |
| 2025-05-25T20:00:00 | 54.882580 | 13.632522 | 2.0 | 11.193 | 2 | 10.242 | 11.348 | 8.032 | 2 |
| 2025-05-25T20:01:00 | 54.883441 | 13.637309 | 2.0 | 11.203 | 2 | 10.251 | 11.362 | 8.037 | 2 |
| 2025-05-25T20:02:00 | 54.884363 | 13.642058 | 2.0 | 11.213 | 2 | 10.259 | 11.374 | 8.041 | 2 |
| 2025-05-25T20:03:00 | 54.885224 | 13.646843 | 2.0 | 11.204 | 2 | 10.266 | 11.379 | 8.046 | 2 |
| 2025-05-25T20:04:00 | 54.886142 | 13.651616 | 2.0 | 11.199 | 2 | 10.261 | 11.372 | 8.043 | 2 |
| 2025-05-25T20:05:00 | 54.887023 | 13.656379 | 2.0 | 11.189 | 2 | 10.255 | 11.368 | 8.039 | 2 |
| 2025-05-25T20:06:00 | 54.887883 | 13.661143 | 2.0 | 11.165 | 2 | 10.245 | 11.354 | 8.033 | 2 |
| 2025-05-25T20:07:00 | 54.888798 | 13.665852 | 2.0 | 11.147 | 2 | 10.234 | 11.333 | 8.029 | 2 |
| 2025-05-25T20:08:00 | 54.889675 | 13.670550 | 2.0 | 11.141 | 2 | 10.227 | 11.316 | 8.026 | 2 |
| 2025-05-25T20:09:00 | 54.890530 | 13.675229 | 2.0 | 11.130 | 2 | 10.225 | 11.308 | 8.026 | 2 |
| 2025-05-25T20:10:00 | 54.891447 | 13.679885 | 2.0 | 11.118 | 2 | 10.222 | 11.298 | 8.026 | 2 |
| 2025-05-25T20:11:00 | 54.892306 | 13.684566 | 2.0 | 11.111 | 2 | 10.218 | 11.287 | 8.025 | 2 |
| 2025-05-25T20:12:00 | 54.893178 | 13.689226 | 2.0 | 11.107 | 2 | 10.190 | 11.280 | 8.003 | 2 |
| 2025-05-25T20:13:00 | 54.894066 | 13.693881 | 2.0 | 11.107 | 2 | 10.118 | 11.277 | 7.942 | 2 |
| 2025-05-25T20:14:00 | 54.894953 | 13.698519 | 2.0 | 11.122 | 2 | 10.134 | 11.276 | 7.956 | 2 |
| 2025-05-25T20:15:00 | 54.895804 | 13.703196 | 2.0 | 11.122 | 2 | 10.165 | 11.289 | 7.980 | 2 |
| 2025-05-25T20:16:00 | 54.896679 | 13.707857 | 2.0 | 11.119 | 2 | 10.234 | 11.293 | 8.037 | 2 |
| 2025-05-25T20:17:00 | 54.897555 | 13.712525 | 2.0 | 11.096 | 2 | 10.231 | 11.282 | 8.037 | 2 |
| 2025-05-25T20:18:00 | 54.898450 | 13.717203 | 2.0 | 11.084 | 2 | 10.217 | 11.264 | 8.029 | 2 |
| 2025-05-25T20:19:00 | 54.899322 | 13.721915 | 2.0 | 11.079 | 2 | 10.209 | 11.253 | 8.025 | 2 |
| 2025-05-25T20:20:00 | 54.900205 | 13.726627 | 2.0 | 11.079 | 2 | 10.207 | 11.249 | 8.024 | 2 |
| 2025-05-25T20:21:00 | 54.901107 | 13.731329 | 2.0 | 11.074 | 2 | 10.205 | 11.247 | 8.023 | 2 |
| 2025-05-25T20:22:00 | 54.902011 | 13.736033 | 2.0 | 11.082 | 2 | 10.206 | 11.244 | 8.024 | 2 |
| 2025-05-25T20:23:00 | 54.902864 | 13.740787 | 2.0 | 11.076 | 2 | 10.215 | 11.250 | 8.030 | 2 |
| 2025-05-25T20:24:00 | 54.903768 | 13.745553 | 2.0 | 11.074 | 2 | 10.212 | 11.245 | 8.029 | 2 |
| 2025-05-25T20:25:00 | 54.904700 | 13.750310 | 2.0 | 11.082 | 2 | 10.207 | 11.245 | 8.025 | 2 |
| 2025-05-25T20:26:00 | 54.905593 | 13.755091 | 2.0 | 11.089 | 2 | 10.199 | 11.252 | 8.016 | 2 |
| 2025-05-25T20:27:00 | 54.906507 | 13.759910 | 2.0 | 11.097 | 2 | 10.208 | 11.259 | 8.023 | 2 |
| 2025-05-25T20:28:00 | 54.907428 | 13.764738 | 2.0 | 11.099 | 2 | 10.212 | 11.266 | 8.024 | 2 |
| 2025-05-25T20:29:00 | 54.908299 | 13.769578 | 2.0 | 11.095 | 2 | 10.186 | 11.266 | 8.002 | 2 |
| 2025-05-25T20:30:00 | 54.909236 | 13.774398 | 2.0 | 11.082 | 2 | 10.194 | 11.261 | 8.010 | 2 |
| 2025-05-25T20:31:00 | 54.910184 | 13.779230 | 2.0 | 11.055 | 2 | 10.206 | 11.248 | 8.023 | 2 |
| 2025-05-25T20:32:00 | 54.911080 | 13.784104 | 2.0 | 11.021 | 2 | 10.199 | 11.219 | 8.024 | 2 |
| 2025-05-25T20:33:00 | 54.911970 | 13.788972 | 2.0 | 10.992 | 2 | 10.188 | 11.184 | 8.022 | 2 |
| 2025-05-25T20:34:00 | 54.912872 | 13.793830 | 2.0 | 10.974 | 2 | 10.181 | 11.161 | 8.021 | 2 |
| 2025-05-25T20:35:00 | 54.913806 | 13.798664 | 2.0 | 10.960 | 2 | 10.174 | 11.144 | 8.019 | 2 |
| 2025-05-25T20:36:00 | 54.914720 | 13.803520 | 2.0 | 10.959 | 2 | 10.170 | 11.131 | 8.018 | 2 |
| 2025-05-25T20:37:00 | 54.915594 | 13.808398 | 2.0 | 10.940 | 2 | 10.169 | 11.125 | 8.018 | 2 |
| 2025-05-25T20:38:00 | 54.916506 | 13.813276 | 2.0 | 10.932 | 2 | 10.164 | 11.110 | 8.017 | 2 |
| 2025-05-25T20:39:00 | 54.917437 | 13.818144 | 2.0 | 10.924 | 2 | 10.162 | 11.101 | 8.018 | 2 |
| 2025-05-25T20:40:00 | 54.918316 | 13.823032 | 2.0 | 11.148 | 2 | 10.169 | 11.114 | 8.021 | 2 |
| 2025-05-25T20:41:00 | 54.919248 | 13.827883 | 2.0 | 11.250 | 2 | 10.269 | 11.349 | 8.055 | 2 |
| 2025-05-25T20:42:00 | 54.920203 | 13.832723 | 2.0 | 11.166 | 2 | 10.301 | 11.387 | 8.073 | 2 |
| 2025-05-25T20:43:00 | 54.921110 | 13.837580 | 2.0 | 11.209 | 2 | 10.278 | 11.339 | 8.064 | 2 |
| 2025-05-25T20:44:00 | 54.922036 | 13.842411 | 2.0 | 11.285 | 2 | 10.278 | 11.392 | 8.053 | 2 |
| 2025-05-25T20:45:00 | 54.922935 | 13.847231 | 2.0 | 11.205 | 2 | 10.241 | 11.432 | 8.013 | 2 |
| 2025-05-25T20:46:00 | 54.923832 | 13.852042 | 2.0 | 11.152 | 2 | 10.220 | 11.366 | 8.010 | 2 |
| 2025-05-25T20:47:00 | 54.924718 | 13.856863 | 2.0 | 11.150 | 2 | 10.222 | 11.312 | 8.023 | 2 |
| 2025-05-25T20:48:00 | 54.925626 | 13.861669 | 2.0 | 11.202 | 2 | 10.225 | 11.333 | 8.021 | 2 |
| 2025-05-25T20:49:00 | 54.926507 | 13.866478 | 2.0 | 11.217 | 2 | 10.231 | 11.370 | 8.018 | 2 |
| 2025-05-25T20:50:00 | 54.927407 | 13.871287 | 2.0 | 11.248 | 2 | 10.255 | 11.389 | 8.034 | 2 |
| 2025-05-25T20:51:00 | 54.928296 | 13.876098 | 2.0 | 11.253 | 2 | 10.268 | 11.414 | 8.040 | 2 |
| 2025-05-25T20:52:00 | 54.929161 | 13.880904 | 2.0 | 11.236 | 2 | 10.282 | 11.418 | 8.051 | 2 |
| 2025-05-25T20:53:00 | 54.930026 | 13.885701 | 2.0 | 11.160 | 2 | 10.283 | 11.396 | 8.056 | 2 |
| 2025-05-25T20:54:00 | 54.930923 | 13.890476 | 2.0 | 11.044 | 2 | 10.258 | 11.316 | 8.053 | 2 |
| 2025-05-25T20:55:00 | 54.931829 | 13.895242 | 2.0 | 10.942 | 2 | 10.212 | 11.195 | 8.040 | 2 |
| 2025-05-25T20:56:00 | 54.932729 | 13.900040 | 2.0 | 10.954 | 2 | 10.178 | 11.124 | 8.026 | 2 |
| 2025-05-25T20:57:00 | 54.933591 | 13.904850 | 2.0 | 10.976 | 2 | 10.175 | 11.131 | 8.022 | 2 |
| 2025-05-25T20:58:00 | 54.934507 | 13.909637 | 2.0 | 11.004 | 2 | 10.084 | 11.150 | 7.941 | 2 |
| 2025-05-25T20:59:00 | 54.935411 | 13.914445 | 2.0 | 11.033 | 2 | 10.195 | 11.180 | 8.029 | 2 |
| 2025-05-25T21:00:00 | 54.936244 | 13.919278 | 2.0 | 11.044 | 2 | 10.204 | 11.203 | 8.031 | 2 |
| 2025-05-25T21:01:00 | 54.937195 | 13.924057 | 2.0 | 11.023 | 2 | 10.210 | 11.211 | 8.035 | 2 |
| 2025-05-25T21:02:00 | 54.938060 | 13.928865 | 2.0 | 11.028 | 2 | 10.205 | 11.196 | 8.034 | 2 |
| 2025-05-25T21:03:00 | 54.938977 | 13.933642 | 2.0 | 11.032 | 2 | 10.203 | 11.198 | 8.032 | 2 |
| 2025-05-25T21:04:00 | 54.939861 | 13.938454 | 2.0 | 11.053 | 2 | 10.201 | 11.204 | 8.029 | 2 |
| 2025-05-25T21:05:00 | 54.940736 | 13.943275 | 2.0 | 11.062 | 2 | 10.205 | 11.223 | 8.028 | 2 |
| 2025-05-25T21:06:00 | 54.941651 | 13.948081 | 2.0 | 11.061 | 2 | 10.205 | 11.230 | 8.026 | 2 |
| 2025-05-25T21:07:00 | 54.942538 | 13.952910 | 2.0 | 11.055 | 2 | 10.202 | 11.230 | 8.024 | 2 |
| 2025-05-25T21:08:00 | 54.943418 | 13.957757 | 2.0 | 11.046 | 2 | 10.182 | 11.223 | 8.008 | 2 |
| 2025-05-25T21:09:00 | 54.944336 | 13.962584 | 2.0 | 11.040 | 2 | 10.191 | 11.216 | 8.017 | 2 |
| 2025-05-25T21:10:00 | 54.945191 | 13.967419 | 2.0 | 10.999 | 2 | 10.184 | 11.202 | 8.015 | 2 |
| 2025-05-25T21:11:00 | 54.946131 | 13.972207 | 2.0 | 10.980 | 2 | 10.167 | 11.164 | 8.008 | 2 |
| 2025-05-25T21:12:00 | 54.947024 | 13.977053 | 2.0 | 10.956 | 2 | 10.158 | 11.152 | 8.003 | 2 |
| 2025-05-25T21:13:00 | 54.947938 | 13.981876 | 2.0 | 10.928 | 2 | 10.144 | 11.119 | 7.999 | 2 |
| 2025-05-25T21:14:00 | 54.948851 | 13.986732 | 2.0 | 10.906 | 2 | 10.129 | 11.095 | 7.991 | 2 |
| 2025-05-25T21:15:00 | 54.949739 | 13.991609 | 2.0 | 10.904 | 2 | 10.116 | 11.077 | 7.984 | 2 |
| 2025-05-25T21:16:00 | 54.950642 | 13.996474 | 2.0 | 10.909 | 2 | 10.111 | 11.074 | 7.980 | 2 |
| 2025-05-25T21:17:00 | 54.951554 | 14.001334 | 2.0 | 10.914 | 2 | 10.109 | 11.080 | 7.977 | 2 |
| 2025-05-25T21:18:00 | 54.952449 | 14.006190 | 2.0 | 10.918 | 2 | 10.111 | 11.084 | 7.978 | 2 |
| 2025-05-25T21:19:00 | 54.953392 | 14.011085 | 2.0 | 10.917 | 2 | 10.112 | 11.087 | 7.978 | 2 |
| 2025-05-25T21:20:00 | 54.954364 | 14.015987 | 2.0 | 10.913 | 2 | 10.114 | 11.086 | 7.980 | 2 |
| 2025-05-25T21:21:00 | 54.955297 | 14.020886 | 2.0 | 10.908 | 2 | 10.115 | 11.082 | 7.982 | 2 |
| 2025-05-25T21:22:00 | 54.957039 | 14.025004 | 2.0 | 10.899 | 2 | 10.116 | 11.076 | 7.984 | 2 |
| 2025-05-25T21:23:00 | 54.958892 | 14.029078 | 2.0 | 10.881 | 2 | 10.116 | 11.066 | 7.986 | 2 |
| 2025-05-25T21:24:00 | 54.960678 | 14.033270 | 2.0 | 10.866 | 2 | 10.115 | 11.049 | 7.989 | 2 |
| 2025-05-25T21:25:00 | 54.962488 | 14.037431 | 2.0 | 10.861 | 2 | 10.114 | 11.034 | 7.991 | 2 |
| 2025-05-25T21:26:00 | 54.964296 | 14.041609 | 2.0 | 10.844 | 2 | 10.116 | 11.027 | 7.995 | 2 |
| 2025-05-25T21:27:00 | 54.966118 | 14.045797 | 2.0 | 10.833 | 2 | 10.118 | 11.012 | 8.000 | 2 |
| 2025-05-25T21:28:00 | 54.967919 | 14.049998 | 2.0 | 10.799 | 2 | 10.120 | 10.998 | 8.004 | 2 |
| 2025-05-25T21:29:00 | 54.969731 | 14.054162 | 2.0 | 10.809 | 2 | 10.119 | 10.971 | 8.009 | 2 |
| 2025-05-25T21:30:00 | 54.971553 | 14.058341 | 2.0 | 10.836 | 2 | 10.113 | 10.983 | 8.002 | 2 |
| 2025-05-25T21:31:00 | 54.973393 | 14.062499 | 2.0 | 10.859 | 2 | 10.127 | 11.009 | 8.008 | 2 |
| 2025-05-25T21:32:00 | 54.975164 | 14.066721 | 2.0 | 10.833 | 2 | 10.132 | 11.022 | 8.009 | 2 |
| 2025-05-25T21:33:00 | 54.976984 | 14.070858 | 2.0 | 10.822 | 2 | 10.115 | 11.002 | 7.999 | 2 |
| 2025-05-25T21:34:00 | 54.978773 | 14.075048 | 2.0 | 10.825 | 2 | 10.104 | 10.991 | 7.992 | 2 |
| 2025-05-25T21:35:00 | 54.980623 | 14.079180 | 2.0 | 10.857 | 2 | 10.103 | 10.999 | 7.990 | 2 |
| 2025-05-25T21:36:00 | 54.982423 | 14.083399 | 2.0 | 10.890 | 2 | 10.117 | 11.030 | 7.995 | 2 |
| 2025-05-25T21:37:00 | 54.984243 | 14.087596 | 2.0 | 10.906 | 2 | 10.134 | 11.059 | 8.003 | 2 |
| 2025-05-25T21:38:00 | 54.986080 | 14.091764 | 2.0 | 10.905 | 2 | 10.146 | 11.074 | 8.010 | 2 |
| 2025-05-25T21:39:00 | 54.987852 | 14.096038 | 2.0 | 10.890 | 2 | 10.157 | 11.072 | 8.020 | 2 |
| 2025-05-25T21:40:00 | 54.989746 | 14.100196 | 2.0 | 10.881 | 2 | 10.159 | 11.055 | 8.025 | 2 |
| 2025-05-25T21:41:00 | 54.991561 | 14.104457 | 2.0 | 10.887 | 2 | 10.159 | 11.051 | 8.026 | 2 |
| 2025-05-25T21:42:00 | 54.993379 | 14.108721 | 2.0 | 10.893 | 2 | 10.160 | 11.056 | 8.026 | 2 |
| 2025-05-25T21:43:00 | 54.995225 | 14.112930 | 2.0 | 10.893 | 2 | 10.162 | 11.061 | 8.026 | 2 |
| 2025-05-25T21:44:00 | 54.997060 | 14.117163 | 2.0 | 10.887 | 2 | 10.161 | 11.058 | 8.026 | 2 |
| 2025-05-25T21:45:00 | 54.998927 | 14.121347 | 2.0 | 10.908 | 2 | 10.162 | 11.063 | 8.026 | 2 |
| 2025-05-25T21:46:00 | 55.000710 | 14.125623 | 2.0 | 10.810 | 2 | 10.151 | 11.047 | 8.020 | 2 |
| 2025-05-25T21:47:00 | 55.002571 | 14.129777 | 2.0 | 10.800 | 2 | 10.108 | 10.984 | 7.997 | 2 |
| 2025-05-25T21:48:00 | 55.004364 | 14.134008 | 2.0 | 10.799 | 2 | 10.098 | 10.972 | 7.991 | 2 |
| 2025-05-25T21:49:00 | 55.006204 | 14.138190 | 2.0 | 10.796 | 2 | 10.091 | 10.967 | 7.986 | 2 |
| 2025-05-25T21:50:00 | 55.008026 | 14.142391 | 2.0 | 10.822 | 2 | 10.087 | 10.967 | 7.983 | 2 |
| 2025-05-25T21:51:00 | 55.009847 | 14.146594 | 2.0 | 10.854 | 2 | 10.099 | 10.997 | 7.987 | 2 |
| 2025-05-25T21:52:00 | 55.011728 | 14.150737 | 2.0 | 10.907 | 2 | 10.116 | 11.029 | 7.994 | 2 |
| 2025-05-25T21:53:00 | 55.013975 | 14.154258 | 2.0 | 10.908 | 2 | 10.140 | 11.071 | 8.006 | 2 |
| 2025-05-25T21:54:00 | 55.016397 | 14.157489 | 2.0 | 10.917 | 2 | 10.145 | 11.075 | 8.009 | 2 |
| 2025-05-25T21:55:00 | 55.018783 | 14.160795 | 2.0 | 10.929 | 2 | 10.148 | 11.087 | 8.009 | 2 |
| 2025-05-25T21:56:00 | 55.021203 | 14.164015 | 2.0 | 10.908 | 2 | 10.151 | 11.096 | 8.009 | 2 |
| 2025-05-25T21:57:00 | 55.023586 | 14.167298 | 2.0 | 10.860 | 2 | 10.138 | 11.063 | 8.006 | 2 |
| 2025-05-25T21:58:00 | 55.026002 | 14.170521 | 2.0 | 10.905 | 2 | 10.123 | 11.041 | 7.998 | 2 |
| 2025-05-25T21:59:00 | 55.028412 | 14.173787 | 2.0 | 10.921 | 2 | 10.130 | 11.075 | 7.996 | 2 |
| 2025-05-25T22:00:00 | 55.030813 | 14.177049 | 2.0 | 10.915 | 2 | 10.129 | 11.088 | 7.992 | 2 |
| 2025-05-25T22:01:00 | 55.033198 | 14.180305 | 2.0 | 10.857 | 2 | 10.120 | 11.073 | 7.988 | 2 |
| 2025-05-25T22:02:00 | 55.035558 | 14.183620 | 2.0 | 10.825 | 2 | 10.096 | 11.022 | 7.979 | 2 |
| 2025-05-25T22:03:00 | 55.037923 | 14.186905 | 2.0 | 10.818 | 2 | 10.083 | 10.995 | 7.973 | 2 |
| 2025-05-25T22:04:00 | 55.040299 | 14.190179 | 2.0 | 10.806 | 2 | 10.078 | 10.986 | 7.971 | 2 |
| 2025-05-25T22:05:00 | 55.042658 | 14.193479 | 2.0 | 10.807 | 2 | 10.076 | 10.977 | 7.971 | 2 |
| 2025-05-25T22:06:00 | 55.045038 | 14.196723 | 2.0 | 10.811 | 2 | 10.076 | 10.977 | 7.971 | 2 |
| 2025-05-25T22:07:00 | 55.047373 | 14.200042 | 2.0 | 10.816 | 2 | 10.008 | 10.981 | 7.913 | 2 |
| 2025-05-25T22:08:00 | 55.049748 | 14.203274 | 2.0 | 10.824 | 2 | 9.961 | 10.987 | 7.871 | 2 |
| 2025-05-25T22:09:00 | 55.052093 | 14.206521 | 2.0 | 10.833 | 2 | 10.087 | 10.994 | 7.977 | 2 |
| 2025-05-25T22:10:00 | 55.054432 | 14.209802 | 2.0 | 10.838 | 2 | 10.095 | 11.003 | 7.982 | 2 |
| 2025-05-25T22:11:00 | 55.056782 | 14.213073 | 2.0 | 10.846 | 2 | 10.102 | 11.008 | 7.987 | 2 |
| 2025-05-25T22:12:00 | 55.059127 | 14.216341 | 2.0 | 10.854 | 2 | 10.106 | 11.016 | 7.988 | 2 |
| 2025-05-25T22:13:00 | 55.061492 | 14.219566 | 2.0 | 10.856 | 2 | 10.111 | 11.023 | 7.991 | 2 |
| 2025-05-25T22:14:00 | 55.063846 | 14.222820 | 2.0 | 10.848 | 2 | 10.114 | 11.023 | 7.994 | 2 |
| 2025-05-25T22:15:00 | 55.066189 | 14.226097 | 2.0 | 10.832 | 2 | 10.116 | 11.014 | 7.997 | 2 |
| 2025-05-25T22:16:00 | 55.068528 | 14.229351 | 2.0 | 10.809 | 2 | 10.115 | 10.997 | 8.000 | 2 |
| 2025-05-25T22:17:00 | 55.070885 | 14.232576 | 2.0 | 10.771 | 2 | 10.111 | 10.975 | 8.002 | 2 |
| 2025-05-25T22:18:00 | 55.073249 | 14.235800 | 2.0 | 10.747 | 2 | 10.104 | 10.935 | 8.004 | 2 |
| 2025-05-25T22:19:00 | 55.075581 | 14.239035 | 2.0 | 10.740 | 2 | 10.099 | 10.917 | 8.004 | 2 |
| 2025-05-25T22:20:00 | 55.077911 | 14.242262 | 2.0 | 10.727 | 2 | 10.085 | 10.909 | 7.994 | 2 |
| 2025-05-25T22:21:00 | 55.080256 | 14.245438 | 2.0 | 10.728 | 2 | 9.958 | 10.897 | 7.888 | 2 |
| 2025-05-25T22:22:00 | 55.082561 | 14.248709 | 2.0 | 10.732 | 2 | 9.978 | 10.899 | 7.905 | 2 |
| 2025-05-25T22:23:00 | 55.084920 | 14.251895 | 2.0 | 10.733 | 2 | 9.959 | 10.902 | 7.888 | 2 |
| 2025-05-25T22:24:00 | 55.087223 | 14.255196 | 2.0 | 10.735 | 2 | 9.991 | 10.904 | 7.915 | 2 |
| 2025-05-25T22:25:00 | 55.089576 | 14.258398 | 2.0 | 10.751 | 2 | 10.037 | 10.908 | 7.953 | 2 |
| 2025-05-25T22:26:00 | 55.091904 | 14.261660 | 2.0 | 10.771 | 2 | 10.043 | 10.923 | 7.955 | 2 |
| 2025-05-25T22:27:00 | 55.094261 | 14.264869 | 2.0 | 10.803 | 2 | 10.032 | 10.944 | 7.941 | 2 |
| 2025-05-25T22:28:00 | 55.096594 | 14.268103 | 2.0 | 10.807 | 2 | 10.040 | 10.971 | 7.942 | 2 |
| 2025-05-25T22:29:00 | 55.098908 | 14.271395 | 2.0 | 10.813 | 2 | 10.041 | 10.979 | 7.941 | 2 |
| 2025-05-25T22:30:00 | 55.101244 | 14.274651 | 2.0 | 10.831 | 2 | 10.121 | 10.983 | 8.008 | 2 |
| 2025-05-25T22:31:00 | 55.103582 | 14.277877 | 2.0 | 10.864 | 2 | 10.128 | 11.004 | 8.010 | 2 |
| 2025-05-25T22:32:00 | 55.105915 | 14.281114 | 2.0 | 10.880 | 2 | 10.139 | 11.034 | 8.013 | 2 |
| 2025-05-25T22:33:00 | 55.108260 | 14.284343 | 2.0 | 10.880 | 2 | 10.143 | 11.045 | 8.014 | 2 |
| 2025-05-25T22:34:00 | 55.110605 | 14.287596 | 2.0 | 10.826 | 2 | 10.145 | 11.046 | 8.015 | 2 |
| 2025-05-25T22:35:00 | 55.112933 | 14.290846 | 2.0 | 10.677 | 2 | 10.104 | 10.968 | 7.997 | 2 |
| 2025-05-25T22:36:00 | 55.115289 | 14.294021 | 2.0 | 10.158 | 2 | 9.989 | 10.764 | 7.943 | 2 |
| 2025-05-25T22:37:00 | 55.117576 | 14.297285 | 2.0 | 9.956 | 2 | 9.767 | 10.331 | 7.845 | 2 |
| 2025-05-25T22:38:00 | 55.119914 | 14.300466 | 2.0 | 9.872 | 2 | 9.669 | 10.131 | 7.803 | 2 |
| 2025-05-25T22:39:00 | 55.122238 | 14.303686 | 2.0 | 9.749 | 2 | 9.630 | 10.049 | 7.787 | 2 |
| 2025-05-25T22:40:00 | 55.124528 | 14.306989 | 2.0 | 9.606 | 2 | 9.577 | 9.909 | 7.771 | 2 |
| 2025-05-25T22:41:00 | 55.126882 | 14.310136 | 2.0 | 9.524 | 2 | 9.521 | 9.781 | 7.749 | 2 |
| 2025-05-25T22:42:00 | 55.129194 | 14.313361 | 2.0 | 9.517 | 2 | 9.489 | 9.707 | 7.737 | 2 |
| 2025-05-25T22:43:00 | 55.131503 | 14.316580 | 2.0 | 9.528 | 2 | 9.486 | 9.703 | 7.735 | 2 |
| 2025-05-25T22:44:00 | 55.133832 | 14.319726 | 2.0 | 9.559 | 2 | 9.491 | 9.711 | 7.738 | 2 |
| 2025-05-25T22:45:00 | 55.136121 | 14.322943 | 2.0 | 9.564 | 2 | 9.503 | 9.740 | 7.742 | 2 |
| 2025-05-25T22:46:00 | 55.138424 | 14.326151 | 2.0 | 9.560 | 2 | 9.498 | 9.741 | 7.737 | 2 |
| 2025-05-25T22:47:00 | 55.140692 | 14.329411 | 2.0 | 9.582 | 2 | 9.452 | 9.738 | 7.698 | 2 |
| 2025-05-25T22:48:00 | 55.143032 | 14.332499 | 2.0 | 9.632 | 2 | 9.511 | 9.769 | 7.743 | 2 |
| 2025-05-25T22:49:00 | 55.145291 | 14.335736 | 2.0 | 9.661 | 2 | 9.539 | 9.811 | 7.758 | 2 |
| 2025-05-25T22:50:00 | 55.147583 | 14.338909 | 2.0 | 9.713 | 2 | 9.547 | 9.844 | 7.758 | 2 |
| 2025-05-25T22:51:00 | 55.149912 | 14.342027 | 2.0 | 9.749 | 2 | 9.563 | 9.887 | 7.763 | 2 |
| 2025-05-25T22:52:00 | 55.152200 | 14.345247 | 2.0 | 9.821 | 2 | 9.581 | 9.930 | 7.770 | 2 |
| 2025-05-25T22:53:00 | 55.154460 | 14.348490 | 2.0 | 9.941 | 2 | 9.611 | 10.006 | 7.779 | 2 |
| 2025-05-25T22:54:00 | 55.156777 | 14.351605 | 2.0 | 10.112 | 2 | 9.668 | 10.132 | 7.802 | 2 |
| 2025-05-25T22:55:00 | 55.159047 | 14.354770 | 2.0 | 10.306 | 2 | 9.744 | 10.315 | 7.829 | 2 |
| 2025-05-25T22:56:00 | 55.161322 | 14.357976 | 2.0 | 10.382 | 2 | 9.838 | 10.484 | 7.874 | 2 |
| 2025-05-25T22:57:00 | 55.163626 | 14.361119 | 2.0 | 10.356 | 2 | 9.878 | 10.541 | 7.896 | 2 |
| 2025-05-25T22:58:00 | 55.165887 | 14.364311 | 2.0 | 10.386 | 2 | 9.872 | 10.525 | 7.894 | 2 |
| 2025-05-25T22:59:00 | 55.168136 | 14.367514 | 2.0 | 10.423 | 2 | 9.882 | 10.558 | 7.896 | 2 |
| 2025-05-25T23:00:00 | 55.170415 | 14.370650 | 2.0 | 10.444 | 2 | 9.896 | 10.591 | 7.900 | 2 |
| 2025-05-25T23:01:00 | 55.172700 | 14.373752 | 2.0 | 10.442 | 2 | 9.794 | 10.608 | 7.809 | 2 |
| 2025-05-25T23:02:00 | 55.174985 | 14.376890 | 2.0 | 10.438 | 2 | 9.907 | 10.607 | 7.906 | 2 |
| 2025-05-25T23:03:00 | 55.177237 | 14.380095 | 2.0 | 10.442 | 2 | 9.907 | 10.605 | 7.907 | 2 |
| 2025-05-25T23:04:00 | 55.179496 | 14.383245 | 2.0 | 10.437 | 2 | 9.908 | 10.610 | 7.907 | 2 |
| 2025-05-25T23:05:00 | 55.181762 | 14.386380 | 2.0 | 10.367 | 2 | 9.896 | 10.592 | 7.900 | 2 |
| 2025-05-25T23:06:00 | 55.184014 | 14.389516 | 2.0 | 10.231 | 2 | 9.863 | 10.517 | 7.888 | 2 |
| 2025-05-25T23:07:00 | 55.186259 | 14.392643 | 2.0 | 10.210 | 2 | 9.810 | 10.407 | 7.866 | 2 |
| 2025-05-25T23:08:00 | 55.188550 | 14.395682 | 2.0 | 10.220 | 2 | 9.794 | 10.386 | 7.857 | 2 |
| 2025-05-25T23:09:00 | 55.190766 | 14.398895 | 2.0 | 10.225 | 2 | 9.794 | 10.392 | 7.855 | 2 |
| 2025-05-25T23:10:00 | 55.193023 | 14.402003 | 2.0 | 10.237 | 2 | 9.795 | 10.398 | 7.855 | 2 |
| 2025-05-25T23:11:00 | 55.195291 | 14.405097 | 2.0 | 10.254 | 2 | 9.798 | 10.409 | 7.855 | 2 |
| 2025-05-25T23:12:00 | 55.197546 | 14.408248 | 2.0 | 10.283 | 2 | 9.807 | 10.428 | 7.859 | 2 |
| 2025-05-25T23:13:00 | 55.199793 | 14.411432 | 2.0 | 10.318 | 2 | 9.819 | 10.457 | 7.863 | 2 |
| 2025-05-25T23:14:00 | 55.202061 | 14.414549 | 2.0 | 10.356 | 2 | 9.832 | 10.490 | 7.867 | 2 |
| 2025-05-25T23:15:00 | 55.204321 | 14.417690 | 2.0 | 10.406 | 2 | 9.849 | 10.533 | 7.873 | 2 |
| 2025-05-25T23:16:00 | 55.206561 | 14.420857 | 2.0 | 10.444 | 2 | 9.868 | 10.579 | 7.879 | 2 |
| 2025-05-25T23:17:00 | 55.208830 | 14.423946 | 2.0 | 10.480 | 2 | 9.878 | 10.615 | 7.880 | 2 |
| 2025-05-25T23:18:00 | 55.211078 | 14.427057 | 2.0 | 10.514 | 2 | 9.900 | 10.649 | 7.891 | 2 |
| 2025-05-25T23:19:00 | 55.213319 | 14.430204 | 2.0 | 10.549 | 2 | 9.917 | 10.685 | 7.898 | 2 |
| 2025-05-25T23:20:00 | 55.215567 | 14.433314 | 2.0 | 10.574 | 2 | 9.933 | 10.718 | 7.905 | 2 |
| 2025-05-25T23:21:00 | 55.217829 | 14.436402 | 2.0 | 10.583 | 2 | 9.944 | 10.741 | 7.909 | 2 |
| 2025-05-25T23:22:00 | 55.220053 | 14.439605 | 2.0 | 10.581 | 2 | 9.947 | 10.747 | 7.911 | 2 |
| 2025-05-25T23:23:00 | 55.222342 | 14.442683 | 2.0 | 10.575 | 2 | 9.949 | 10.746 | 7.913 | 2 |
| 2025-05-25T23:24:00 | 55.224582 | 14.445835 | 2.0 | 10.570 | 2 | 9.949 | 10.741 | 7.914 | 2 |
| 2025-05-25T23:25:00 | 55.226811 | 14.449009 | 2.0 | 10.565 | 2 | 9.949 | 10.736 | 7.915 | 2 |
| 2025-05-25T23:26:00 | 55.229104 | 14.452062 | 2.0 | 10.556 | 2 | 9.875 | 10.730 | 7.853 | 2 |
| 2025-05-25T23:27:00 | 55.231321 | 14.455255 | 2.0 | 10.550 | 2 | 9.947 | 10.723 | 7.916 | 2 |
| 2025-05-25T23:28:00 | 55.233580 | 14.458386 | 2.0 | 10.539 | 2 | 9.946 | 10.717 | 7.916 | 2 |
| 2025-05-25T23:29:00 | 55.235837 | 14.461521 | 2.0 | 10.531 | 2 | 9.944 | 10.707 | 7.917 | 2 |
| 2025-05-25T23:30:00 | 55.238122 | 14.464639 | 2.0 | 10.519 | 2 | 9.942 | 10.697 | 7.917 | 2 |
| 2025-05-25T23:31:00 | 55.240365 | 14.467797 | 2.0 | 10.520 | 2 | 9.939 | 10.686 | 7.917 | 2 |
| 2025-05-25T23:32:00 | 55.242634 | 14.470938 | 2.0 | 10.564 | 2 | 9.939 | 10.697 | 7.915 | 2 |
| 2025-05-25T23:33:00 | 55.244903 | 14.474024 | 2.0 | 10.578 | 2 | 9.945 | 10.733 | 7.912 | 2 |
| 2025-05-25T23:34:00 | 55.247139 | 14.477204 | 2.0 | 10.580 | 2 | 9.947 | 10.745 | 7.911 | 2 |
| 2025-05-25T23:35:00 | 55.249385 | 14.480379 | 2.0 | 10.508 | 2 | 9.941 | 10.738 | 7.907 | 2 |
| 2025-05-25T23:36:00 | 55.251667 | 14.483486 | 2.0 | 10.371 | 2 | 9.909 | 10.658 | 7.897 | 2 |
| 2025-05-25T23:37:00 | 55.253926 | 14.486706 | 2.0 | 10.137 | 2 | 9.852 | 10.514 | 7.879 | 2 |
| 2025-05-25T23:38:00 | 55.256227 | 14.489857 | 2.0 | 9.878 | 2 | 9.756 | 10.270 | 7.849 | 2 |
| 2025-05-25T23:39:00 | 55.258542 | 14.492980 | 2.0 | 9.727 | 2 | 9.665 | 10.048 | 7.817 | 2 |
| 2025-05-25T23:40:00 | 55.260795 | 14.496233 | 2.0 | 9.615 | 2 | 9.605 | 9.890 | 7.799 | 2 |
| 2025-05-25T23:41:00 | 55.263103 | 14.499388 | 2.0 | 9.577 | 2 | 9.570 | 9.793 | 7.789 | 2 |
| 2025-05-25T23:42:00 | 55.265395 | 14.502577 | 2.0 | 9.575 | 2 | 9.562 | 9.759 | 7.790 | 2 |
| 2025-05-25T23:43:00 | 55.267669 | 14.505816 | 2.0 | 9.584 | 2 | 9.566 | 9.755 | 7.794 | 2 |
| 2025-05-25T23:44:00 | 55.269968 | 14.509039 | 2.0 | 9.589 | 2 | 9.572 | 9.762 | 7.798 | 2 |
| 2025-05-25T23:45:00 | 55.272278 | 14.512198 | 2.0 | 9.591 | 2 | 9.579 | 9.766 | 7.803 | 2 |
| 2025-05-25T23:46:00 | 55.274569 | 14.515419 | 2.0 | 9.591 | 2 | 9.584 | 9.767 | 7.807 | 2 |
| 2025-05-25T23:47:00 | 55.276838 | 14.518658 | 2.0 | 9.621 | 2 | 9.588 | 9.769 | 7.810 | 2 |
| 2025-05-25T23:48:00 | 55.279154 | 14.521819 | 2.0 | 9.640 | 2 | 9.596 | 9.799 | 7.811 | 2 |
| 2025-05-25T23:49:00 | 55.281449 | 14.525044 | 2.0 | 9.652 | 2 | 9.601 | 9.814 | 7.812 | 2 |
| 2025-05-25T23:50:00 | 55.283722 | 14.528258 | 2.0 | 9.701 | 2 | 9.603 | 9.830 | 7.810 | 2 |
| 2025-05-25T23:51:00 | 55.286022 | 14.531394 | 2.0 | 9.738 | 2 | 9.615 | 9.878 | 7.810 | 2 |
| 2025-05-25T23:52:00 | 55.288319 | 14.534533 | 2.0 | 9.754 | 2 | 9.625 | 9.911 | 7.812 | 2 |
| 2025-05-25T23:53:00 | 55.290601 | 14.537684 | 2.0 | 9.765 | 2 | 9.629 | 9.924 | 7.813 | 2 |
| 2025-05-25T23:54:00 | 55.292888 | 14.540848 | 2.0 | 9.783 | 2 | 9.634 | 9.940 | 7.814 | 2 |
| 2025-05-25T23:55:00 | 55.295172 | 14.544028 | 2.0 | 9.786 | 2 | 9.638 | 9.954 | 7.814 | 2 |
| 2025-05-25T23:56:00 | 55.297480 | 14.547194 | 2.0 | 9.779 | 2 | 9.639 | 9.956 | 7.815 | 2 |
| 2025-05-25T23:57:00 | 55.299754 | 14.550403 | 2.0 | 9.772 | 2 | 9.638 | 9.949 | 7.815 | 2 |
| 2025-05-25T23:58:00 | 55.302047 | 14.553602 | 2.0 | 9.752 | 2 | 9.638 | 9.942 | 7.817 | 2 |
| 2025-05-25T23:59:00 | 55.304331 | 14.556815 | 2.0 | 9.736 | 2 | 9.633 | 9.923 | 7.816 | 2 |
| 2025-05-26T00:00:00 | 55.306610 | 14.560047 | 2.0 | 9.682 | 2 | 9.626 | 9.898 | 7.816 | 2 |
| 2025-05-26T00:01:00 | 55.308912 | 14.563250 | 2.0 | 9.670 | 2 | 9.537 | 9.854 | 7.747 | 2 |
| 2025-05-26T00:02:00 | 55.311226 | 14.566387 | 2.0 | 9.685 | 2 | 9.461 | 9.845 | 7.683 | 2 |
| 2025-05-26T00:03:00 | 55.313519 | 14.569563 | 2.0 | 9.700 | 2 | 9.468 | 9.860 | 7.686 | 2 |
| 2025-05-26T00:04:00 | 55.315804 | 14.572760 | 2.0 | 9.719 | 2 | 9.587 | 9.876 | 7.786 | 2 |
| 2025-05-26T00:05:00 | 55.318090 | 14.575965 | 2.0 | 9.735 | 2 | 9.619 | 9.892 | 7.811 | 2 |
| 2025-05-26T00:06:00 | 55.320371 | 14.579149 | 2.0 | 9.807 | 2 | 9.627 | 9.921 | 7.812 | 2 |
| 2025-05-26T00:07:00 | 55.322642 | 14.582363 | 2.0 | 9.835 | 2 | 9.642 | 9.977 | 7.813 | 2 |
| 2025-05-26T00:08:00 | 55.324957 | 14.585491 | 2.0 | 9.841 | 2 | 9.648 | 10.004 | 7.812 | 2 |
| 2025-05-26T00:09:00 | 55.327244 | 14.588704 | 2.0 | 9.836 | 2 | 9.650 | 10.009 | 7.813 | 2 |
| 2025-05-26T00:10:00 | 55.329511 | 14.591938 | 2.0 | 9.836 | 2 | 9.645 | 10.005 | 7.809 | 2 |
| 2025-05-26T00:11:00 | 55.331792 | 14.595145 | 2.0 | 9.836 | 2 | 9.474 | 10.005 | 7.660 | 2 |
| 2025-05-26T00:12:00 | 55.334091 | 14.598336 | 2.0 | 9.839 | 2 | 9.594 | 10.006 | 7.765 | 2 |
| 2025-05-26T00:13:00 | 55.336416 | 14.601472 | 2.0 | 9.845 | 2 | 9.641 | 10.010 | 7.805 | 2 |
| 2025-05-26T00:14:00 | 55.338698 | 14.604723 | 2.0 | 9.848 | 2 | 9.643 | 10.015 | 7.805 | 2 |
| 2025-05-26T00:15:00 | 55.340992 | 14.607975 | 2.0 | 9.853 | 2 | 9.645 | 10.018 | 7.806 | 2 |
| 2025-05-26T00:16:00 | 55.343295 | 14.611178 | 2.0 | 9.858 | 2 | 9.648 | 10.024 | 7.808 | 2 |
| 2025-05-26T00:17:00 | 55.345606 | 14.614367 | 2.0 | 9.863 | 2 | 9.565 | 10.029 | 7.734 | 2 |
| 2025-05-26T00:18:00 | 55.347916 | 14.617542 | 2.0 | 9.865 | 2 | 9.562 | 10.032 | 7.731 | 2 |
| 2025-05-26T00:19:00 | 55.350210 | 14.620748 | 2.0 | 9.866 | 2 | 9.577 | 10.034 | 7.744 | 2 |
| 2025-05-26T00:20:00 | 55.352500 | 14.623995 | 2.0 | 9.867 | 2 | 9.597 | 10.035 | 7.761 | 2 |
| 2025-05-26T00:21:00 | 55.354849 | 14.627126 | 2.0 | 9.870 | 2 | 9.621 | 10.037 | 7.781 | 2 |
| 2025-05-26T00:22:00 | 55.357138 | 14.630416 | 2.0 | 9.877 | 2 | 9.627 | 10.041 | 7.786 | 2 |
| 2025-05-26T00:23:00 | 55.359447 | 14.633660 | 2.0 | 9.799 | 2 | 9.651 | 10.039 | 7.807 | 2 |
| 2025-05-26T00:24:00 | 55.361761 | 14.636907 | 2.0 | 9.690 | 2 | 9.659 | 9.949 | 7.834 | 2 |
| 2025-05-26T00:25:00 | 55.364089 | 14.640124 | 2.0 | 9.668 | 2 | 9.624 | 9.859 | 7.822 | 2 |
| 2025-05-26T00:26:00 | 55.366378 | 14.643397 | 2.0 | 9.704 | 2 | 9.615 | 9.852 | 7.816 | 2 |
| 2025-05-26T00:27:00 | 55.368689 | 14.646602 | 2.0 | 9.735 | 2 | 9.623 | 9.879 | 7.817 | 2 |
| 2025-05-26T00:28:00 | 55.370913 | 14.649959 | 2.0 | 9.764 | 2 | 9.631 | 9.909 | 7.818 | 2 |
| 2025-05-26T00:29:00 | 55.373114 | 14.653365 | 2.0 | 9.782 | 2 | 9.639 | 9.936 | 7.819 | 2 |
| 2025-05-26T00:30:00 | 55.375347 | 14.656731 | 2.0 | 9.799 | 2 | 9.642 | 9.954 | 7.818 | 2 |
| 2025-05-26T00:31:00 | 55.377583 | 14.660111 | 2.0 | 9.823 | 2 | 9.646 | 9.972 | 7.817 | 2 |
| 2025-05-26T00:32:00 | 55.379630 | 14.663779 | 2.0 | 9.844 | 2 | 9.583 | 9.995 | 7.757 | 2 |
| 2025-05-26T00:33:00 | 55.381188 | 14.668131 | 2.0 | 9.856 | 2 | 9.624 | 10.015 | 7.789 | 2 |
| 2025-05-26T00:34:00 | 55.383007 | 14.672190 | 2.0 | 9.886 | 2 | 9.630 | 10.029 | 7.791 | 2 |
| 2025-05-26T00:35:00 | 55.384718 | 14.676385 | 2.0 | 9.906 | 2 | 9.634 | 10.056 | 7.789 | 2 |
| 2025-05-26T00:36:00 | 55.386426 | 14.680595 | 2.0 | 9.958 | 2 | 9.654 | 10.079 | 7.801 | 2 |
| 2025-05-26T00:37:00 | 55.388087 | 14.684906 | 2.0 | 10.034 | 2 | 9.682 | 10.141 | 7.812 | 2 |
| 2025-05-26T00:38:00 | 55.389804 | 14.689141 | 2.0 | 10.062 | 2 | 9.701 | 10.200 | 7.816 | 2 |
| 2025-05-26T00:39:00 | 55.391507 | 14.693411 | 2.0 | 10.065 | 2 | 9.738 | 10.226 | 7.843 | 2 |
| 2025-05-26T00:40:00 | 55.393220 | 14.697693 | 2.0 | 10.093 | 2 | 9.678 | 10.231 | 7.789 | 2 |
| 2025-05-26T00:41:00 | 55.394916 | 14.701998 | 2.0 | 10.105 | 2 | 9.754 | 10.265 | 7.848 | 2 |
| 2025-05-26T00:42:00 | 55.396346 | 14.706546 | 2.0 | 10.105 | 2 | 9.759 | 10.271 | 7.851 | 2 |
| 2025-05-26T00:43:00 | 55.397525 | 14.711311 | 2.0 | 10.113 | 2 | 9.760 | 10.273 | 7.852 | 2 |
| 2025-05-26T00:44:00 | 55.398877 | 14.715935 | 2.0 | 10.108 | 2 | 9.762 | 10.274 | 7.853 | 2 |
| 2025-05-26T00:45:00 | 55.400139 | 14.720633 | 2.0 | 10.106 | 2 | 9.763 | 10.277 | 7.853 | 2 |
| 2025-05-26T00:46:00 | 55.401401 | 14.725357 | 2.0 | 10.103 | 2 | 9.762 | 10.273 | 7.853 | 2 |
| 2025-05-26T00:47:00 | 55.402654 | 14.730084 | 2.0 | 10.105 | 2 | 9.762 | 10.271 | 7.854 | 2 |
| 2025-05-26T00:48:00 | 55.403911 | 14.734798 | 2.0 | 10.077 | 2 | 9.762 | 10.269 | 7.854 | 2 |
| 2025-05-26T00:49:00 | 55.405204 | 14.739482 | 2.0 | 10.092 | 2 | 9.753 | 10.246 | 7.851 | 2 |
| 2025-05-26T00:50:00 | 55.406455 | 14.744194 | 2.0 | 10.130 | 2 | 9.760 | 10.266 | 7.853 | 2 |
| 2025-05-26T00:51:00 | 55.407732 | 14.748879 | 2.0 | 10.132 | 2 | 9.773 | 10.295 | 7.858 | 2 |
| 2025-05-26T00:52:00 | 55.408970 | 14.753602 | 2.0 | 10.124 | 2 | 9.754 | 10.301 | 7.840 | 2 |
| 2025-05-26T00:53:00 | 55.410241 | 14.758285 | 2.0 | 10.077 | 2 | 9.771 | 10.285 | 7.859 | 2 |
| 2025-05-26T00:54:00 | 55.411489 | 14.762972 | 2.0 | 10.034 | 2 | 9.698 | 10.242 | 7.804 | 2 |
| 2025-05-26T00:55:00 | 55.412721 | 14.767664 | 2.0 | 10.028 | 2 | 9.734 | 10.205 | 7.844 | 2 |
| 2025-05-26T00:56:00 | 55.413976 | 14.772360 | 2.0 | 10.019 | 2 | 9.727 | 10.197 | 7.839 | 2 |
| 2025-05-26T00:57:00 | 55.415255 | 14.777063 | 2.0 | 9.990 | 2 | 9.721 | 10.186 | 7.836 | 2 |
| 2025-05-26T00:58:00 | 55.416512 | 14.781783 | 2.0 | 9.940 | 2 | 9.704 | 10.151 | 7.829 | 2 |
| 2025-05-26T00:59:00 | 55.417809 | 14.786450 | 2.0 | 9.889 | 2 | 9.686 | 10.105 | 7.823 | 2 |
| 2025-05-26T01:00:00 | 55.419029 | 14.791180 | 2.0 | 9.861 | 2 | 9.663 | 10.058 | 7.814 | 2 |
| 2025-05-26T01:01:00 | 55.420283 | 14.795883 | 2.0 | 9.857 | 2 | 9.647 | 10.031 | 7.805 | 2 |
| 2025-05-26T01:02:00 | 55.421567 | 14.800590 | 2.0 | 9.872 | 2 | 9.631 | 10.029 | 7.792 | 2 |
| 2025-05-26T01:03:00 | 55.422819 | 14.805333 | 2.0 | 9.905 | 2 | 9.621 | 10.045 | 7.780 | 2 |
| 2025-05-26T01:04:00 | 55.424058 | 14.810060 | 2.0 | 9.950 | 2 | 9.653 | 10.080 | 7.800 | 2 |
| 2025-05-26T01:05:00 | 55.425310 | 14.814764 | 2.0 | 10.002 | 2 | 9.621 | 10.127 | 7.762 | 2 |
| 2025-05-26T01:06:00 | 55.426580 | 14.819459 | 2.0 | 10.058 | 2 | 9.598 | 10.176 | 7.732 | 2 |
| 2025-05-26T01:07:00 | 55.427859 | 14.824165 | 2.0 | 10.117 | 2 | 9.617 | 10.233 | 7.736 | 2 |
| 2025-05-26T01:08:00 | 55.429096 | 14.828915 | 2.0 | 10.138 | 2 | 9.655 | 10.285 | 7.758 | 2 |
| 2025-05-26T01:09:00 | 55.430359 | 14.833664 | 2.0 | 10.138 | 2 | 9.616 | 10.302 | 7.721 | 2 |
| 2025-05-26T01:10:00 | 55.431649 | 14.838376 | 2.0 | 10.147 | 2 | 9.675 | 10.306 | 7.771 | 2 |
| 2025-05-26T01:11:00 | 55.432908 | 14.843114 | 2.0 | 10.170 | 2 | 9.578 | 10.317 | 7.685 | 2 |
| 2025-05-26T01:12:00 | 55.434164 | 14.847805 | 2.0 | 10.201 | 2 | 9.793 | 10.341 | 7.865 | 2 |
| 2025-05-26T01:13:00 | 55.435445 | 14.852496 | 2.0 | 10.222 | 2 | 9.809 | 10.369 | 7.873 | 2 |
| 2025-05-26T01:14:00 | 55.436720 | 14.857189 | 2.0 | 10.223 | 2 | 9.819 | 10.387 | 7.878 | 2 |
| 2025-05-26T01:15:00 | 55.438002 | 14.861909 | 2.0 | 10.220 | 2 | 9.775 | 10.387 | 7.840 | 2 |
| 2025-05-26T01:16:00 | 55.439248 | 14.866673 | 2.0 | 10.225 | 2 | 9.788 | 10.386 | 7.851 | 2 |
| 2025-05-26T01:17:00 | 55.440494 | 14.871408 | 2.0 | 10.232 | 2 | 9.807 | 10.392 | 7.867 | 2 |
| 2025-05-26T01:18:00 | 55.441757 | 14.876164 | 2.0 | 10.240 | 2 | 9.804 | 10.399 | 7.863 | 2 |
| 2025-05-26T01:19:00 | 55.443026 | 14.880904 | 2.0 | 10.245 | 2 | 9.820 | 10.408 | 7.874 | 2 |
| 2025-05-26T01:20:00 | 55.444305 | 14.885658 | 2.0 | 10.243 | 2 | 9.809 | 10.411 | 7.864 | 2 |
| 2025-05-26T01:21:00 | 55.445571 | 14.890434 | 2.0 | 10.239 | 2 | 9.834 | 10.409 | 7.886 | 2 |
| 2025-05-26T01:22:00 | 55.446808 | 14.895243 | 2.0 | 10.232 | 2 | 9.834 | 10.404 | 7.887 | 2 |
| 2025-05-26T01:23:00 | 55.448118 | 14.899973 | 2.0 | 10.222 | 2 | 9.832 | 10.397 | 7.887 | 2 |
| 2025-05-26T01:24:00 | 55.449432 | 14.904717 | 2.0 | 10.218 | 2 | 9.831 | 10.389 | 7.888 | 2 |
| 2025-05-26T01:25:00 | 55.450686 | 14.909510 | 2.0 | 10.215 | 2 | 9.831 | 10.386 | 7.889 | 2 |
| 2025-05-26T01:26:00 | 55.451978 | 14.914280 | 2.0 | 10.187 | 2 | 9.831 | 10.380 | 7.890 | 2 |
| 2025-05-26T01:27:00 | 55.453230 | 14.919074 | 2.0 | 10.124 | 2 | 9.821 | 10.347 | 7.888 | 2 |
| 2025-05-26T01:28:00 | 55.454499 | 14.923843 | 2.0 | 10.057 | 2 | 9.798 | 10.283 | 7.882 | 2 |
| 2025-05-26T01:29:00 | 55.455796 | 14.928581 | 2.0 | 9.965 | 2 | 9.771 | 10.210 | 7.875 | 2 |
| 2025-05-26T01:30:00 | 55.457073 | 14.933333 | 2.0 | 9.888 | 2 | 9.741 | 10.128 | 7.866 | 2 |
| 2025-05-26T01:31:00 | 55.458339 | 14.938103 | 2.0 | 9.704 | 2 | 9.711 | 10.050 | 7.857 | 2 |
| 2025-05-26T01:32:00 | 55.459681 | 14.942784 | 2.0 | 9.547 | 2 | 9.630 | 9.847 | 7.830 | 2 |
| 2025-05-26T01:33:00 | 55.460929 | 14.947529 | 2.0 | 9.486 | 2 | 9.557 | 9.716 | 7.795 | 2 |
| 2025-05-26T01:34:00 | 55.462139 | 14.952326 | 2.0 | 9.490 | 2 | 9.526 | 9.669 | 7.777 | 2 |
| 2025-05-26T01:35:00 | 55.463408 | 14.957071 | 2.0 | 9.474 | 2 | 9.520 | 9.664 | 7.773 | 2 |
| 2025-05-26T01:36:00 | 55.464683 | 14.961825 | 2.0 | 9.462 | 2 | 9.511 | 9.649 | 7.769 | 2 |
| 2025-05-26T01:37:00 | 55.465936 | 14.966584 | 2.0 | 9.444 | 2 | 9.502 | 9.632 | 7.764 | 2 |
| 2025-05-26T01:38:00 | 55.467231 | 14.971292 | 2.0 | 9.445 | 2 | 9.493 | 9.618 | 7.759 | 2 |
| 2025-05-26T01:39:00 | 55.468464 | 14.976034 | 2.0 | 9.441 | 2 | 9.490 | 9.618 | 7.757 | 2 |
| 2025-05-26T01:40:00 | 55.469762 | 14.980759 | 2.0 | 9.440 | 2 | 9.485 | 9.615 | 7.753 | 2 |
| 2025-05-26T01:41:00 | 55.471045 | 14.985490 | 2.0 | 9.440 | 2 | 9.481 | 9.612 | 7.750 | 2 |
| 2025-05-26T01:42:00 | 55.472302 | 14.990242 | 2.0 | 9.440 | 2 | 9.477 | 9.612 | 7.747 | 2 |
| 2025-05-26T01:43:00 | 55.473579 | 14.994967 | 2.0 | 9.443 | 2 | 9.476 | 9.613 | 7.745 | 2 |
| 2025-05-26T01:44:00 | 55.474853 | 14.999724 | 2.0 | 9.451 | 2 | 9.476 | 9.616 | 7.745 | 2 |
| 2025-05-26T01:45:00 | 55.476090 | 15.004509 | 2.0 | 9.467 | 2 | 9.478 | 9.624 | 7.745 | 2 |
| 2025-05-26T01:46:00 | 55.477362 | 15.009282 | 2.0 | 9.484 | 2 | 9.484 | 9.640 | 7.747 | 2 |
| 2025-05-26T01:47:00 | 55.478661 | 15.014026 | 2.0 | 9.499 | 2 | 9.491 | 9.657 | 7.749 | 2 |
| 2025-05-26T01:48:00 | 55.479938 | 15.018794 | 2.0 | 9.516 | 2 | 9.497 | 9.673 | 7.751 | 2 |
| 2025-05-26T01:49:00 | 55.481223 | 15.023575 | 2.0 | 9.528 | 2 | 9.505 | 9.688 | 7.755 | 2 |
| 2025-05-26T01:50:00 | 55.482507 | 15.028346 | 2.0 | 9.536 | 2 | 9.511 | 9.700 | 7.758 | 2 |
| 2025-05-26T01:51:00 | 55.483777 | 15.033140 | 2.0 | 9.539 | 2 | 9.515 | 9.708 | 7.759 | 2 |
| 2025-05-26T01:52:00 | 55.485038 | 15.037947 | 2.0 | 9.538 | 2 | 9.518 | 9.709 | 7.762 | 2 |
| 2025-05-26T01:53:00 | 55.486362 | 15.042725 | 2.0 | 9.541 | 2 | 9.520 | 9.709 | 7.764 | 2 |
| 2025-05-26T01:54:00 | 55.487651 | 15.047545 | 2.0 | 9.551 | 2 | 9.524 | 9.712 | 7.766 | 2 |
| 2025-05-26T01:55:00 | 55.488922 | 15.052377 | 2.0 | 9.601 | 2 | 9.533 | 9.729 | 7.771 | 2 |
| 2025-05-26T01:56:00 | 55.490224 | 15.057193 | 2.0 | 9.623 | 2 | 9.515 | 9.772 | 7.746 | 2 |
| 2025-05-26T01:57:00 | 55.491509 | 15.062014 | 2.0 | 9.635 | 2 | 9.562 | 9.795 | 7.782 | 2 |
| 2025-05-26T01:58:00 | 55.492776 | 15.066842 | 2.0 | 9.599 | 2 | 9.566 | 9.798 | 7.785 | 2 |
| 2025-05-26T01:59:00 | 55.494082 | 15.071610 | 2.0 | 9.616 | 2 | 9.559 | 9.773 | 7.784 | 2 |
| 2025-05-26T02:00:00 | 55.495368 | 15.076424 | 2.0 | 9.607 | 2 | 9.562 | 9.779 | 7.785 | 2 |
| 2025-05-26T02:01:00 | 55.496619 | 15.081281 | 2.0 | 9.637 | 2 | 9.561 | 9.780 | 7.784 | 2 |
| 2025-05-26T02:02:00 | 55.497935 | 15.086093 | 2.0 | 9.681 | 2 | 9.570 | 9.814 | 7.785 | 2 |
| 2025-05-26T02:03:00 | 55.499207 | 15.090918 | 2.0 | 9.695 | 2 | 9.583 | 9.852 | 7.788 | 2 |
| 2025-05-26T02:04:00 | 55.500509 | 15.095719 | 2.0 | 9.714 | 2 | 9.590 | 9.865 | 7.791 | 2 |
| 2025-05-26T02:05:00 | 55.501770 | 15.100554 | 2.0 | 9.723 | 2 | 9.598 | 9.883 | 7.794 | 2 |
| 2025-05-26T02:06:00 | 55.503074 | 15.105360 | 2.0 | 9.739 | 2 | 9.608 | 9.895 | 7.801 | 2 |
| 2025-05-26T02:07:00 | 55.504357 | 15.110165 | 2.0 | 9.743 | 2 | 9.619 | 9.908 | 7.807 | 2 |
| 2025-05-26T02:08:00 | 55.505656 | 15.114955 | 2.0 | 9.724 | 2 | 9.628 | 9.909 | 7.815 | 2 |
| 2025-05-26T02:09:00 | 55.506967 | 15.119726 | 2.0 | 9.674 | 2 | 9.633 | 9.889 | 7.824 | 2 |
| 2025-05-26T02:10:00 | 55.508250 | 15.124532 | 2.0 | 9.492 | 2 | 9.602 | 9.798 | 7.816 | 2 |
| 2025-05-26T02:11:00 | 55.509523 | 15.129345 | 2.0 | 9.517 | 2 | 9.571 | 9.678 | 7.815 | 2 |
| 2025-05-26T02:12:00 | 55.510768 | 15.134157 | 2.0 | 9.581 | 2 | 9.570 | 9.704 | 7.809 | 2 |
| 2025-05-26T02:13:00 | 55.512066 | 15.138908 | 2.0 | 9.631 | 2 | 9.585 | 9.758 | 7.810 | 2 |
| 2025-05-26T02:14:00 | 55.513335 | 15.143667 | 2.0 | 9.708 | 2 | 9.601 | 9.811 | 7.813 | 2 |
| 2025-05-26T02:15:00 | 55.514600 | 15.148427 | 2.0 | 9.748 | 2 | 9.625 | 9.878 | 7.819 | 2 |
| 2025-05-26T02:16:00 | 55.515860 | 15.153183 | 2.0 | 9.661 | 2 | 9.639 | 9.906 | 7.825 | 2 |
| 2025-05-26T02:17:00 | 55.517128 | 15.157935 | 2.0 | 9.490 | 2 | 9.606 | 9.806 | 7.818 | 2 |
| 2025-05-26T02:18:00 | 55.518372 | 15.162684 | 2.0 | 9.427 | 2 | 9.545 | 9.654 | 7.797 | 2 |
| 2025-05-26T02:19:00 | 55.519637 | 15.167408 | 2.0 | 9.335 | 2 | 9.515 | 9.597 | 7.783 | 2 |
| 2025-05-26T02:20:00 | 55.520919 | 15.172122 | 2.0 | 9.099 | 2 | 9.465 | 9.458 | 7.769 | 2 |
| 2025-05-26T02:21:00 | 55.522216 | 15.176848 | 2.0 | 9.055 | 2 | 9.364 | 9.281 | 7.718 | 2 |
| 2025-05-26T02:22:00 | 55.523480 | 15.181606 | 2.0 | 9.022 | 2 | 9.363 | 9.232 | 7.728 | 2 |
| 2025-05-26T02:23:00 | 55.524737 | 15.186351 | 2.0 | 8.988 | 2 | 9.284 | 9.192 | 7.666 | 2 |
| 2025-05-26T02:24:00 | 55.526021 | 15.191081 | 2.0 | 8.986 | 2 | 9.241 | 9.167 | 7.633 | 2 |
| 2025-05-26T02:25:00 | 55.527272 | 15.195843 | 2.0 | 8.980 | 2 | 9.290 | 9.161 | 7.678 | 2 |
| 2025-05-26T02:26:00 | 55.528530 | 15.200605 | 2.0 | 8.981 | 2 | 9.253 | 9.156 | 7.646 | 2 |
| 2025-05-26T02:27:00 | 55.529781 | 15.205349 | 2.0 | 8.980 | 2 | 9.310 | 9.156 | 7.697 | 2 |
| 2025-05-26T02:28:00 | 55.531077 | 15.210065 | 2.0 | 8.975 | 2 | 9.335 | 9.154 | 7.719 | 2 |
| 2025-05-26T02:29:00 | 55.532337 | 15.214778 | 2.0 | 8.975 | 2 | 9.298 | 9.150 | 7.687 | 2 |
| 2025-05-26T02:30:00 | 55.533573 | 15.219524 | 2.0 | 8.978 | 2 | 9.308 | 9.150 | 7.696 | 2 |
| 2025-05-26T02:31:00 | 55.534857 | 15.224252 | 2.0 | 8.973 | 2 | 9.265 | 9.151 | 7.658 | 2 |
| 2025-05-26T02:32:00 | 55.536119 | 15.228987 | 2.0 | 8.968 | 2 | 9.288 | 9.145 | 7.680 | 2 |
| 2025-05-26T02:33:00 | 55.537395 | 15.233693 | 2.0 | 8.964 | 2 | 9.300 | 9.140 | 7.691 | 2 |
| 2025-05-26T02:34:00 | 55.538640 | 15.238426 | 2.0 | 8.962 | 2 | 9.278 | 9.137 | 7.672 | 2 |
| 2025-05-26T02:35:00 | 55.539880 | 15.243174 | 2.0 | 8.958 | 2 | 9.234 | 9.134 | 7.634 | 2 |
| 2025-05-26T02:36:00 | 55.541185 | 15.247894 | 2.0 | 8.945 | 2 | 9.330 | 9.129 | 7.720 | 2 |
| 2025-05-26T02:37:00 | 55.542425 | 15.252644 | 2.0 | 8.927 | 2 | 9.326 | 9.114 | 7.720 | 2 |
| 2025-05-26T02:38:00 | 55.543684 | 15.257357 | 2.0 | 8.912 | 2 | 9.321 | 9.098 | 7.719 | 2 |
| 2025-05-26T02:39:00 | 55.544949 | 15.262099 | 2.0 | 8.902 | 2 | 9.317 | 9.085 | 7.718 | 2 |
| 2025-05-26T02:40:00 | 55.546241 | 15.266809 | 2.0 | 8.903 | 2 | 9.315 | 9.075 | 7.719 | 2 |
| 2025-05-26T02:41:00 | 55.547488 | 15.271549 | 2.0 | 8.917 | 2 | 9.315 | 9.078 | 7.718 | 2 |
| 2025-05-26T02:42:00 | 55.548757 | 15.276261 | 2.0 | 8.934 | 2 | 9.318 | 9.091 | 7.718 | 2 |
| 2025-05-26T02:43:00 | 55.550018 | 15.280958 | 2.0 | 8.948 | 2 | 9.323 | 9.107 | 7.719 | 2 |
| 2025-05-26T02:44:00 | 55.551272 | 15.285673 | 2.0 | 8.961 | 2 | 9.326 | 9.122 | 7.718 | 2 |
| 2025-05-26T02:45:00 | 55.552497 | 15.290417 | 2.0 | 8.976 | 2 | 9.330 | 9.134 | 7.719 | 2 |
| 2025-05-26T02:46:00 | 55.553764 | 15.295129 | 2.0 | 9.006 | 2 | 9.335 | 9.153 | 7.720 | 2 |
| 2025-05-26T02:47:00 | 55.555035 | 15.299806 | 2.0 | 9.032 | 2 | 9.344 | 9.181 | 7.722 | 2 |
| 2025-05-26T02:48:00 | 55.556290 | 15.304516 | 2.0 | 9.048 | 2 | 9.352 | 9.204 | 7.724 | 2 |
| 2025-05-26T02:49:00 | 55.557535 | 15.309233 | 2.0 | 9.054 | 2 | 9.357 | 9.219 | 7.725 | 2 |
| 2025-05-26T02:50:00 | 55.558808 | 15.313907 | 2.0 | 9.056 | 2 | 9.359 | 9.225 | 7.726 | 2 |
| 2025-05-26T02:51:00 | 55.560041 | 15.318623 | 2.0 | 9.058 | 2 | 9.362 | 9.227 | 7.728 | 2 |
| 2025-05-26T02:52:00 | 55.561304 | 15.323311 | 2.0 | 9.062 | 2 | 9.363 | 9.229 | 7.728 | 2 |
| 2025-05-26T02:53:00 | 55.562557 | 15.328009 | 2.0 | 9.064 | 2 | 9.364 | 9.232 | 7.728 | 2 |
| 2025-05-26T02:54:00 | 55.563820 | 15.332726 | 2.0 | 9.069 | 2 | 9.366 | 9.235 | 7.730 | 2 |
| 2025-05-26T02:55:00 | 55.565083 | 15.337441 | 2.0 | 9.076 | 2 | 9.367 | 9.240 | 7.729 | 2 |
| 2025-05-26T02:56:00 | 55.566322 | 15.342164 | 2.0 | 9.077 | 2 | 9.369 | 9.245 | 7.730 | 2 |
| 2025-05-26T02:57:00 | 55.567579 | 15.346874 | 2.0 | 9.077 | 2 | 9.370 | 9.247 | 7.731 | 2 |
| 2025-05-26T02:58:00 | 55.568861 | 15.351558 | 2.0 | 9.072 | 2 | 9.370 | 9.246 | 7.731 | 2 |
| 2025-05-26T02:59:00 | 55.570135 | 15.356253 | 2.0 | 9.071 | 2 | 9.369 | 9.243 | 7.731 | 2 |
| 2025-05-26T03:00:00 | 55.571360 | 15.360988 | 2.0 | 9.072 | 2 | 9.367 | 9.242 | 7.729 | 2 |
| 2025-05-26T03:01:00 | 55.572623 | 15.365699 | 2.0 | 9.069 | 2 | 9.363 | 9.242 | 7.725 | 2 |
| 2025-05-26T03:02:00 | 55.573891 | 15.370421 | 2.0 | 9.063 | 2 | 9.364 | 9.239 | 7.727 | 2 |
| 2025-05-26T03:03:00 | 55.575136 | 15.375168 | 2.0 | 9.059 | 2 | 9.361 | 9.233 | 7.726 | 2 |
| 2025-05-26T03:04:00 | 55.576391 | 15.379894 | 2.0 | 9.056 | 2 | 9.360 | 9.230 | 7.725 | 2 |
| 2025-05-26T03:05:00 | 55.577669 | 15.384600 | 2.0 | 9.053 | 2 | 9.337 | 9.227 | 7.706 | 2 |
| 2025-05-26T03:06:00 | 55.578890 | 15.389363 | 2.0 | 9.051 | 2 | 9.270 | 9.224 | 7.647 | 2 |
| 2025-05-26T03:07:00 | 55.580195 | 15.394062 | 2.0 | 9.052 | 2 | 9.311 | 9.222 | 7.684 | 2 |
| 2025-05-26T03:08:00 | 55.581438 | 15.398772 | 2.0 | 9.060 | 2 | 9.336 | 9.224 | 7.705 | 2 |
| 2025-05-26T03:09:00 | 55.582691 | 15.403484 | 2.0 | 9.076 | 2 | 9.306 | 9.232 | 7.677 | 2 |
| 2025-05-26T03:10:00 | 55.583952 | 15.408205 | 2.0 | 9.086 | 2 | 9.372 | 9.245 | 7.733 | 2 |
| 2025-05-26T03:11:00 | 55.585235 | 15.412931 | 2.0 | 9.106 | 2 | 9.377 | 9.260 | 7.734 | 2 |
| 2025-05-26T03:12:00 | 55.586490 | 15.417679 | 2.0 | 9.135 | 2 | 9.385 | 9.279 | 7.737 | 2 |
| 2025-05-26T03:13:00 | 55.587734 | 15.422421 | 2.0 | 9.167 | 2 | 9.398 | 9.307 | 7.742 | 2 |
| 2025-05-26T03:14:00 | 55.589006 | 15.427136 | 2.0 | 9.178 | 2 | 9.413 | 9.337 | 7.749 | 2 |
| 2025-05-26T03:15:00 | 55.590261 | 15.431878 | 2.0 | 9.193 | 2 | 9.416 | 9.349 | 7.749 | 2 |
| 2025-05-26T03:16:00 | 55.591511 | 15.436654 | 2.0 | 9.198 | 2 | 9.422 | 9.363 | 7.752 | 2 |
| 2025-05-26T03:17:00 | 55.592800 | 15.441407 | 2.0 | 9.210 | 2 | 9.425 | 9.368 | 7.753 | 2 |
| 2025-05-26T03:18:00 | 55.594054 | 15.446180 | 2.0 | 9.234 | 2 | 9.433 | 9.384 | 7.757 | 2 |
| 2025-05-26T03:19:00 | 55.595362 | 15.450918 | 2.0 | 9.223 | 2 | 9.445 | 9.398 | 7.764 | 2 |
| 2025-05-26T03:20:00 | 55.596599 | 15.455709 | 2.0 | 9.209 | 2 | 9.442 | 9.389 | 7.764 | 2 |
| 2025-05-26T03:21:00 | 55.597863 | 15.460457 | 2.0 | 9.194 | 2 | 9.425 | 9.376 | 7.751 | 2 |
| 2025-05-26T03:22:00 | 55.598672 | 15.465461 | 2.0 | 9.185 | 2 | 9.318 | 9.362 | 7.660 | 2 |
| 2025-05-26T03:23:00 | 55.599348 | 15.470603 | 2.0 | 9.167 | 2 | 9.306 | 9.354 | 7.651 | 2 |
| 2025-05-26T03:24:00 | 55.600112 | 15.475706 | 2.0 | 9.148 | 2 | 9.327 | 9.333 | 7.674 | 2 |
| 2025-05-26T03:25:00 | 55.600849 | 15.480836 | 2.0 | 9.125 | 2 | 9.319 | 9.314 | 7.671 | 2 |
| 2025-05-26T03:26:00 | 55.601568 | 15.485993 | 2.0 | 9.099 | 2 | 9.177 | 9.291 | 7.550 | 2 |
| 2025-05-26T03:27:00 | 55.602289 | 15.491143 | 2.0 | 9.077 | 2 | 9.121 | 9.267 | 7.505 | 2 |
| 2025-05-26T03:28:00 | 55.602988 | 15.496311 | 2.0 | 9.057 | 2 | 9.382 | 9.245 | 7.742 | 2 |
| 2025-05-26T03:29:00 | 55.603725 | 15.501478 | 2.0 | 9.041 | 2 | 9.238 | 9.226 | 7.618 | 2 |
| 2025-05-26T03:30:00 | 55.604409 | 15.506643 | 2.0 | 9.064 | 2 | 9.374 | 9.216 | 7.741 | 2 |
| 2025-05-26T03:31:00 | 55.605111 | 15.511797 | 2.0 | 9.138 | 2 | 9.389 | 9.252 | 7.746 | 2 |
| 2025-05-26T03:32:00 | 55.605797 | 15.516958 | 2.0 | 9.149 | 2 | 9.413 | 9.304 | 7.756 | 2 |
| 2025-05-26T03:33:00 | 55.606539 | 15.522122 | 2.0 | 9.272 | 2 | 9.425 | 9.335 | 7.760 | 2 |
| 2025-05-26T03:34:00 | 55.607244 | 15.527297 | 2.0 | 9.412 | 2 | 9.478 | 9.460 | 7.780 | 2 |
| 2025-05-26T03:35:00 | 55.607970 | 15.532446 | 2.0 | 9.507 | 2 | 9.536 | 9.589 | 7.804 | 2 |
| 2025-05-26T03:36:00 | 55.608689 | 15.537592 | 2.0 | 9.553 | 2 | 9.578 | 9.677 | 7.821 | 2 |
| 2025-05-26T03:37:00 | 55.609393 | 15.542752 | 2.0 | 9.540 | 2 | 9.599 | 9.715 | 7.832 | 2 |
| 2025-05-26T03:38:00 | 55.610105 | 15.547923 | 2.0 | 9.501 | 2 | 9.588 | 9.695 | 7.826 | 2 |
| 2025-05-26T03:39:00 | 55.610814 | 15.553083 | 2.0 | 9.500 | 2 | 9.582 | 9.670 | 7.826 | 2 |
| 2025-05-26T03:40:00 | 55.611531 | 15.558248 | 2.0 | 9.499 | 2 | 9.579 | 9.666 | 7.825 | 2 |
| 2025-05-26T03:41:00 | 55.612226 | 15.563391 | 2.0 | 9.483 | 2 | 9.578 | 9.664 | 7.824 | 2 |
| 2025-05-26T03:42:00 | 55.612902 | 15.568540 | 2.0 | 9.457 | 2 | 9.572 | 9.645 | 7.823 | 2 |
| 2025-05-26T03:43:00 | 55.613633 | 15.573662 | 2.0 | 9.452 | 2 | 9.564 | 9.626 | 7.820 | 2 |
| 2025-05-26T03:44:00 | 55.614362 | 15.578789 | 2.0 | 9.449 | 2 | 9.561 | 9.620 | 7.819 | 2 |
| 2025-05-26T03:45:00 | 55.615062 | 15.583953 | 2.0 | 9.448 | 2 | 9.564 | 9.618 | 7.822 | 2 |
| 2025-05-26T03:46:00 | 55.615790 | 15.589119 | 2.0 | 9.451 | 2 | 9.565 | 9.616 | 7.823 | 2 |
| 2025-05-26T03:47:00 | 55.616513 | 15.594294 | 2.0 | 9.457 | 2 | 9.568 | 9.620 | 7.825 | 2 |
| 2025-05-26T03:48:00 | 55.617212 | 15.599466 | 2.0 | 9.462 | 2 | 9.571 | 9.626 | 7.826 | 2 |
| 2025-05-26T03:49:00 | 55.617946 | 15.604625 | 2.0 | 9.469 | 2 | 9.462 | 9.632 | 7.729 | 2 |
| 2025-05-26T03:50:00 | 55.618623 | 15.609809 | 2.0 | 9.473 | 2 | 9.573 | 9.638 | 7.825 | 2 |
| 2025-05-26T03:51:00 | 55.619325 | 15.614975 | 2.0 | 9.473 | 2 | 9.572 | 9.640 | 7.824 | 2 |
| 2025-05-26T03:52:00 | 55.620068 | 15.620114 | 2.0 | 9.472 | 2 | 9.571 | 9.641 | 7.823 | 2 |
| 2025-05-26T03:53:00 | 55.620746 | 15.625296 | 2.0 | 9.468 | 2 | 9.571 | 9.639 | 7.823 | 2 |
| 2025-05-26T03:54:00 | 55.621462 | 15.630444 | 2.0 | 9.466 | 2 | 9.571 | 9.636 | 7.824 | 2 |
| 2025-05-26T03:55:00 | 55.622196 | 15.635594 | 2.0 | 9.463 | 2 | 9.569 | 9.634 | 7.823 | 2 |
| 2025-05-26T03:56:00 | 55.622867 | 15.640757 | 2.0 | 9.451 | 2 | 9.505 | 9.630 | 7.767 | 2 |
| 2025-05-26T03:57:00 | 55.623645 | 15.645902 | 2.0 | 9.418 | 2 | 9.526 | 9.616 | 7.789 | 2 |
| 2025-05-26T03:58:00 | 55.624341 | 15.651074 | 2.0 | 9.402 | 2 | 9.321 | 9.584 | 7.615 | 2 |
| 2025-05-26T03:59:00 | 55.625040 | 15.656237 | 2.0 | 9.426 | 2 | 9.509 | 9.576 | 7.783 | 2 |
| 2025-05-26T04:00:00 | 55.625737 | 15.661388 | 2.0 | 9.436 | 2 | 9.534 | 9.596 | 7.800 | 2 |
| 2025-05-26T04:01:00 | 55.626425 | 15.666557 | 2.0 | 9.445 | 2 | 9.537 | 9.605 | 7.801 | 2 |
| 2025-05-26T04:02:00 | 55.627162 | 15.671710 | 2.0 | 9.438 | 2 | 9.538 | 9.612 | 7.800 | 2 |
| 2025-05-26T04:03:00 | 55.627870 | 15.676848 | 2.0 | 9.422 | 2 | 9.535 | 9.603 | 7.800 | 2 |
| 2025-05-26T04:04:00 | 55.628592 | 15.681978 | 2.0 | 9.424 | 2 | 9.531 | 9.590 | 7.799 | 2 |
| 2025-05-26T04:05:00 | 55.629288 | 15.687092 | 2.0 | 9.432 | 2 | 9.532 | 9.594 | 7.799 | 2 |
| 2025-05-26T04:06:00 | 55.630022 | 15.692195 | 2.0 | 9.435 | 2 | 9.532 | 9.600 | 7.798 | 2 |
| 2025-05-26T04:07:00 | 55.630707 | 15.697324 | 2.0 | 9.453 | 2 | 9.534 | 9.606 | 7.798 | 2 |
| 2025-05-26T04:08:00 | 55.631393 | 15.702443 | 2.0 | 9.472 | 2 | 9.538 | 9.625 | 7.797 | 2 |
| 2025-05-26T04:09:00 | 55.632101 | 15.707548 | 2.0 | 9.481 | 2 | 9.542 | 9.642 | 7.797 | 2 |
| 2025-05-26T04:10:00 | 55.632803 | 15.712638 | 2.0 | 9.486 | 2 | 9.544 | 9.649 | 7.798 | 2 |
| 2025-05-26T04:11:00 | 55.633504 | 15.717755 | 2.0 | 9.495 | 2 | 9.544 | 9.655 | 7.796 | 2 |
| 2025-05-26T04:12:00 | 55.634213 | 15.722865 | 2.0 | 9.508 | 2 | 9.530 | 9.666 | 7.782 | 2 |
| 2025-05-26T04:13:00 | 55.634911 | 15.727969 | 2.0 | 9.520 | 2 | 9.551 | 9.678 | 7.797 | 2 |
| 2025-05-26T04:14:00 | 55.635612 | 15.733081 | 2.0 | 9.523 | 2 | 9.554 | 9.686 | 7.798 | 2 |
| 2025-05-26T04:15:00 | 55.636339 | 15.738187 | 2.0 | 9.521 | 2 | 9.556 | 9.689 | 7.799 | 2 |
| 2025-05-26T04:16:00 | 55.637013 | 15.743342 | 2.0 | 9.516 | 2 | 9.558 | 9.687 | 7.802 | 2 |
| 2025-05-26T04:17:00 | 55.637720 | 15.748479 | 2.0 | 9.504 | 2 | 9.558 | 9.684 | 7.802 | 2 |
| 2025-05-26T04:18:00 | 55.638452 | 15.753614 | 2.0 | 9.482 | 2 | 9.556 | 9.669 | 7.804 | 2 |
| 2025-05-26T04:19:00 | 55.639107 | 15.758765 | 2.0 | 9.463 | 2 | 9.551 | 9.649 | 7.804 | 2 |
| 2025-05-26T04:20:00 | 55.639860 | 15.763894 | 2.0 | 9.407 | 2 | 9.544 | 9.623 | 7.803 | 2 |
| 2025-05-26T04:21:00 | 55.640545 | 15.769063 | 2.0 | 9.349 | 2 | 9.530 | 9.569 | 7.803 | 2 |
| 2025-05-26T04:22:00 | 55.641253 | 15.774216 | 2.0 | 9.317 | 2 | 9.513 | 9.517 | 7.799 | 2 |
| 2025-05-26T04:23:00 | 55.641969 | 15.779362 | 2.0 | 9.286 | 2 | 9.501 | 9.482 | 7.796 | 2 |
| 2025-05-26T04:24:00 | 55.642700 | 15.784519 | 2.0 | 9.244 | 2 | 9.489 | 9.452 | 7.792 | 2 |
| 2025-05-26T04:25:00 | 55.643423 | 15.789687 | 2.0 | 9.214 | 2 | 9.473 | 9.415 | 7.786 | 2 |
| 2025-05-26T04:26:00 | 55.644144 | 15.794851 | 2.0 | 9.169 | 2 | 9.403 | 9.374 | 7.732 | 2 |
| 2025-05-26T04:27:00 | 55.644859 | 15.800007 | 2.0 | 9.111 | 2 | 9.336 | 9.330 | 7.683 | 2 |
| 2025-05-26T04:28:00 | 55.645532 | 15.805171 | 2.0 | 8.888 | 2 | 9.324 | 9.289 | 7.681 | 2 |
| 2025-05-26T04:29:00 | 55.646265 | 15.810280 | 2.0 | 8.674 | 2 | 9.162 | 8.982 | 7.602 | 2 |
| 2025-05-26T04:30:00 | 55.646919 | 15.815454 | 2.0 | 8.643 | 2 | 9.117 | 8.862 | 7.587 | 2 |
| 2025-05-26T04:31:00 | 55.647632 | 15.820595 | 2.0 | 8.604 | 2 | 8.995 | 8.815 | 7.488 | 2 |
| 2025-05-26T04:34:00 | 55.649749 | 15.835880 | 2.0 | 8.609 | 2 | 9.100 | 8.777 | 7.590 | 2 |
| 2025-05-26T04:35:00 | 55.650460 | 15.840984 | 2.0 | 8.620 | 2 | 9.098 | 8.783 | 7.587 | 2 |
| 2025-05-26T04:36:00 | 55.651146 | 15.846098 | 2.0 | 8.623 | 2 | 9.099 | 8.794 | 7.586 | 2 |
| 2025-05-26T04:37:00 | 55.651869 | 15.851194 | 2.0 | 8.642 | 2 | 9.098 | 8.798 | 7.584 | 2 |
| 2025-05-26T04:38:00 | 55.652555 | 15.856302 | 2.0 | 8.670 | 2 | 9.101 | 8.819 | 7.582 | 2 |
| 2025-05-26T04:39:00 | 55.653281 | 15.861418 | 2.0 | 8.687 | 2 | 9.105 | 8.843 | 7.581 | 2 |
| 2025-05-26T04:40:00 | 55.653999 | 15.866524 | 2.0 | 8.722 | 2 | 9.110 | 8.863 | 7.581 | 2 |
| 2025-05-26T04:41:00 | 55.654703 | 15.871651 | 2.0 | 8.767 | 2 | 9.094 | 8.899 | 7.559 | 2 |
| 2025-05-26T04:42:00 | 55.655381 | 15.876770 | 2.0 | 8.826 | 2 | 9.115 | 8.945 | 7.568 | 2 |
| 2025-05-26T04:43:00 | 55.656121 | 15.881880 | 2.0 | 8.877 | 2 | 9.118 | 8.999 | 7.559 | 2 |
| 2025-05-26T04:44:00 | 55.656839 | 15.886987 | 2.0 | 8.938 | 2 | 9.142 | 9.057 | 7.568 | 2 |
| 2025-05-26T04:45:00 | 55.657494 | 15.892091 | 2.0 | 8.966 | 2 | 9.167 | 9.109 | 7.580 | 2 |
| 2025-05-26T04:46:00 | 55.658187 | 15.897198 | 2.0 | 8.996 | 2 | 9.179 | 9.139 | 7.584 | 2 |
| 2025-05-26T04:47:00 | 55.658903 | 15.902317 | 2.0 | 9.015 | 2 | 9.072 | 9.164 | 7.484 | 2 |
| 2025-05-26T04:48:00 | 55.659584 | 15.907421 | 2.0 | 9.032 | 2 | 9.192 | 9.184 | 7.586 | 2 |
| 2025-05-26T04:49:00 | 55.660311 | 15.912543 | 2.0 | 9.053 | 2 | 9.196 | 9.203 | 7.585 | 2 |
| 2025-05-26T04:50:00 | 55.661035 | 15.917628 | 2.0 | 9.063 | 2 | 9.201 | 9.223 | 7.586 | 2 |
| 2025-05-26T04:51:00 | 55.661697 | 15.922772 | 2.0 | 9.070 | 2 | 9.205 | 9.232 | 7.587 | 2 |
| 2025-05-26T04:52:00 | 55.662438 | 15.927900 | 2.0 | 9.073 | 2 | 9.209 | 9.238 | 7.590 | 2 |
| 2025-05-26T04:53:00 | 55.663115 | 15.933043 | 2.0 | 9.073 | 2 | 9.212 | 9.241 | 7.592 | 2 |
| 2025-05-26T04:54:00 | 55.663840 | 15.938178 | 2.0 | 9.068 | 2 | 9.215 | 9.240 | 7.594 | 2 |
| 2025-05-26T04:55:00 | 55.664553 | 15.943331 | 2.0 | 9.067 | 2 | 9.218 | 9.237 | 7.598 | 2 |
| 2025-05-26T04:56:00 | 55.665237 | 15.948487 | 2.0 | 9.061 | 2 | 9.220 | 9.234 | 7.600 | 2 |
| 2025-05-26T04:57:00 | 55.665987 | 15.953609 | 2.0 | 9.053 | 2 | 9.222 | 9.228 | 7.603 | 2 |
| 2025-05-26T04:58:00 | 55.666699 | 15.958748 | 2.0 | 9.041 | 2 | 9.222 | 9.222 | 7.604 | 2 |
| 2025-05-26T04:59:00 | 55.667399 | 15.963889 | 2.0 | 9.028 | 2 | 9.222 | 9.210 | 7.607 | 2 |
| 2025-05-26T05:00:00 | 55.668113 | 15.969028 | 2.0 | 9.022 | 2 | 9.218 | 9.196 | 7.606 | 2 |
| 2025-05-26T05:01:00 | 55.668799 | 15.974175 | 2.0 | 9.027 | 2 | 9.216 | 9.192 | 7.606 | 2 |
| 2025-05-26T05:02:00 | 55.669508 | 15.979308 | 2.0 | 9.023 | 2 | 9.214 | 9.196 | 7.603 | 2 |
| 2025-05-26T05:03:00 | 55.670222 | 15.984443 | 2.0 | 9.020 | 2 | 9.214 | 9.193 | 7.604 | 2 |
| 2025-05-26T05:04:00 | 55.670951 | 15.989592 | 2.0 | 9.020 | 2 | 9.215 | 9.190 | 7.605 | 2 |
| 2025-05-26T05:05:00 | 55.671653 | 15.994766 | 2.0 | 9.024 | 2 | 9.216 | 9.189 | 7.606 | 2 |
| 2025-05-26T05:06:00 | 55.672377 | 15.999927 | 2.0 | 9.026 | 2 | 9.219 | 9.193 | 7.608 | 2 |
| 2025-05-26T05:07:00 | 55.673071 | 16.005094 | 2.0 | 9.031 | 2 | 9.220 | 9.196 | 7.608 | 2 |
| 2025-05-26T05:08:00 | 55.673791 | 16.010231 | 2.0 | 9.037 | 2 | 9.223 | 9.201 | 7.610 | 2 |
| 2025-05-26T05:09:00 | 55.674489 | 16.015357 | 2.0 | 9.038 | 2 | 9.224 | 9.206 | 7.610 | 2 |
| 2025-05-26T05:10:00 | 55.675193 | 16.020494 | 2.0 | 9.040 | 2 | 9.225 | 9.206 | 7.611 | 2 |
| 2025-05-26T05:11:00 | 55.675916 | 16.025633 | 2.0 | 9.038 | 2 | 9.225 | 9.209 | 7.610 | 2 |
| 2025-05-26T05:12:00 | 55.676634 | 16.030785 | 2.0 | 9.027 | 2 | 9.225 | 9.206 | 7.611 | 2 |
| 2025-05-26T05:13:00 | 55.677329 | 16.035916 | 2.0 | 9.018 | 2 | 9.224 | 9.196 | 7.612 | 2 |
| 2025-05-26T05:14:00 | 55.678015 | 16.041051 | 2.0 | 9.009 | 2 | 9.223 | 9.184 | 7.613 | 2 |
| 2025-05-26T05:15:00 | 55.678717 | 16.046193 | 2.0 | 9.013 | 2 | 9.225 | 9.180 | 7.616 | 2 |
| 2025-05-26T05:16:00 | 55.679431 | 16.051333 | 2.0 | 9.015 | 2 | 9.227 | 9.182 | 7.617 | 2 |
| 2025-05-26T05:17:00 | 55.680149 | 16.056446 | 2.0 | 9.018 | 2 | 9.229 | 9.184 | 7.619 | 2 |
| 2025-05-26T05:18:00 | 55.680858 | 16.061565 | 2.0 | 9.018 | 2 | 9.232 | 9.186 | 7.621 | 2 |
| 2025-05-26T05:19:00 | 55.681547 | 16.066710 | 2.0 | 9.011 | 2 | 9.234 | 9.185 | 7.623 | 2 |
| 2025-05-26T05:20:00 | 55.682243 | 16.071845 | 2.0 | 8.999 | 2 | 9.237 | 9.178 | 7.627 | 2 |
| 2025-05-26T05:21:00 | 55.682979 | 16.076957 | 2.0 | 8.985 | 2 | 9.209 | 9.165 | 7.605 | 2 |
| 2025-05-26T05:22:00 | 55.683641 | 16.082110 | 2.0 | 8.970 | 2 | 9.199 | 9.152 | 7.599 | 2 |
| 2025-05-26T05:23:00 | 55.684330 | 16.087242 | 2.0 | 8.966 | 2 | 9.238 | 9.139 | 7.636 | 2 |
| 2025-05-26T05:24:00 | 55.685056 | 16.092337 | 2.0 | 8.979 | 2 | 9.251 | 9.140 | 7.648 | 2 |
| 2025-05-26T05:25:00 | 55.685799 | 16.097433 | 2.0 | 8.996 | 2 | 9.259 | 9.151 | 7.652 | 2 |
| 2025-05-26T05:26:00 | 55.686480 | 16.102570 | 2.0 | 9.015 | 2 | 9.267 | 9.168 | 7.656 | 2 |
| 2025-05-26T05:27:00 | 55.687192 | 16.107720 | 2.0 | 9.053 | 2 | 9.276 | 9.188 | 7.660 | 2 |
| 2025-05-26T05:28:00 | 55.687899 | 16.112882 | 2.0 | 9.093 | 2 | 9.294 | 9.227 | 7.667 | 2 |
| 2025-05-26T05:29:00 | 55.688604 | 16.118045 | 2.0 | 9.088 | 2 | 9.311 | 9.258 | 7.676 | 2 |
| 2025-05-26T05:30:00 | 55.689318 | 16.123168 | 2.0 | 9.090 | 2 | 9.301 | 9.255 | 7.668 | 2 |
| 2025-05-26T05:31:00 | 55.690010 | 16.128325 | 2.0 | 9.111 | 2 | 9.311 | 9.263 | 7.675 | 2 |
| 2025-05-26T05:32:00 | 55.690728 | 16.133455 | 2.0 | 9.126 | 2 | 9.326 | 9.280 | 7.684 | 2 |
| 2025-05-26T05:33:00 | 55.691430 | 16.138603 | 2.0 | 9.148 | 2 | 9.338 | 9.296 | 7.692 | 2 |
| 2025-05-26T05:34:00 | 55.692120 | 16.143716 | 2.0 | 9.162 | 2 | 9.353 | 9.320 | 7.700 | 2 |
| 2025-05-26T05:35:00 | 55.692853 | 16.148820 | 2.0 | 9.178 | 2 | 9.369 | 9.330 | 7.712 | 2 |
| 2025-05-26T05:36:00 | 55.693558 | 16.153958 | 2.0 | 9.160 | 2 | 9.383 | 9.345 | 7.721 | 2 |
| 2025-05-26T05:37:00 | 55.694251 | 16.159098 | 2.0 | 9.155 | 2 | 9.387 | 9.323 | 7.729 | 2 |
| 2025-05-26T05:38:00 | 55.694951 | 16.164226 | 2.0 | 9.180 | 2 | 9.379 | 9.328 | 7.721 | 2 |
| 2025-05-26T05:39:00 | 55.695656 | 16.169375 | 2.0 | 9.179 | 2 | 9.360 | 9.343 | 7.701 | 2 |
| 2025-05-26T05:40:00 | 55.696355 | 16.174517 | 2.0 | 9.199 | 2 | 9.399 | 9.351 | 7.734 | 2 |
| 2025-05-26T05:41:00 | 55.697072 | 16.179649 | 2.0 | 9.212 | 2 | 9.399 | 9.367 | 7.730 | 2 |
| 2025-05-26T05:42:00 | 55.697775 | 16.184796 | 2.0 | 9.210 | 2 | 9.379 | 9.379 | 7.710 | 2 |
| 2025-05-26T05:43:00 | 55.698479 | 16.189929 | 2.0 | 9.199 | 2 | 9.399 | 9.374 | 7.729 | 2 |
| 2025-05-26T05:44:00 | 55.699204 | 16.195067 | 2.0 | 9.190 | 2 | 9.397 | 9.367 | 7.729 | 2 |
| 2025-05-26T05:45:00 | 55.699921 | 16.200223 | 2.0 | 9.175 | 2 | 9.395 | 9.354 | 7.730 | 2 |
| 2025-05-26T05:46:00 | 55.700639 | 16.205376 | 2.0 | 9.019 | 2 | 9.395 | 9.331 | 7.735 | 2 |
| 2025-05-26T05:47:00 | 55.701335 | 16.210536 | 2.0 | 8.929 | 2 | 9.338 | 9.176 | 7.717 | 2 |
| 2025-05-26T05:48:00 | 55.701984 | 16.215695 | 2.0 | 8.879 | 2 | 9.286 | 9.097 | 7.688 | 2 |
| 2025-05-26T05:49:00 | 55.702731 | 16.220810 | 2.0 | 8.852 | 2 | 9.198 | 9.052 | 7.619 | 2 |
| 2025-05-26T05:50:00 | 55.703443 | 16.225977 | 2.0 | 8.807 | 2 | 9.149 | 9.015 | 7.583 | 2 |
| 2025-05-26T05:51:00 | 55.704199 | 16.231157 | 2.0 | 8.802 | 2 | 9.157 | 8.980 | 7.598 | 2 |
| 2025-05-26T05:52:00 | 55.704896 | 16.236374 | 2.0 | 8.815 | 2 | 9.149 | 8.975 | 7.592 | 2 |
| 2025-05-26T05:53:00 | 55.705596 | 16.241577 | 2.0 | 8.848 | 2 | 9.180 | 8.991 | 7.616 | 2 |
| 2025-05-26T05:54:00 | 55.706305 | 16.246772 | 2.0 | 8.901 | 2 | 9.211 | 9.032 | 7.635 | 2 |
| 2025-05-26T05:55:00 | 55.707020 | 16.251941 | 2.0 | 8.728 | 2 | 9.237 | 9.049 | 7.655 | 2 |
| 2025-05-26T05:56:00 | 55.707682 | 16.257102 | 2.0 | 8.746 | 2 | 9.143 | 8.921 | 7.598 | 2 |
| 2025-05-26T05:57:00 | 55.708396 | 16.262271 | 2.0 | 8.729 | 2 | 9.143 | 8.914 | 7.600 | 2 |
| 2025-05-26T05:58:00 | 55.709131 | 16.267437 | 2.0 | 8.755 | 2 | 9.163 | 8.909 | 7.619 | 2 |
| 2025-05-26T05:59:00 | 55.709792 | 16.272601 | 2.0 | 8.730 | 2 | 9.171 | 8.918 | 7.624 | 2 |
| 2025-05-26T06:00:00 | 55.710509 | 16.277755 | 2.0 | 8.709 | 2 | 9.163 | 8.899 | 7.621 | 2 |
| 2025-05-26T06:01:00 | 55.711256 | 16.282892 | 2.0 | 8.709 | 2 | 9.153 | 8.881 | 7.616 | 2 |
| 2025-05-26T06:02:00 | 55.711940 | 16.288040 | 2.0 | 8.719 | 2 | 9.147 | 8.879 | 7.611 | 2 |
| 2025-05-26T06:03:00 | 55.712677 | 16.293179 | 2.0 | 8.726 | 2 | 9.147 | 8.891 | 7.608 | 2 |
| 2025-05-26T06:04:00 | 55.713353 | 16.298365 | 2.0 | 8.752 | 2 | 9.149 | 8.902 | 7.608 | 2 |
| 2025-05-26T06:05:00 | 55.714103 | 16.303526 | 2.0 | 8.782 | 2 | 9.155 | 8.924 | 7.608 | 2 |
| 2025-05-26T06:06:00 | 55.714786 | 16.308732 | 2.0 | 8.813 | 2 | 9.165 | 8.954 | 7.611 | 2 |
| 2025-05-26T06:07:00 | 55.715536 | 16.313910 | 2.0 | 8.846 | 2 | 9.176 | 8.986 | 7.614 | 2 |
| 2025-05-26T06:08:00 | 55.716257 | 16.319081 | 2.0 | 8.873 | 2 | 9.189 | 9.019 | 7.618 | 2 |
| 2025-05-26T06:09:00 | 55.716942 | 16.324270 | 2.0 | 8.904 | 2 | 9.202 | 9.046 | 7.624 | 2 |
| 2025-05-26T06:10:00 | 55.717625 | 16.329453 | 2.0 | 8.923 | 2 | 9.218 | 9.073 | 7.633 | 2 |
| 2025-05-26T06:11:00 | 55.718366 | 16.334596 | 2.0 | 8.929 | 2 | 9.230 | 9.091 | 7.639 | 2 |
| 2025-05-26T06:12:00 | 55.719080 | 16.339753 | 2.0 | 8.931 | 2 | 9.241 | 9.099 | 7.648 | 2 |
| 2025-05-26T06:13:00 | 55.719781 | 16.344922 | 2.0 | 8.922 | 2 | 9.249 | 9.097 | 7.655 | 2 |
| 2025-05-26T06:14:00 | 55.720484 | 16.350093 | 2.0 | 8.909 | 2 | 9.255 | 9.088 | 7.662 | 2 |
| 2025-05-26T06:15:00 | 55.721187 | 16.355260 | 2.0 | 8.888 | 2 | 9.259 | 9.074 | 7.669 | 2 |
| 2025-05-26T06:16:00 | 55.721891 | 16.360431 | 2.0 | 8.872 | 2 | 9.259 | 9.055 | 7.673 | 2 |
| 2025-05-26T06:17:00 | 55.722609 | 16.365592 | 2.0 | 8.822 | 2 | 9.256 | 9.035 | 7.675 | 2 |
| 2025-05-26T06:18:00 | 55.723322 | 16.370734 | 2.0 | 8.728 | 2 | 9.237 | 8.982 | 7.669 | 2 |
| 2025-05-26T06:19:00 | 55.724025 | 16.375883 | 2.0 | 8.661 | 2 | 9.169 | 8.886 | 7.629 | 2 |
| 2025-05-26T06:20:00 | 55.724747 | 16.381043 | 2.0 | 8.674 | 2 | 9.108 | 8.833 | 7.586 | 2 |
| 2025-05-26T06:21:00 | 55.725445 | 16.386235 | 2.0 | 8.797 | 2 | 9.048 | 8.868 | 7.524 | 2 |
| 2025-05-26T06:22:00 | 55.726166 | 16.391417 | 2.0 | 8.843 | 2 | 9.055 | 8.979 | 7.507 | 2 |
| 2025-05-26T06:23:00 | 55.726877 | 16.396588 | 2.0 | 8.820 | 2 | 9.083 | 9.006 | 7.526 | 2 |
| 2025-05-26T06:24:00 | 55.727605 | 16.401750 | 2.0 | 8.843 | 2 | 9.124 | 8.993 | 7.566 | 2 |
| 2025-05-26T06:25:00 | 55.728294 | 16.406906 | 2.0 | 8.850 | 2 | 9.176 | 9.014 | 7.608 | 2 |
| 2025-05-26T06:26:00 | 55.729005 | 16.412033 | 2.0 | 8.868 | 2 | 9.225 | 9.018 | 7.651 | 2 |
| 2025-05-26T06:27:00 | 55.729702 | 16.417162 | 2.0 | 8.941 | 2 | 9.269 | 9.049 | 7.683 | 2 |
| 2025-05-26T06:28:00 | 55.730430 | 16.422268 | 2.0 | 8.954 | 2 | 9.312 | 9.116 | 7.707 | 2 |
| 2025-05-26T06:29:00 | 55.731129 | 16.427357 | 2.0 | 8.884 | 2 | 9.310 | 9.099 | 7.709 | 2 |
| 2025-05-26T06:30:00 | 55.731764 | 16.432450 | 2.0 | 8.927 | 2 | 9.274 | 9.062 | 7.685 | 2 |
| 2025-05-26T06:31:00 | 55.732450 | 16.437525 | 2.0 | 8.950 | 2 | 9.267 | 9.097 | 7.671 | 2 |
| 2025-05-26T06:32:00 | 55.732600 | 16.442670 | 2.0 | 8.954 | 2 | 9.212 | 9.119 | 7.617 | 2 |
| 2025-05-26T06:33:00 | 55.733243 | 16.447670 | 2.0 | 8.974 | 2 | 9.231 | 9.125 | 7.633 | 2 |
| 2025-05-26T06:34:00 | 55.733970 | 16.452772 | 2.0 | 8.988 | 2 | 9.233 | 9.143 | 7.631 | 2 |
| 2025-05-26T06:35:00 | 55.734691 | 16.457926 | 2.0 | 9.002 | 2 | 9.228 | 9.161 | 7.623 | 2 |
| 2025-05-26T06:36:00 | 55.735439 | 16.463087 | 2.0 | 9.017 | 2 | 9.245 | 9.170 | 7.636 | 2 |
| 2025-05-26T06:37:00 | 55.736159 | 16.468244 | 2.0 | 9.017 | 2 | 9.248 | 9.185 | 7.635 | 2 |
| 2025-05-26T06:38:00 | 55.736881 | 16.473409 | 2.0 | 9.025 | 2 | 9.246 | 9.184 | 7.634 | 2 |
| 2025-05-26T06:39:00 | 55.737622 | 16.478568 | 2.0 | 9.020 | 2 | 9.251 | 9.191 | 7.637 | 2 |
| 2025-05-26T06:40:00 | 55.738340 | 16.483738 | 2.0 | 9.029 | 2 | 9.230 | 9.192 | 7.618 | 2 |
| 2025-05-26T06:41:00 | 55.739076 | 16.488871 | 2.0 | 9.022 | 2 | 9.300 | 9.195 | 7.680 | 2 |
| 2025-05-26T06:42:00 | 55.739799 | 16.494031 | 2.0 | 9.019 | 2 | 9.299 | 9.188 | 7.680 | 2 |
| 2025-05-26T06:43:00 | 55.740552 | 16.499197 | 2.0 | 9.011 | 2 | 9.298 | 9.185 | 7.680 | 2 |
| 2025-05-26T06:44:00 | 55.741289 | 16.504372 | 2.0 | 9.015 | 2 | 9.298 | 9.183 | 7.680 | 2 |
| 2025-05-26T06:45:00 | 55.741988 | 16.509550 | 2.0 | 9.007 | 2 | 9.298 | 9.179 | 7.681 | 2 |
| 2025-05-26T06:46:00 | 55.742717 | 16.514722 | 2.0 | 8.988 | 2 | 9.298 | 9.176 | 7.682 | 2 |
| 2025-05-26T06:47:00 | 55.743458 | 16.519902 | 2.0 | 8.986 | 2 | 9.295 | 9.159 | 7.683 | 2 |
| 2025-05-26T06:48:00 | 55.744169 | 16.525084 | 2.0 | 8.976 | 2 | 9.295 | 9.152 | 7.684 | 2 |
| 2025-05-26T06:49:00 | 55.744908 | 16.530261 | 2.0 | 8.976 | 2 | 9.294 | 9.145 | 7.685 | 2 |
| 2025-05-26T06:50:00 | 55.745613 | 16.535445 | 2.0 | 8.976 | 2 | 9.296 | 9.146 | 7.686 | 2 |
| 2025-05-26T06:51:00 | 55.746376 | 16.540616 | 2.0 | 8.972 | 2 | 9.290 | 9.146 | 7.681 | 2 |
| 2025-05-26T06:52:00 | 55.747117 | 16.545814 | 2.0 | 8.968 | 2 | 9.299 | 9.142 | 7.690 | 2 |
| 2025-05-26T06:53:00 | 55.747823 | 16.550986 | 2.0 | 8.963 | 2 | 9.301 | 9.136 | 7.693 | 2 |
| 2025-05-26T06:54:00 | 55.748550 | 16.556147 | 2.0 | 8.958 | 2 | 9.302 | 9.133 | 7.695 | 2 |
| 2025-05-26T06:55:00 | 55.749260 | 16.561299 | 2.0 | 8.943 | 2 | 9.304 | 9.123 | 7.699 | 2 |
| 2025-05-26T06:56:00 | 55.750005 | 16.566437 | 2.0 | 8.929 | 2 | 9.304 | 9.112 | 7.701 | 2 |
| 2025-05-26T06:57:00 | 55.750751 | 16.571566 | 2.0 | 8.316 | 2 | 9.275 | 9.015 | 7.696 | 2 |
| 2025-05-26T06:58:00 | 55.751453 | 16.576711 | 2.0 | 8.263 | 2 | 9.083 | 8.513 | 7.632 | 2 |
| 2025-05-26T06:59:00 | 55.752185 | 16.581862 | 2.0 | 8.358 | 2 | 9.030 | 8.472 | 7.593 | 2 |
| 2025-05-26T07:00:00 | 55.752904 | 16.587014 | 2.0 | 8.374 | 2 | 9.038 | 8.534 | 7.586 | 2 |
| 2025-05-26T07:01:00 | 55.753604 | 16.592150 | 2.0 | 8.415 | 2 | 9.042 | 8.553 | 7.586 | 2 |
| 2025-05-26T07:02:00 | 55.754354 | 16.597285 | 2.0 | 8.501 | 2 | 9.059 | 8.606 | 7.590 | 2 |
| 2025-05-26T07:03:00 | 55.755056 | 16.602447 | 2.0 | 8.557 | 2 | 9.085 | 8.678 | 7.598 | 2 |
| 2025-05-26T07:04:00 | 55.755782 | 16.607621 | 2.0 | 8.596 | 2 | 9.105 | 8.730 | 7.605 | 2 |
| 2025-05-26T07:05:00 | 55.756503 | 16.612786 | 2.0 | 8.635 | 2 | 9.134 | 8.773 | 7.622 | 2 |
| 2025-05-26T07:06:00 | 55.757248 | 16.617947 | 2.0 | 8.680 | 2 | 9.158 | 8.811 | 7.635 | 2 |
| 2025-05-26T07:07:00 | 55.757961 | 16.623116 | 2.0 | 8.785 | 2 | 9.195 | 8.860 | 7.658 | 2 |
| 2025-05-26T07:08:00 | 55.758735 | 16.628248 | 2.0 | 8.964 | 2 | 9.270 | 8.995 | 7.696 | 2 |
| 2025-05-26T07:09:00 | 55.759456 | 16.633388 | 2.0 | 8.969 | 2 | 9.330 | 9.119 | 7.723 | 2 |
| 2025-05-26T07:10:00 | 55.760158 | 16.638520 | 2.0 | 8.964 | 2 | 9.342 | 9.131 | 7.731 | 2 |
| 2025-05-26T07:11:00 | 55.760890 | 16.643659 | 2.0 | 8.977 | 2 | 9.342 | 9.132 | 7.730 | 2 |
| 2025-05-26T07:12:00 | 55.761614 | 16.648798 | 2.0 | 8.947 | 2 | 9.341 | 9.138 | 7.728 | 2 |
| 2025-05-26T07:13:00 | 55.762353 | 16.653939 | 2.0 | 8.930 | 2 | 9.334 | 9.111 | 7.728 | 2 |
| 2025-05-26T07:14:00 | 55.763045 | 16.659084 | 2.0 | 8.822 | 2 | 9.324 | 9.091 | 7.723 | 2 |
| 2025-05-26T07:15:00 | 55.763750 | 16.664217 | 2.0 | 8.779 | 2 | 9.228 | 8.992 | 7.659 | 2 |
| 2025-05-26T07:16:00 | 55.764494 | 16.669319 | 2.0 | 8.762 | 2 | 9.186 | 8.948 | 7.631 | 2 |
| 2025-05-26T07:17:00 | 55.765240 | 16.674443 | 2.0 | 8.751 | 2 | 9.169 | 8.931 | 7.619 | 2 |
| 2025-05-26T07:18:00 | 55.765946 | 16.679575 | 2.0 | 8.751 | 2 | 9.158 | 8.920 | 7.612 | 2 |
| 2025-05-26T07:19:00 | 55.766684 | 16.684704 | 2.0 | 8.747 | 2 | 9.153 | 8.920 | 7.607 | 2 |
| 2025-05-26T07:20:00 | 55.767381 | 16.689861 | 2.0 | 8.757 | 2 | 9.148 | 8.919 | 7.603 | 2 |
| 2025-05-26T07:21:00 | 55.768113 | 16.695023 | 2.0 | 8.765 | 2 | 9.111 | 8.926 | 7.568 | 2 |
| 2025-05-26T07:22:00 | 55.768853 | 16.700186 | 2.0 | 8.779 | 2 | 9.047 | 8.938 | 7.509 | 2 |
| 2025-05-26T07:23:00 | 55.769534 | 16.705370 | 2.0 | 8.776 | 2 | 9.113 | 8.949 | 7.565 | 2 |
| 2025-05-26T07:24:00 | 55.770289 | 16.710539 | 2.0 | 8.761 | 2 | 8.880 | 8.941 | 7.359 | 2 |
| 2025-05-26T07:26:00 | 55.771754 | 16.720936 | 2.0 | 8.785 | 2 | 9.006 | 8.940 | 7.472 | 2 |
| 2025-05-26T07:27:00 | 55.772462 | 16.726160 | 2.0 | 8.796 | 2 | 9.145 | 8.956 | 7.592 | 2 |
| 2025-05-26T07:28:00 | 55.773210 | 16.731365 | 2.0 | 8.802 | 2 | 9.149 | 8.964 | 7.594 | 2 |
| 2025-05-26T07:29:00 | 55.773917 | 16.736589 | 2.0 | 8.789 | 2 | 9.153 | 8.967 | 7.597 | 2 |
| 2025-05-26T07:30:00 | 55.774650 | 16.741804 | 2.0 | 8.771 | 2 | 9.154 | 8.961 | 7.599 | 2 |
| 2025-05-26T07:31:00 | 55.775362 | 16.747006 | 2.0 | 8.782 | 2 | 9.153 | 8.945 | 7.602 | 2 |
| 2025-05-26T07:32:00 | 55.776085 | 16.752239 | 2.0 | 8.788 | 2 | 9.157 | 8.950 | 7.604 | 2 |
| 2025-05-26T07:33:00 | 55.776818 | 16.757449 | 2.0 | 8.811 | 2 | 9.162 | 8.965 | 7.606 | 2 |
| 2025-05-26T07:34:00 | 55.777592 | 16.762672 | 2.0 | 8.832 | 2 | 9.167 | 8.982 | 7.607 | 2 |
| 2025-05-26T07:35:00 | 55.778268 | 16.767896 | 2.0 | 8.859 | 2 | 9.172 | 9.002 | 7.607 | 2 |
| 2025-05-26T07:36:00 | 55.779028 | 16.773130 | 2.0 | 8.883 | 2 | 9.178 | 9.030 | 7.606 | 2 |
| 2025-05-26T07:37:00 | 55.779751 | 16.778345 | 2.0 | 8.868 | 2 | 9.181 | 9.048 | 7.605 | 2 |
| 2025-05-26T07:38:00 | 55.780454 | 16.783555 | 2.0 | 8.831 | 2 | 9.177 | 9.029 | 7.605 | 2 |
| 2025-05-26T07:39:00 | 55.781246 | 16.788753 | 2.0 | 8.827 | 2 | 9.142 | 9.007 | 7.579 | 2 |
| 2025-05-26T07:40:00 | 55.781944 | 16.793971 | 2.0 | 8.728 | 2 | 9.129 | 8.968 | 7.576 | 2 |
| 2025-05-26T07:41:00 | 55.782686 | 16.799159 | 2.0 | 8.785 | 2 | 9.106 | 8.912 | 7.567 | 2 |
| 2025-05-26T07:42:00 | 55.783436 | 16.804354 | 2.0 | 8.855 | 2 | 9.147 | 8.963 | 7.593 | 2 |
| 2025-05-26T07:43:00 | 55.784181 | 16.809555 | 2.0 | 8.907 | 2 | 9.187 | 9.034 | 7.613 | 2 |
| 2025-05-26T07:44:00 | 55.784925 | 16.814731 | 2.0 | 8.807 | 2 | 9.220 | 9.077 | 7.634 | 2 |
| 2025-05-26T07:45:00 | 55.785688 | 16.819866 | 2.0 | 8.615 | 2 | 9.046 | 8.932 | 7.509 | 2 |
| 2025-05-26T07:46:00 | 55.786377 | 16.825022 | 2.0 | 8.610 | 2 | 9.058 | 8.791 | 7.550 | 2 |
| 2025-05-26T07:47:00 | 55.787110 | 16.830192 | 2.0 | 8.602 | 2 | 9.047 | 8.782 | 7.542 | 2 |
| 2025-05-26T07:48:00 | 55.787815 | 16.835403 | 2.0 | 8.514 | 2 | 9.036 | 8.767 | 7.535 | 2 |
| 2025-05-26T07:49:00 | 55.788536 | 16.840602 | 2.0 | 8.490 | 2 | 8.994 | 8.676 | 7.517 | 2 |
| 2025-05-26T07:50:00 | 55.789298 | 16.845758 | 2.0 | 8.657 | 2 | 8.977 | 8.710 | 7.494 | 2 |
| 2025-05-26T07:51:00 | 55.790009 | 16.850926 | 2.0 | 8.677 | 2 | 8.979 | 8.826 | 7.471 | 2 |
| 2025-05-26T07:52:00 | 55.790733 | 16.856108 | 2.0 | 8.752 | 2 | 8.975 | 8.854 | 7.462 | 2 |
| 2025-05-26T07:53:00 | 55.791451 | 16.861300 | 2.0 | 8.799 | 2 | 8.977 | 8.928 | 7.448 | 2 |
| 2025-05-26T07:54:00 | 55.792180 | 16.866489 | 2.0 | 8.798 | 2 | 8.978 | 8.962 | 7.442 | 2 |
| 2025-05-26T07:55:00 | 55.792901 | 16.871681 | 2.0 | 8.811 | 2 | 8.975 | 8.970 | 7.438 | 2 |
| 2025-05-26T07:56:00 | 55.793637 | 16.876884 | 2.0 | 8.815 | 2 | 8.975 | 8.980 | 7.436 | 2 |
| 2025-05-26T07:57:00 | 55.794360 | 16.882108 | 2.0 | 8.819 | 2 | 8.976 | 8.986 | 7.435 | 2 |
| 2025-05-26T07:58:00 | 55.795117 | 16.887317 | 2.0 | 8.824 | 2 | 8.976 | 8.985 | 7.436 | 2 |
| 2025-05-26T07:59:00 | 55.795838 | 16.892550 | 2.0 | 8.843 | 2 | 8.980 | 9.000 | 7.436 | 2 |
| 2025-05-26T08:00:00 | 55.796563 | 16.897171 | 2.0 | 8.863 | 2 | 8.986 | 9.016 | 7.438 | 2 |
| 2025-05-26T08:01:00 | 55.797169 | 16.900820 | 2.0 | 8.881 | 2 | 8.990 | 9.026 | 7.439 | 2 |
| 2025-05-26T08:02:00 | 55.797671 | 16.903917 | 2.0 | 8.882 | 2 | 8.995 | 9.044 | 7.440 | 2 |
| 2025-05-26T08:03:00 | 55.798094 | 16.906790 | 2.0 | 8.895 | 2 | 8.999 | 9.050 | 7.442 | 2 |
| 2025-05-26T08:04:00 | 55.798103 | 16.909658 | 2.0 | 8.885 | 2 | 9.003 | 9.058 | 7.444 | 2 |
| 2025-05-26T08:05:00 | 55.797790 | 16.912376 | 2.0 | 8.884 | 2 | 9.004 | 9.049 | 7.447 | 2 |
| 2025-05-26T08:06:00 | 55.797745 | 16.915153 | 2.0 | 8.879 | 2 | 9.006 | 9.047 | 7.449 | 2 |
| 2025-05-26T08:07:00 | 55.798231 | 16.917729 | 2.0 | 8.878 | 2 | 9.006 | 9.044 | 7.450 | 2 |
| 2025-05-26T08:08:00 | 55.798867 | 16.920053 | 2.0 | 8.861 | 2 | 8.980 | 9.036 | 7.428 | 2 |
| 2025-05-26T08:09:00 | 55.798856 | 16.922670 | 2.0 | 8.852 | 2 | 8.918 | 9.028 | 7.375 | 2 |
| 2025-05-26T08:10:00 | 55.799130 | 16.925455 | 2.0 | 8.857 | 2 | 8.942 | 9.021 | 7.398 | 2 |
| 2025-05-26T08:11:00 | 55.799331 | 16.928412 | 2.0 | 8.835 | 2 | 8.999 | 9.019 | 7.449 | 2 |
| 2025-05-26T08:12:00 | 55.799250 | 16.931349 | 2.0 | 8.852 | 2 | 8.971 | 9.005 | 7.427 | 2 |
| 2025-05-26T08:13:00 | 55.799048 | 16.934343 | 2.0 | 8.885 | 2 | 8.973 | 9.024 | 7.425 | 2 |
| 2025-05-26T08:14:00 | 55.798808 | 16.937357 | 2.0 | 8.905 | 2 | 8.987 | 9.053 | 7.431 | 2 |
| 2025-05-26T08:15:00 | 55.798870 | 16.940334 | 2.0 | 8.906 | 2 | 9.009 | 9.071 | 7.447 | 2 |
| 2025-05-26T08:17:00 | 55.799340 | 16.946961 | 2.0 | 8.902 | 2 | 9.046 | 9.061 | 7.482 | 2 |
| 2025-05-26T08:18:00 | 55.800034 | 16.951618 | 2.0 | 8.870 | 2 | 9.051 | 9.060 | 7.487 | 2 |
| 2025-05-26T08:19:00 | 55.800783 | 16.956722 | 2.0 | 8.873 | 2 | 9.059 | 9.042 | 7.498 | 2 |
| 2025-05-26T08:20:00 | 55.801509 | 16.961996 | 2.0 | 8.848 | 2 | 9.068 | 9.033 | 7.507 | 2 |
| 2025-05-26T08:21:00 | 55.802264 | 16.967299 | 2.0 | 8.819 | 2 | 9.072 | 9.012 | 7.515 | 2 |
| 2025-05-26T08:22:00 | 55.803005 | 16.972594 | 2.0 | 8.834 | 2 | 9.076 | 8.987 | 7.524 | 2 |
| 2025-05-26T08:23:00 | 55.803772 | 16.977914 | 2.0 | 8.884 | 2 | 9.091 | 9.015 | 7.532 | 2 |
| 2025-05-26T08:24:00 | 55.804522 | 16.983203 | 2.0 | 8.888 | 2 | 9.108 | 9.049 | 7.540 | 2 |
| 2025-05-26T08:25:00 | 55.805289 | 16.988496 | 2.0 | 8.880 | 2 | 9.112 | 9.056 | 7.542 | 2 |
| 2025-05-26T08:26:00 | 55.806011 | 16.993790 | 2.0 | 8.867 | 2 | 9.110 | 9.050 | 7.541 | 2 |
| 2025-05-26T08:27:00 | 55.806751 | 16.999061 | 2.0 | 8.866 | 2 | 9.093 | 9.036 | 7.529 | 2 |
| 2025-05-26T08:28:00 | 55.807498 | 17.004330 | 2.0 | 8.880 | 2 | 9.081 | 9.040 | 7.518 | 2 |
| 2025-05-26T08:29:00 | 55.808237 | 17.009594 | 2.0 | 8.811 | 2 | 9.066 | 9.033 | 7.506 | 2 |
| 2025-05-26T08:30:00 | 55.808982 | 17.014855 | 2.0 | 8.880 | 2 | 9.043 | 9.008 | 7.490 | 2 |
| 2025-05-26T08:31:00 | 55.809704 | 17.020127 | 2.0 | 8.856 | 2 | 9.048 | 9.037 | 7.489 | 2 |
| 2025-05-26T08:32:00 | 55.810427 | 17.025403 | 2.0 | 8.847 | 2 | 9.046 | 9.024 | 7.490 | 2 |
| 2025-05-26T08:33:00 | 55.811169 | 17.030657 | 2.0 | 8.855 | 2 | 9.049 | 9.015 | 7.494 | 2 |
| 2025-05-26T08:34:00 | 55.811906 | 17.035901 | 2.0 | 8.898 | 2 | 9.057 | 9.032 | 7.498 | 2 |
| 2025-05-26T08:35:00 | 55.812630 | 17.041145 | 2.0 | 8.910 | 2 | 9.069 | 9.070 | 7.501 | 2 |
| 2025-05-26T08:36:00 | 55.813392 | 17.046398 | 2.0 | 8.927 | 2 | 9.076 | 9.082 | 7.504 | 2 |
| 2025-05-26T08:37:00 | 55.814120 | 17.051673 | 2.0 | 8.924 | 2 | 9.083 | 9.094 | 7.508 | 2 |
| 2025-05-26T08:38:00 | 55.814862 | 17.056951 | 2.0 | 8.919 | 2 | 9.088 | 9.090 | 7.513 | 2 |
| 2025-05-26T08:39:00 | 55.815607 | 17.062210 | 2.0 | 8.900 | 2 | 9.091 | 9.081 | 7.518 | 2 |
| 2025-05-26T08:40:00 | 55.816365 | 17.067459 | 2.0 | 8.884 | 2 | 9.091 | 9.063 | 7.522 | 2 |
| 2025-05-26T08:41:00 | 55.817071 | 17.072719 | 2.0 | 8.869 | 2 | 9.090 | 9.049 | 7.524 | 2 |
| 2025-05-26T08:42:00 | 55.817833 | 17.077956 | 2.0 | 8.868 | 2 | 9.090 | 9.034 | 7.527 | 2 |
| 2025-05-26T08:43:00 | 55.818527 | 17.083233 | 2.0 | 8.872 | 2 | 9.095 | 9.038 | 7.530 | 2 |
| 2025-05-26T08:44:00 | 55.819289 | 17.088484 | 2.0 | 8.895 | 2 | 9.100 | 9.042 | 7.534 | 2 |
| 2025-05-26T08:45:00 | 55.820016 | 17.093746 | 2.0 | 8.921 | 2 | 9.110 | 9.067 | 7.538 | 2 |
| 2025-05-26T08:46:00 | 55.820758 | 17.098997 | 2.0 | 8.940 | 2 | 9.122 | 9.092 | 7.543 | 2 |
| 2025-05-26T08:47:00 | 55.821503 | 17.104259 | 2.0 | 8.960 | 2 | 9.133 | 9.112 | 7.549 | 2 |
| 2025-05-26T08:48:00 | 55.822232 | 17.109545 | 2.0 | 8.985 | 2 | 9.141 | 9.132 | 7.552 | 2 |
| 2025-05-26T08:49:00 | 55.822972 | 17.114811 | 2.0 | 8.993 | 2 | 9.156 | 9.153 | 7.560 | 2 |
| 2025-05-26T08:50:00 | 55.823730 | 17.120080 | 2.0 | 8.939 | 2 | 9.162 | 9.146 | 7.567 | 2 |
| 2025-05-26T08:51:00 | 55.824453 | 17.125352 | 2.0 | 8.943 | 2 | 9.114 | 9.110 | 7.532 | 2 |
| 2025-05-26T08:52:00 | 55.825191 | 17.130609 | 2.0 | 8.926 | 2 | 9.116 | 9.108 | 7.534 | 2 |
| 2025-05-26T08:53:00 | 55.825926 | 17.135823 | 2.0 | 8.931 | 2 | 9.112 | 9.098 | 7.533 | 2 |
| 2025-05-26T08:54:00 | 55.826615 | 17.141010 | 2.0 | 8.921 | 2 | 9.101 | 9.098 | 7.523 | 2 |
| 2025-05-26T08:55:00 | 55.827326 | 17.146255 | 2.0 | 8.920 | 2 | 9.088 | 9.090 | 7.513 | 2 |
| 2025-05-26T08:56:00 | 55.828096 | 17.151545 | 2.0 | 8.931 | 2 | 9.119 | 9.094 | 7.540 | 2 |
| 2025-05-26T08:57:00 | 55.828857 | 17.156849 | 2.0 | 8.924 | 2 | 9.121 | 9.096 | 7.541 | 2 |
| 2025-05-26T08:58:00 | 55.829615 | 17.162113 | 2.0 | 8.926 | 2 | 9.145 | 9.093 | 7.563 | 2 |
| 2025-05-26T08:59:00 | 55.830356 | 17.167363 | 2.0 | 8.925 | 2 | 9.149 | 9.093 | 7.567 | 2 |
| 2025-05-26T09:00:00 | 55.831071 | 17.172629 | 2.0 | 8.932 | 2 | 9.151 | 9.092 | 7.569 | 2 |
| 2025-05-26T09:01:00 | 55.831817 | 17.177882 | 2.0 | 8.925 | 2 | 9.154 | 9.096 | 7.571 | 2 |
| 2025-05-26T09:02:00 | 55.832558 | 17.183136 | 2.0 | 8.921 | 2 | 9.157 | 9.094 | 7.574 | 2 |
| 2025-05-26T09:03:00 | 55.833246 | 17.188384 | 2.0 | 8.929 | 2 | 9.159 | 9.092 | 7.576 | 2 |
| 2025-05-26T09:04:00 | 55.833976 | 17.193585 | 2.0 | 8.912 | 2 | 9.163 | 9.092 | 7.580 | 2 |
| 2025-05-26T09:05:00 | 55.834679 | 17.198831 | 2.0 | 8.905 | 2 | 9.164 | 9.078 | 7.583 | 2 |
| 2025-05-26T09:06:00 | 55.835422 | 17.204090 | 2.0 | 8.897 | 2 | 9.164 | 9.071 | 7.585 | 2 |
| 2025-05-26T09:07:00 | 55.836174 | 17.209351 | 2.0 | 8.893 | 2 | 9.171 | 9.065 | 7.592 | 2 |
| 2025-05-26T09:08:00 | 55.836919 | 17.214576 | 2.0 | 8.878 | 2 | 9.177 | 9.056 | 7.600 | 2 |
| 2025-05-26T09:09:00 | 55.837665 | 17.219823 | 2.0 | 8.880 | 2 | 9.182 | 9.048 | 7.606 | 2 |
| 2025-05-26T09:10:00 | 55.838416 | 17.225102 | 2.0 | 8.862 | 2 | 9.187 | 9.046 | 7.611 | 2 |
| 2025-05-26T09:11:00 | 55.839142 | 17.230341 | 2.0 | 8.850 | 2 | 9.191 | 9.029 | 7.618 | 2 |
| 2025-05-26T09:12:00 | 55.839885 | 17.235582 | 2.0 | 8.825 | 2 | 9.194 | 9.021 | 7.622 | 2 |
| 2025-05-26T09:13:00 | 55.840631 | 17.240813 | 2.0 | 8.827 | 2 | 9.193 | 8.996 | 7.627 | 2 |
| 2025-05-26T09:14:00 | 55.841351 | 17.246066 | 2.0 | 8.814 | 2 | 9.194 | 8.993 | 7.628 | 2 |
| 2025-05-26T09:15:00 | 55.842086 | 17.251308 | 2.0 | 8.816 | 2 | 9.193 | 8.985 | 7.629 | 2 |
| 2025-05-26T09:16:00 | 55.842830 | 17.256521 | 2.0 | 8.812 | 2 | 9.194 | 8.986 | 7.630 | 2 |
| 2025-05-26T09:17:00 | 55.843573 | 17.261790 | 2.0 | 8.792 | 2 | 9.196 | 8.978 | 7.633 | 2 |
| 2025-05-26T09:18:00 | 55.844323 | 17.267075 | 2.0 | 8.794 | 2 | 9.195 | 8.958 | 7.637 | 2 |
| 2025-05-26T09:19:00 | 55.845078 | 17.272348 | 2.0 | 8.773 | 2 | 9.197 | 8.958 | 7.638 | 2 |
| 2025-05-26T09:20:00 | 55.845827 | 17.277569 | 2.0 | 8.745 | 2 | 9.194 | 8.940 | 7.640 | 2 |
| 2025-05-26T09:21:00 | 55.846550 | 17.282795 | 2.0 | 8.730 | 2 | 9.188 | 8.913 | 7.640 | 2 |
| 2025-05-26T09:22:00 | 55.847222 | 17.287999 | 2.0 | 8.733 | 2 | 9.186 | 8.905 | 7.640 | 2 |
| 2025-05-26T09:23:00 | 55.847986 | 17.293209 | 2.0 | 8.690 | 2 | 9.185 | 8.891 | 7.642 | 2 |
| 2025-05-26T09:24:00 | 55.848715 | 17.298473 | 2.0 | 8.666 | 2 | 9.180 | 8.855 | 7.645 | 2 |
| 2025-05-26T09:25:00 | 55.849399 | 17.303677 | 2.0 | 8.598 | 2 | 9.176 | 8.834 | 7.646 | 2 |
| 2025-05-26T09:26:00 | 55.850167 | 17.308883 | 2.0 | 8.517 | 2 | 9.156 | 8.753 | 7.646 | 2 |
| 2025-05-26T09:27:00 | 55.850905 | 17.314099 | 2.0 | 8.438 | 2 | 9.123 | 8.672 | 7.633 | 2 |
| 2025-05-26T09:28:00 | 55.851634 | 17.319327 | 2.0 | 8.506 | 2 | 9.095 | 8.629 | 7.618 | 2 |
| 2025-05-26T09:29:00 | 55.852342 | 17.324556 | 2.0 | 8.536 | 2 | 9.101 | 8.682 | 7.612 | 2 |
| 2025-05-26T09:30:00 | 55.853071 | 17.329789 | 2.0 | 8.536 | 2 | 9.109 | 8.712 | 7.612 | 2 |
| 2025-05-26T09:31:00 | 55.853806 | 17.334982 | 2.0 | 8.477 | 2 | 9.098 | 8.696 | 7.606 | 2 |
| 2025-05-26T09:32:00 | 55.854587 | 17.340134 | 2.0 | 8.447 | 2 | 9.072 | 8.646 | 7.593 | 2 |
| 2025-05-26T09:33:00 | 55.855308 | 17.345319 | 2.0 | 8.441 | 2 | 9.057 | 8.624 | 7.584 | 2 |
| 2025-05-26T09:34:00 | 55.855998 | 17.350497 | 2.0 | 8.406 | 2 | 9.042 | 8.606 | 7.575 | 2 |
| 2025-05-26T09:35:00 | 55.856702 | 17.355671 | 2.0 | 8.417 | 2 | 9.029 | 8.582 | 7.568 | 2 |
| 2025-05-26T09:36:00 | 55.857394 | 17.360905 | 2.0 | 8.411 | 2 | 9.028 | 8.584 | 7.567 | 2 |
| 2025-05-26T09:37:00 | 55.858129 | 17.366096 | 2.0 | 8.431 | 2 | 9.028 | 8.583 | 7.567 | 2 |
| 2025-05-26T09:38:00 | 55.858862 | 17.371277 | 2.0 | 8.435 | 2 | 9.032 | 8.601 | 7.567 | 2 |
| 2025-05-26T09:39:00 | 55.859584 | 17.376452 | 2.0 | 8.440 | 2 | 9.035 | 8.607 | 7.568 | 2 |
| 2025-05-26T09:40:00 | 55.860342 | 17.381611 | 2.0 | 8.436 | 2 | 9.038 | 8.613 | 7.570 | 2 |
| 2025-05-26T09:41:00 | 55.861071 | 17.386796 | 2.0 | 8.428 | 2 | 9.039 | 8.608 | 7.572 | 2 |
| 2025-05-26T09:42:00 | 55.861807 | 17.391991 | 2.0 | 8.409 | 2 | 9.037 | 8.596 | 7.572 | 2 |
| 2025-05-26T09:43:00 | 55.862535 | 17.397186 | 2.0 | 8.399 | 2 | 9.033 | 8.578 | 7.573 | 2 |
| 2025-05-26T09:44:00 | 55.863251 | 17.402369 | 2.0 | 8.424 | 2 | 9.031 | 8.573 | 7.572 | 2 |
| 2025-05-26T09:45:00 | 55.863985 | 17.407543 | 2.0 | 8.436 | 2 | 8.985 | 8.594 | 7.526 | 2 |
| 2025-05-26T09:46:00 | 55.864721 | 17.412755 | 2.0 | 8.464 | 2 | 8.996 | 8.613 | 7.532 | 2 |
| 2025-05-26T09:47:00 | 55.865480 | 17.417991 | 2.0 | 8.499 | 2 | 9.005 | 8.636 | 7.535 | 2 |
| 2025-05-26T09:48:00 | 55.866184 | 17.423190 | 2.0 | 8.539 | 2 | 9.002 | 8.674 | 7.524 | 2 |
| 2025-05-26T09:49:00 | 55.866937 | 17.428399 | 2.0 | 8.578 | 2 | 9.024 | 8.711 | 7.536 | 2 |
| 2025-05-26T09:50:00 | 55.867626 | 17.433574 | 2.0 | 8.609 | 2 | 9.054 | 8.751 | 7.555 | 2 |
| 2025-05-26T09:51:00 | 55.868349 | 17.438739 | 2.0 | 8.623 | 2 | 9.071 | 8.780 | 7.564 | 2 |
| 2025-05-26T09:52:00 | 55.869084 | 17.443902 | 2.0 | 8.620 | 2 | 9.073 | 8.787 | 7.564 | 2 |
| 2025-05-26T09:53:00 | 55.869835 | 17.449099 | 2.0 | 8.565 | 2 | 9.091 | 8.773 | 7.583 | 2 |
| 2025-05-26T09:54:00 | 55.870550 | 17.454309 | 2.0 | 8.515 | 2 | 9.093 | 8.725 | 7.595 | 2 |
| 2025-05-26T09:55:00 | 55.871302 | 17.459504 | 2.0 | 8.453 | 2 | 9.097 | 8.677 | 7.609 | 2 |
| 2025-05-26T09:56:00 | 55.872036 | 17.464681 | 2.0 | 8.417 | 2 | 9.087 | 8.618 | 7.613 | 2 |
| 2025-05-26T09:57:00 | 55.872784 | 17.469863 | 2.0 | 8.405 | 2 | 9.079 | 8.590 | 7.611 | 2 |
| 2025-05-26T09:58:00 | 55.873503 | 17.475016 | 2.0 | 8.255 | 2 | 9.062 | 8.547 | 7.605 | 2 |
| 2025-05-26T09:59:00 | 55.874208 | 17.480148 | 2.0 | 8.305 | 2 | 9.008 | 8.443 | 7.579 | 2 |
| 2025-05-26T10:00:00 | 55.874936 | 17.485316 | 2.0 | 8.366 | 2 | 9.011 | 8.490 | 7.571 | 2 |
| 2025-05-26T10:01:00 | 55.875701 | 17.490468 | 2.0 | 8.315 | 2 | 9.021 | 8.528 | 7.572 | 2 |
| 2025-05-26T10:02:00 | 55.876413 | 17.495636 | 2.0 | 8.277 | 2 | 9.002 | 8.486 | 7.564 | 2 |
| 2025-05-26T10:03:00 | 55.877151 | 17.500784 | 2.0 | 8.286 | 2 | 8.983 | 8.449 | 7.555 | 2 |
| 2025-05-26T10:04:00 | 55.877859 | 17.505918 | 2.0 | 8.303 | 2 | 8.981 | 8.460 | 7.551 | 2 |
| 2025-05-26T10:05:00 | 55.878576 | 17.511057 | 2.0 | 8.295 | 2 | 8.980 | 8.470 | 7.548 | 2 |
| 2025-05-26T10:06:00 | 55.879284 | 17.516220 | 2.0 | 8.318 | 2 | 8.946 | 8.469 | 7.517 | 2 |
| 2025-05-26T10:07:00 | 55.880015 | 17.521366 | 2.0 | 8.300 | 2 | 8.939 | 8.487 | 7.507 | 2 |
| 2025-05-26T10:08:00 | 55.880746 | 17.526528 | 2.0 | 8.316 | 2 | 8.941 | 8.476 | 7.511 | 2 |
| 2025-05-26T10:09:00 | 55.881477 | 17.531708 | 2.0 | 8.314 | 2 | 8.940 | 8.486 | 7.508 | 2 |
| 2025-05-26T10:10:00 | 55.882185 | 17.536838 | 2.0 | 8.301 | 2 | 8.956 | 8.481 | 7.524 | 2 |
| 2025-05-26T10:11:00 | 55.882913 | 17.542005 | 2.0 | 8.284 | 2 | 8.961 | 8.467 | 7.531 | 2 |
| 2025-05-26T10:12:00 | 55.883645 | 17.547168 | 2.0 | 8.298 | 2 | 8.954 | 8.462 | 7.526 | 2 |
| 2025-05-26T10:13:00 | 55.884369 | 17.552344 | 2.0 | 8.260 | 2 | 8.953 | 8.465 | 7.524 | 2 |
| 2025-05-26T10:14:00 | 55.885060 | 17.557513 | 2.0 | 8.266 | 2 | 8.943 | 8.437 | 7.521 | 2 |
| 2025-05-26T10:15:00 | 55.885793 | 17.562662 | 2.0 | 8.257 | 2 | 8.938 | 8.431 | 7.518 | 2 |
| 2025-05-26T10:16:00 | 55.886506 | 17.567810 | 2.0 | 8.254 | 2 | 8.935 | 8.426 | 7.516 | 2 |
| 2025-05-26T10:17:00 | 55.887232 | 17.572964 | 2.0 | 8.268 | 2 | 8.935 | 8.431 | 7.515 | 2 |
| 2025-05-26T10:18:00 | 55.887921 | 17.578160 | 2.0 | 8.277 | 2 | 8.938 | 8.441 | 7.516 | 2 |
| 2025-05-26T10:19:00 | 55.888696 | 17.583317 | 2.0 | 8.279 | 2 | 8.940 | 8.450 | 7.516 | 2 |
| 2025-05-26T10:20:00 | 55.889424 | 17.588496 | 2.0 | 8.258 | 2 | 8.940 | 8.444 | 7.517 | 2 |
| 2025-05-26T10:21:00 | 55.890142 | 17.593699 | 2.0 | 8.260 | 2 | 8.937 | 8.433 | 7.517 | 2 |
| 2025-05-26T10:22:00 | 55.890863 | 17.598904 | 2.0 | 8.273 | 2 | 8.937 | 8.430 | 7.517 | 2 |
| 2025-05-26T10:25:00 | 55.893053 | 17.614481 | 2.0 | 8.251 | 2 | 8.746 | 8.420 | 7.347 | 2 |
| 2025-05-26T10:26:00 | 55.893783 | 17.619687 | 2.0 | 8.255 | 2 | 8.779 | 8.420 | 7.377 | 2 |
| 2025-05-26T10:27:00 | 55.894534 | 17.624890 | 2.0 | 8.239 | 2 | 8.935 | 8.424 | 7.517 | 2 |
| 2025-05-26T10:28:00 | 55.895266 | 17.630122 | 2.0 | 8.237 | 2 | 8.932 | 8.407 | 7.518 | 2 |
| 2025-05-26T10:29:00 | 55.895988 | 17.635323 | 2.0 | 8.255 | 2 | 8.932 | 8.411 | 7.517 | 2 |
| 2025-05-26T10:30:00 | 55.896744 | 17.640505 | 2.0 | 8.279 | 2 | 8.921 | 8.431 | 7.503 | 2 |
| 2025-05-26T10:31:00 | 55.897624 | 17.645617 | 2.0 | 8.286 | 2 | 8.934 | 8.445 | 7.511 | 2 |
| 2025-05-26T10:32:00 | 55.898545 | 17.650723 | 2.0 | 8.295 | 2 | 8.931 | 8.454 | 7.507 | 2 |
| 2025-05-26T10:33:00 | 55.899398 | 17.655867 | 2.0 | 8.292 | 2 | 8.933 | 8.462 | 7.507 | 2 |
| 2025-05-26T10:34:00 | 55.900178 | 17.661094 | 2.0 | 8.289 | 2 | 8.940 | 8.458 | 7.514 | 2 |
| 2025-05-26T10:35:00 | 55.900900 | 17.666332 | 2.0 | 8.301 | 2 | 8.940 | 8.458 | 7.514 | 2 |
| 2025-05-26T10:36:00 | 55.901607 | 17.671593 | 2.0 | 8.311 | 2 | 8.942 | 8.470 | 7.513 | 2 |
| 2025-05-26T10:37:00 | 55.902376 | 17.676822 | 2.0 | 8.311 | 2 | 8.943 | 8.478 | 7.513 | 2 |
| 2025-05-26T10:38:00 | 55.903623 | 17.681722 | 2.0 | 8.306 | 2 | 8.942 | 8.478 | 7.512 | 2 |
| 2025-05-26T10:39:00 | 55.904794 | 17.686712 | 2.0 | 8.315 | 2 | 8.939 | 8.475 | 7.510 | 2 |
| 2025-05-26T10:40:00 | 55.905962 | 17.691696 | 2.0 | 8.345 | 2 | 8.942 | 8.492 | 7.509 | 2 |
| 2025-05-26T10:41:00 | 55.907169 | 17.696653 | 2.0 | 8.351 | 2 | 8.945 | 8.510 | 7.508 | 2 |
| 2025-05-26T10:42:00 | 55.908334 | 17.701648 | 2.0 | 8.335 | 2 | 8.946 | 8.513 | 7.508 | 2 |
| 2025-05-26T10:43:00 | 55.909507 | 17.706600 | 2.0 | 8.346 | 2 | 8.902 | 8.507 | 7.469 | 2 |
| 2025-05-26T10:44:00 | 55.910702 | 17.711556 | 2.0 | 8.352 | 2 | 8.897 | 8.519 | 7.462 | 2 |
| 2025-05-26T10:45:00 | 55.911916 | 17.716520 | 2.0 | 8.371 | 2 | 8.893 | 8.522 | 7.458 | 2 |
| 2025-05-26T10:46:00 | 55.913108 | 17.721486 | 2.0 | 8.393 | 2 | 8.893 | 8.548 | 7.453 | 2 |
| 2025-05-26T10:47:00 | 55.914315 | 17.726435 | 2.0 | 8.380 | 2 | 8.777 | 8.556 | 7.346 | 2 |
| 2025-05-26T10:48:00 | 55.915496 | 17.731420 | 2.0 | 8.399 | 2 | 8.952 | 8.550 | 7.505 | 2 |
| 2025-05-26T10:49:00 | 55.916708 | 17.736391 | 2.0 | 8.416 | 2 | 8.955 | 8.570 | 7.504 | 2 |
| 2025-05-26T10:50:00 | 55.917896 | 17.741388 | 2.0 | 8.414 | 2 | 8.958 | 8.579 | 7.505 | 2 |
| 2025-05-26T10:51:00 | 55.919081 | 17.746392 | 2.0 | 8.402 | 2 | 8.959 | 8.583 | 7.505 | 2 |
| 2025-05-26T10:52:00 | 55.920319 | 17.751349 | 2.0 | 8.384 | 2 | 8.956 | 8.566 | 7.506 | 2 |
| 2025-05-26T10:53:00 | 55.921489 | 17.756384 | 2.0 | 8.383 | 2 | 8.954 | 8.554 | 7.506 | 2 |
| 2025-05-26T10:54:00 | 55.922697 | 17.761381 | 2.0 | 8.393 | 2 | 8.937 | 8.557 | 7.490 | 2 |
| 2025-05-26T10:55:00 | 55.923926 | 17.766341 | 2.0 | 8.418 | 2 | 8.955 | 8.565 | 7.505 | 2 |
| 2025-05-26T10:56:00 | 55.925133 | 17.771331 | 2.0 | 8.439 | 2 | 8.961 | 8.582 | 7.507 | 2 |
| 2025-05-26T10:57:00 | 55.926315 | 17.776338 | 2.0 | 8.441 | 2 | 8.965 | 8.604 | 7.506 | 2 |
| 2025-05-26T10:58:00 | 55.927544 | 17.781324 | 2.0 | 8.452 | 2 | 8.968 | 8.611 | 7.507 | 2 |
| 2025-05-26T10:59:00 | 55.928732 | 17.786322 | 2.0 | 8.456 | 2 | 8.970 | 8.622 | 7.506 | 2 |
| 2025-05-26T11:00:00 | 55.929918 | 17.791304 | 2.0 | 8.471 | 2 | 8.973 | 8.627 | 7.508 | 2 |
| 2025-05-26T11:01:00 | 55.931103 | 17.796286 | 2.0 | 8.471 | 2 | 8.974 | 8.633 | 7.508 | 2 |
| 2025-05-26T11:02:00 | 55.932340 | 17.801268 | 2.0 | 8.434 | 2 | 8.974 | 8.629 | 7.508 | 2 |
| 2025-05-26T11:03:00 | 55.933538 | 17.806257 | 2.0 | 8.435 | 2 | 8.967 | 8.601 | 7.508 | 2 |
| 2025-05-26T11:04:00 | 55.934704 | 17.811280 | 2.0 | 8.461 | 2 | 8.968 | 8.610 | 7.507 | 2 |
| 2025-05-26T11:05:00 | 55.935952 | 17.816260 | 2.0 | 8.494 | 2 | 8.975 | 8.637 | 7.508 | 2 |
| 2025-05-26T11:06:00 | 55.937159 | 17.821242 | 2.0 | 8.491 | 2 | 8.900 | 8.660 | 7.435 | 2 |
| 2025-05-26T11:07:00 | 55.938346 | 17.826259 | 2.0 | 8.471 | 2 | 8.866 | 8.652 | 7.407 | 2 |
| 2025-05-26T11:08:00 | 55.939558 | 17.831253 | 2.0 | 8.461 | 2 | 8.849 | 8.637 | 7.394 | 2 |
| 2025-05-26T11:09:00 | 55.940782 | 17.836260 | 2.0 | 8.445 | 2 | 8.827 | 8.631 | 7.376 | 2 |
| 2025-05-26T11:10:00 | 55.941975 | 17.841302 | 2.0 | 8.444 | 2 | 8.826 | 8.614 | 7.378 | 2 |
| 2025-05-26T11:11:00 | 55.943190 | 17.846323 | 2.0 | 8.427 | 2 | 8.805 | 8.608 | 7.361 | 2 |
| 2025-05-26T11:12:00 | 55.944382 | 17.851348 | 2.0 | 8.442 | 2 | 8.843 | 8.602 | 7.396 | 2 |
| 2025-05-26T11:13:00 | 55.945572 | 17.856377 | 2.0 | 8.450 | 2 | 8.969 | 8.607 | 7.509 | 2 |
| 2025-05-26T11:14:00 | 55.946778 | 17.861376 | 2.0 | 8.445 | 2 | 8.953 | 8.613 | 7.493 | 2 |
| 2025-05-26T11:15:00 | 55.947993 | 17.866374 | 2.0 | 8.475 | 2 | 8.957 | 8.616 | 7.496 | 2 |
| 2025-05-26T11:16:00 | 55.949202 | 17.871361 | 2.0 | 8.509 | 2 | 8.967 | 8.643 | 7.499 | 2 |
| 2025-05-26T11:18:00 | 55.951639 | 17.881397 | 2.0 | 8.518 | 2 | 8.980 | 8.683 | 7.502 | 2 |
| 2025-05-26T11:19:00 | 55.952837 | 17.886428 | 2.0 | 8.499 | 2 | 8.989 | 8.677 | 7.512 | 2 |
| 2025-05-26T11:20:00 | 55.954039 | 17.891439 | 2.0 | 8.511 | 2 | 8.979 | 8.672 | 7.504 | 2 |
| 2025-05-26T11:21:00 | 55.955244 | 17.896452 | 2.0 | 8.528 | 2 | 8.990 | 8.680 | 7.512 | 2 |
| 2025-05-26T11:22:00 | 55.956418 | 17.901459 | 2.0 | 8.524 | 2 | 8.963 | 8.693 | 7.485 | 2 |
| 2025-05-26T11:23:00 | 55.957654 | 17.906398 | 2.0 | 8.532 | 2 | 8.962 | 8.699 | 7.483 | 2 |
| 2025-05-26T11:24:00 | 55.958820 | 17.911389 | 2.0 | 8.526 | 2 | 8.953 | 8.697 | 7.475 | 2 |
| 2025-05-26T11:25:00 | 55.960034 | 17.916371 | 2.0 | 8.540 | 2 | 8.930 | 8.693 | 7.455 | 2 |
| 2025-05-26T11:26:00 | 55.961228 | 17.921373 | 2.0 | 8.536 | 2 | 8.898 | 8.706 | 7.424 | 2 |
| 2025-05-26T11:27:00 | 55.962438 | 17.926367 | 2.0 | 8.551 | 2 | 8.953 | 8.713 | 7.472 | 2 |
| 2025-05-26T11:28:00 | 55.963660 | 17.931346 | 2.0 | 8.555 | 2 | 8.916 | 8.722 | 7.437 | 2 |
| 2025-05-26T11:29:00 | 55.964832 | 17.936352 | 2.0 | 8.552 | 2 | 8.908 | 8.720 | 7.430 | 2 |
| 2025-05-26T11:30:00 | 55.966062 | 17.941287 | 2.0 | 8.551 | 2 | 8.916 | 8.717 | 7.438 | 2 |
| 2025-05-26T11:31:00 | 55.967260 | 17.946292 | 2.0 | 8.542 | 2 | 9.007 | 8.715 | 7.520 | 2 |
| 2025-05-26T11:32:00 | 55.968444 | 17.951294 | 2.0 | 8.521 | 2 | 9.007 | 8.709 | 7.521 | 2 |
| 2025-05-26T11:33:00 | 55.969645 | 17.956304 | 2.0 | 8.491 | 2 | 9.004 | 8.681 | 7.524 | 2 |
| 2025-05-26T11:34:00 | 55.970862 | 17.961294 | 2.0 | 8.535 | 2 | 9.001 | 8.670 | 7.524 | 2 |
| 2025-05-26T11:35:00 | 55.972054 | 17.966295 | 2.0 | 8.537 | 2 | 9.008 | 8.701 | 7.524 | 2 |
| 2025-05-26T11:36:00 | 55.973268 | 17.971256 | 2.0 | 8.533 | 2 | 9.011 | 8.699 | 7.527 | 2 |
| 2025-05-26T11:37:00 | 55.974450 | 17.976236 | 2.0 | 8.558 | 2 | 9.012 | 8.703 | 7.527 | 2 |
| 2025-05-26T11:38:00 | 55.975655 | 17.981210 | 2.0 | 8.533 | 2 | 8.958 | 8.723 | 7.474 | 2 |
| 2025-05-26T11:39:00 | 55.976863 | 17.986180 | 2.0 | 8.536 | 2 | 8.911 | 8.701 | 7.437 | 2 |
| 2025-05-26T11:40:00 | 55.978037 | 17.991144 | 2.0 | 8.512 | 2 | 8.875 | 8.698 | 7.405 | 2 |
| 2025-05-26T11:41:00 | 55.979230 | 17.996094 | 2.0 | 8.500 | 2 | 8.882 | 8.680 | 7.415 | 2 |
| 2025-05-26T11:42:00 | 55.980431 | 18.001063 | 2.0 | 8.464 | 2 | 8.854 | 8.654 | 7.395 | 2 |
| 2025-05-26T11:43:00 | 55.981635 | 18.006003 | 2.0 | 8.504 | 2 | 8.830 | 8.642 | 7.376 | 2 |
| 2025-05-26T11:44:00 | 55.982809 | 18.010939 | 2.0 | 8.533 | 2 | 8.842 | 8.669 | 7.381 | 2 |
| 2025-05-26T11:45:00 | 55.983998 | 18.015859 | 2.0 | 8.599 | 2 | 8.891 | 8.711 | 7.417 | 2 |
| 2025-05-26T11:46:00 | 55.985197 | 18.020793 | 2.0 | 8.591 | 2 | 9.027 | 8.763 | 7.528 | 2 |
| 2025-05-26T11:47:00 | 55.986405 | 18.025728 | 2.0 | 8.432 | 2 | 9.017 | 8.714 | 7.529 | 2 |
| 2025-05-26T11:48:00 | 55.987564 | 18.030706 | 2.0 | 8.369 | 2 | 8.986 | 8.609 | 7.524 | 2 |
| 2025-05-26T11:49:00 | 55.988766 | 18.035627 | 2.0 | 8.328 | 2 | 8.959 | 8.521 | 7.518 | 2 |
| 2025-05-26T11:50:00 | 55.989926 | 18.040559 | 2.0 | 8.311 | 2 | 8.947 | 8.504 | 7.511 | 2 |
| 2025-05-26T11:51:00 | 55.991111 | 18.045461 | 2.0 | 8.271 | 2 | 8.936 | 8.467 | 7.509 | 2 |
| 2025-05-26T11:52:00 | 55.992267 | 18.050374 | 2.0 | 8.283 | 2 | 8.927 | 8.442 | 7.506 | 2 |
| 2025-05-26T11:53:00 | 55.993473 | 18.055239 | 2.0 | 8.383 | 2 | 8.934 | 8.474 | 7.505 | 2 |
| 2025-05-26T11:54:00 | 55.994609 | 18.060184 | 2.0 | 8.389 | 2 | 8.818 | 8.555 | 7.384 | 2 |
| 2025-05-26T11:55:00 | 55.995816 | 18.065095 | 2.0 | 8.369 | 2 | 8.962 | 8.555 | 7.513 | 2 |
| 2025-05-26T11:56:00 | 55.997029 | 18.069973 | 2.0 | 8.306 | 2 | 8.954 | 8.523 | 7.513 | 2 |
| 2025-05-26T11:57:00 | 55.998177 | 18.074875 | 2.0 | 8.299 | 2 | 8.936 | 8.476 | 7.507 | 2 |
| 2025-05-26T11:58:00 | 55.999369 | 18.079764 | 2.0 | 8.324 | 2 | 8.931 | 8.474 | 7.503 | 2 |
| 2025-05-26T11:59:00 | 56.000529 | 18.084671 | 2.0 | 8.328 | 2 | 8.932 | 8.491 | 7.500 | 2 |
| 2025-05-26T12:00:00 | 56.001698 | 18.089599 | 2.0 | 8.318 | 2 | 8.932 | 8.500 | 7.498 | 2 |
| 2025-05-26T12:01:00 | 56.002879 | 18.094513 | 2.0 | 8.311 | 2 | 8.926 | 8.479 | 7.497 | 2 |
| 2025-05-26T12:02:00 | 56.004034 | 18.099466 | 2.0 | 8.344 | 2 | 8.925 | 8.489 | 7.494 | 2 |
| 2025-05-26T12:03:00 | 56.005242 | 18.104372 | 2.0 | 8.380 | 2 | 8.882 | 8.516 | 7.449 | 2 |
| 2025-05-26T12:04:00 | 56.006441 | 18.109280 | 2.0 | 8.386 | 2 | 8.864 | 8.544 | 7.427 | 2 |
| 2025-05-26T12:05:00 | 56.007625 | 18.114209 | 2.0 | 8.379 | 2 | 8.853 | 8.553 | 7.416 | 2 |
| 2025-05-26T12:06:00 | 56.008828 | 18.119104 | 2.0 | 8.389 | 2 | 8.795 | 8.547 | 7.365 | 2 |
| 2025-05-26T12:07:00 | 56.009982 | 18.124035 | 2.0 | 8.389 | 2 | 8.857 | 8.550 | 7.420 | 2 |
| 2025-05-26T12:09:00 | 56.012351 | 18.133952 | 2.0 | 8.355 | 2 | 8.874 | 8.547 | 7.436 | 2 |
| 2025-05-26T12:10:00 | 56.013534 | 18.138860 | 2.0 | 8.338 | 2 | 8.937 | 8.518 | 7.499 | 2 |
| 2025-05-26T12:11:00 | 56.014726 | 18.143764 | 2.0 | 8.339 | 2 | 8.932 | 8.506 | 7.497 | 2 |
| 2025-05-26T12:12:00 | 56.015893 | 18.148678 | 2.0 | 8.317 | 2 | 8.905 | 8.505 | 7.473 | 2 |
| 2025-05-26T12:13:00 | 56.017053 | 18.153540 | 2.0 | 8.304 | 2 | 8.885 | 8.482 | 7.459 | 2 |
| 2025-05-26T12:14:00 | 56.018260 | 18.158375 | 2.0 | 8.288 | 2 | 8.844 | 8.471 | 7.425 | 2 |
| 2025-05-26T12:17:00 | 56.021785 | 18.173080 | 2.0 | 8.366 | 2 | 8.763 | 8.506 | 7.344 | 2 |
| 2025-05-26T12:18:00 | 56.022963 | 18.177941 | 2.0 | 8.387 | 2 | 8.912 | 8.534 | 7.473 | 2 |
| 2025-05-26T12:19:00 | 56.024130 | 18.182814 | 2.0 | 8.366 | 2 | 8.915 | 8.546 | 7.473 | 2 |
| 2025-05-26T12:20:00 | 56.025301 | 18.187717 | 2.0 | 8.333 | 2 | 8.911 | 8.533 | 7.472 | 2 |
| 2025-05-26T12:21:00 | 56.026484 | 18.192618 | 2.0 | 8.330 | 2 | 8.902 | 8.500 | 7.471 | 2 |
| 2025-05-26T12:22:00 | 56.027668 | 18.197537 | 2.0 | 8.304 | 2 | 8.899 | 8.495 | 7.469 | 2 |
| 2025-05-26T12:23:00 | 56.028870 | 18.202412 | 2.0 | 8.287 | 2 | 8.802 | 8.476 | 7.386 | 2 |
| 2025-05-26T12:27:00 | 56.033585 | 18.222184 | 2.0 | 8.275 | 2 | 8.888 | 8.464 | 7.466 | 2 |
| 2025-05-26T12:28:00 | 56.034762 | 18.227137 | 2.0 | 8.267 | 2 | 8.884 | 8.440 | 7.467 | 2 |
| 2025-05-26T12:29:00 | 56.035936 | 18.232087 | 2.0 | 8.299 | 2 | 8.884 | 8.440 | 7.467 | 2 |
| 2025-05-26T12:30:00 | 56.037124 | 18.237044 | 2.0 | 8.318 | 2 | 8.893 | 8.467 | 7.470 | 2 |
| 2025-05-26T12:31:00 | 56.038328 | 18.242012 | 2.0 | 8.335 | 2 | 8.899 | 8.491 | 7.470 | 2 |
| 2025-05-26T12:32:00 | 56.039517 | 18.246962 | 2.0 | 8.319 | 2 | 8.903 | 8.497 | 7.472 | 2 |
| 2025-05-26T12:33:00 | 56.040722 | 18.251923 | 2.0 | 8.312 | 2 | 8.901 | 8.485 | 7.473 | 2 |
| 2025-05-26T12:34:00 | 56.041933 | 18.256896 | 2.0 | 8.333 | 2 | 8.899 | 8.480 | 7.472 | 2 |
| 2025-05-26T12:35:00 | 56.043104 | 18.261848 | 2.0 | 8.335 | 2 | 8.905 | 8.499 | 7.474 | 2 |
| 2025-05-26T12:36:00 | 56.044277 | 18.266801 | 2.0 | 8.322 | 2 | 8.906 | 8.499 | 7.475 | 2 |
| 2025-05-26T12:37:00 | 56.045484 | 18.271712 | 2.0 | 8.349 | 2 | 8.904 | 8.491 | 7.475 | 2 |
| 2025-05-26T12:38:00 | 56.046641 | 18.276672 | 2.0 | 8.361 | 2 | 8.909 | 8.518 | 7.473 | 2 |
| 2025-05-26T12:39:00 | 56.047852 | 18.281608 | 2.0 | 8.370 | 2 | 8.913 | 8.532 | 7.474 | 2 |
| 2025-05-26T12:40:00 | 56.049053 | 18.286590 | 2.0 | 8.385 | 2 | 8.915 | 8.541 | 7.474 | 2 |
| 2025-05-26T12:41:00 | 56.050241 | 18.291570 | 2.0 | 8.400 | 2 | 8.913 | 8.554 | 7.469 | 2 |
| 2025-05-26T12:42:00 | 56.051438 | 18.296534 | 2.0 | 8.402 | 2 | 8.918 | 8.563 | 7.472 | 2 |
| 2025-05-26T12:43:00 | 56.052630 | 18.301476 | 2.0 | 8.434 | 2 | 8.922 | 8.577 | 7.473 | 2 |
| 2025-05-26T12:44:00 | 56.053812 | 18.306417 | 2.0 | 8.445 | 2 | 8.927 | 8.601 | 7.472 | 2 |
| 2025-05-26T12:45:00 | 56.054998 | 18.311381 | 2.0 | 8.464 | 2 | 8.792 | 8.618 | 7.347 | 2 |
| 2025-05-26T12:46:00 | 56.056196 | 18.316339 | 2.0 | 8.484 | 2 | 8.830 | 8.635 | 7.378 | 2 |
| 2025-05-26T12:50:00 | 56.060934 | 18.336219 | 2.0 | 8.548 | 2 | 8.842 | 8.699 | 7.375 | 2 |
| 2025-05-26T12:51:00 | 56.062161 | 18.341189 | 2.0 | 8.545 | 2 | 8.901 | 8.711 | 7.426 | 2 |
| 2025-05-26T12:52:00 | 56.063335 | 18.346180 | 2.0 | 8.546 | 2 | 8.875 | 8.709 | 7.403 | 2 |
| 2025-05-26T12:53:00 | 56.064517 | 18.351178 | 2.0 | 8.577 | 2 | 8.909 | 8.724 | 7.430 | 2 |
| 2025-05-26T12:55:00 | 56.066913 | 18.361051 | 2.0 | 8.615 | 2 | 8.826 | 8.747 | 7.351 | 2 |
| 2025-05-26T12:57:00 | 56.069335 | 18.370969 | 2.0 | 8.649 | 2 | 8.953 | 8.800 | 7.454 | 2 |
| 2025-05-26T12:58:00 | 56.070482 | 18.375955 | 2.0 | 8.644 | 2 | 9.023 | 8.812 | 7.514 | 2 |
| 2025-05-26T12:59:00 | 56.071692 | 18.380904 | 2.0 | 8.638 | 2 | 9.028 | 8.809 | 7.519 | 2 |
| 2025-05-26T13:00:00 | 56.072885 | 18.385831 | 2.0 | 8.608 | 2 | 9.030 | 8.795 | 7.524 | 2 |
| 2025-05-26T13:01:00 | 56.074084 | 18.390797 | 2.0 | 8.588 | 2 | 9.028 | 8.772 | 7.527 | 2 |
| 2025-05-26T13:02:00 | 56.075259 | 18.395804 | 2.0 | 8.525 | 2 | 9.024 | 8.743 | 7.529 | 2 |
| 2025-05-26T13:03:00 | 56.076440 | 18.400785 | 2.0 | 8.453 | 2 | 9.010 | 8.679 | 7.530 | 2 |
| 2025-05-26T13:04:00 | 56.077617 | 18.405741 | 2.0 | 8.384 | 2 | 8.991 | 8.608 | 7.528 | 2 |
| 2025-05-26T13:05:00 | 56.078865 | 18.410679 | 2.0 | 8.269 | 2 | 8.971 | 8.542 | 7.524 | 2 |
| 2025-05-26T13:06:00 | 56.080072 | 18.415615 | 2.0 | 8.189 | 2 | 8.938 | 8.423 | 7.520 | 2 |
| 2025-05-26T13:07:00 | 56.081296 | 18.420533 | 2.0 | 8.170 | 2 | 8.879 | 8.349 | 7.482 | 2 |
| 2025-05-26T13:08:00 | 56.082526 | 18.425462 | 2.0 | 8.191 | 2 | 8.843 | 8.344 | 7.450 | 2 |
| 2025-05-26T13:09:00 | 56.083738 | 18.430394 | 2.0 | 8.228 | 2 | 8.847 | 8.370 | 7.449 | 2 |
| 2025-05-26T13:10:00 | 56.084974 | 18.435281 | 2.0 | 8.258 | 2 | 8.836 | 8.406 | 7.431 | 2 |
| 2025-05-26T13:12:00 | 56.087713 | 18.444776 | 2.0 | 8.290 | 2 | 8.919 | 8.453 | 7.496 | 2 |
| 2025-05-26T13:13:00 | 56.089296 | 18.449316 | 2.0 | 8.302 | 2 | 8.917 | 8.456 | 7.494 | 2 |
| 2025-05-26T13:14:00 | 56.091261 | 18.453190 | 2.0 | 8.308 | 2 | 8.918 | 8.465 | 7.493 | 2 |
| 2025-05-26T13:15:00 | 56.093161 | 18.457118 | 2.0 | 8.338 | 2 | 8.920 | 8.476 | 7.492 | 2 |
| 2025-05-26T13:16:00 | 56.095096 | 18.460977 | 2.0 | 8.370 | 2 | 8.922 | 8.515 | 7.486 | 2 |
| 2025-05-26T13:17:00 | 56.096716 | 18.464181 | 2.0 | 8.367 | 2 | 8.923 | 8.533 | 7.483 | 2 |
| 2025-05-26T13:18:00 | 56.097968 | 18.466657 | 2.0 | 8.382 | 2 | 8.933 | 8.537 | 7.491 | 2 |
| 2025-05-26T13:19:00 | 56.098996 | 18.469027 | 2.0 | 8.370 | 2 | 8.927 | 8.539 | 7.485 | 2 |
| 2025-05-26T13:20:00 | 56.100050 | 18.471355 | 2.0 | 8.377 | 2 | 8.926 | 8.534 | 7.485 | 2 |
| 2025-05-26T13:21:00 | 56.101157 | 18.473594 | 2.0 | 8.363 | 2 | 8.933 | 8.534 | 7.492 | 2 |
| 2025-05-26T13:22:00 | 56.102264 | 18.475819 | 2.0 | 8.365 | 2 | 8.926 | 8.525 | 7.487 | 2 |
| 2025-05-26T13:25:00 | 56.102539 | 18.480170 | 2.0 | 8.343 | 2 | 8.914 | 8.510 | 7.480 | 2 |
| 2025-05-26T13:26:00 | 56.102339 | 18.480360 | 2.0 | 8.375 | 2 | 8.845 | 8.520 | 7.415 | 2 |
| 2025-05-26T13:27:00 | 56.102199 | 18.480546 | 2.0 | 8.373 | 2 | 8.818 | 8.537 | 7.387 | 2 |
| 2025-05-26T13:28:00 | 56.102071 | 18.480633 | 2.0 | 8.380 | 2 | 8.929 | 8.536 | 7.488 | 2 |
| 2025-05-26T13:29:00 | 56.102006 | 18.480686 | 2.0 | 8.387 | 2 | 8.934 | 8.542 | 7.491 | 2 |
| 2025-05-26T13:30:00 | 56.102004 | 18.480745 | 2.0 | 8.397 | 2 | 8.937 | 8.555 | 7.491 | 2 |
| 2025-05-26T13:31:00 | 56.102035 | 18.480777 | 2.0 | 8.380 | 2 | 8.938 | 8.558 | 7.491 | 2 |
| 2025-05-26T13:32:00 | 56.102032 | 18.480679 | 2.0 | 8.393 | 2 | 8.935 | 8.546 | 7.491 | 2 |
| 2025-05-26T13:33:00 | 56.102000 | 18.480528 | 2.0 | 8.408 | 2 | 8.939 | 8.562 | 7.491 | 2 |
| 2025-05-26T13:34:00 | 56.101964 | 18.480373 | 2.0 | 8.388 | 2 | 8.941 | 8.570 | 7.491 | 2 |
| 2025-05-26T13:35:00 | 56.101976 | 18.480179 | 2.0 | 8.383 | 2 | 8.938 | 8.553 | 7.492 | 2 |
| 2025-05-26T13:36:00 | 56.102054 | 18.480075 | 2.0 | 8.365 | 2 | 8.935 | 8.538 | 7.493 | 2 |
| 2025-05-26T13:37:00 | 56.102219 | 18.480049 | 2.0 | 8.377 | 2 | 8.933 | 8.535 | 7.491 | 2 |
| 2025-05-26T13:38:00 | 56.102356 | 18.480004 | 2.0 | 8.362 | 2 | 8.934 | 8.538 | 7.492 | 2 |
| 2025-05-26T13:39:00 | 56.102369 | 18.479861 | 2.0 | 8.304 | 2 | 8.929 | 8.512 | 7.493 | 2 |
| 2025-05-26T13:40:00 | 56.102327 | 18.479787 | 2.0 | 8.278 | 2 | 8.916 | 8.469 | 7.490 | 2 |
| 2025-05-26T13:41:00 | 56.102262 | 18.479739 | 2.0 | 8.288 | 2 | 8.913 | 8.445 | 7.492 | 2 |
| 2025-05-26T13:42:00 | 56.102209 | 18.479701 | 2.0 | 8.352 | 2 | 8.917 | 8.473 | 7.490 | 2 |
| 2025-05-26T13:43:00 | 56.102195 | 18.479684 | 2.0 | 8.376 | 2 | 8.928 | 8.518 | 7.491 | 2 |
| 2025-05-26T13:44:00 | 56.102168 | 18.479651 | 2.0 | 8.382 | 2 | 8.934 | 8.539 | 7.491 | 2 |
| 2025-05-26T13:45:00 | 56.102155 | 18.479630 | 2.0 | 8.370 | 2 | 8.935 | 8.545 | 7.491 | 2 |
| 2025-05-26T13:46:00 | 56.102142 | 18.479625 | 2.0 | 8.354 | 2 | 8.932 | 8.530 | 7.492 | 2 |
| 2025-05-26T13:47:00 | 56.102131 | 18.479625 | 2.0 | 8.376 | 2 | 8.930 | 8.526 | 7.491 | 2 |
| 2025-05-26T13:48:00 | 56.102116 | 18.479623 | 2.0 | 8.362 | 2 | 8.932 | 8.532 | 7.491 | 2 |
| 2025-05-26T13:49:00 | 56.102099 | 18.479613 | 2.0 | 8.373 | 2 | 8.931 | 8.530 | 7.491 | 2 |
| 2025-05-26T13:50:00 | 56.102055 | 18.479572 | 2.0 | 8.365 | 2 | 8.932 | 8.531 | 7.491 | 2 |
| 2025-05-26T13:51:00 | 56.102052 | 18.479568 | 2.0 | 8.374 | 2 | 8.932 | 8.533 | 7.491 | 2 |
| 2025-05-26T13:52:00 | 56.102056 | 18.479572 | 2.0 | 8.376 | 2 | 8.934 | 8.540 | 7.491 | 2 |
| 2025-05-26T13:53:00 | 56.102056 | 18.479572 | 2.0 | 8.354 | 2 | 8.933 | 8.536 | 7.491 | 2 |
| 2025-05-26T13:54:00 | 56.102051 | 18.479570 | 2.0 | 8.364 | 2 | 8.929 | 8.521 | 7.491 | 2 |
| 2025-05-26T13:55:00 | 56.102043 | 18.479568 | 2.0 | 8.342 | 2 | 8.930 | 8.523 | 7.491 | 2 |
| 2025-05-26T13:56:00 | 56.102035 | 18.479568 | 2.0 | 8.355 | 2 | 8.927 | 8.510 | 7.491 | 2 |
| 2025-05-26T13:57:00 | 56.102027 | 18.479553 | 2.0 | 8.375 | 2 | 8.930 | 8.526 | 7.491 | 2 |
| 2025-05-26T13:58:00 | 56.102019 | 18.479557 | 2.0 | 8.357 | 2 | 8.932 | 8.533 | 7.491 | 2 |
| 2025-05-26T13:59:00 | 56.102015 | 18.479571 | 2.0 | 8.366 | 2 | 8.930 | 8.526 | 7.491 | 2 |
| 2025-05-26T14:00:00 | 56.101955 | 18.479585 | 2.0 | 8.371 | 2 | 8.933 | 8.536 | 7.491 | 2 |
| 2025-05-26T14:01:00 | 56.101943 | 18.479568 | 2.0 | 8.340 | 2 | 8.933 | 8.533 | 7.492 | 2 |
| 2025-05-26T14:02:00 | 56.101946 | 18.479560 | 2.0 | 8.328 | 2 | 8.926 | 8.501 | 7.492 | 2 |
| 2025-05-26T14:03:00 | 56.101946 | 18.479556 | 2.0 | 8.339 | 2 | 8.925 | 8.498 | 7.492 | 2 |
| 2025-05-26T14:04:00 | 56.101922 | 18.479484 | 2.0 | 8.369 | 2 | 8.928 | 8.514 | 7.491 | 2 |
| 2025-05-26T14:05:00 | 56.101917 | 18.479468 | 2.0 | 8.364 | 2 | 8.933 | 8.531 | 7.492 | 2 |
| 2025-05-26T14:06:00 | 56.101906 | 18.479477 | 2.0 | 8.367 | 2 | 8.933 | 8.534 | 7.492 | 2 |
| 2025-05-26T14:07:00 | 56.101897 | 18.479497 | 2.0 | 8.352 | 2 | 8.931 | 8.526 | 7.492 | 2 |
| 2025-05-26T14:08:00 | 56.101888 | 18.479549 | 2.0 | 8.353 | 2 | 8.930 | 8.521 | 7.492 | 2 |
| 2025-05-26T14:09:00 | 56.101869 | 18.479584 | 2.0 | 8.368 | 2 | 8.928 | 8.517 | 7.491 | 2 |
| 2025-05-26T14:10:00 | 56.101849 | 18.479594 | 2.0 | 8.366 | 2 | 8.882 | 8.533 | 7.446 | 2 |
| 2025-05-26T14:11:00 | 56.101836 | 18.479596 | 2.0 | 8.355 | 2 | 8.839 | 8.531 | 7.407 | 2 |
| 2025-05-26T14:12:00 | 56.101798 | 18.479612 | 2.0 | 8.363 | 2 | 8.783 | 8.519 | 7.360 | 2 |
| 2025-05-26T14:13:00 | 56.101774 | 18.479601 | 2.0 | 8.378 | 2 | 8.808 | 8.531 | 7.380 | 2 |
| 2025-05-26T14:14:00 | 56.101766 | 18.479623 | 2.0 | 8.365 | 2 | 8.935 | 8.541 | 7.492 | 2 |
| 2025-05-26T14:15:00 | 56.101800 | 18.479671 | 2.0 | 8.348 | 2 | 8.889 | 8.527 | 7.453 | 2 |
| 2025-05-26T14:16:00 | 56.101835 | 18.479648 | 2.0 | 8.361 | 2 | 8.930 | 8.519 | 7.492 | 2 |
| 2025-05-26T14:17:00 | 56.101867 | 18.479656 | 2.0 | 8.375 | 2 | 8.931 | 8.527 | 7.491 | 2 |
| 2025-05-26T14:18:00 | 56.101896 | 18.479679 | 2.0 | 8.383 | 2 | 8.935 | 8.544 | 7.491 | 2 |
| 2025-05-26T14:19:00 | 56.101918 | 18.479691 | 2.0 | 8.375 | 2 | 8.936 | 8.547 | 7.492 | 2 |
| 2025-05-26T14:20:00 | 56.101925 | 18.479685 | 2.0 | 8.363 | 2 | 8.934 | 8.538 | 7.492 | 2 |
| 2025-05-26T14:21:00 | 56.101919 | 18.479696 | 2.0 | 8.362 | 2 | 8.932 | 8.530 | 7.492 | 2 |
| 2025-05-26T14:22:00 | 56.101919 | 18.479707 | 2.0 | 8.362 | 2 | 8.931 | 8.528 | 7.491 | 2 |
| 2025-05-26T14:23:00 | 56.101928 | 18.479717 | 2.0 | 8.354 | 2 | 8.931 | 8.527 | 7.491 | 2 |
| 2025-05-26T14:24:00 | 56.101952 | 18.479760 | 2.0 | 8.357 | 2 | 8.929 | 8.521 | 7.491 | 2 |
| 2025-05-26T14:25:00 | 56.101976 | 18.479769 | 2.0 | 8.367 | 2 | 8.926 | 8.522 | 7.488 | 2 |
| 2025-05-26T14:26:00 | 56.101992 | 18.479791 | 2.0 | 8.375 | 2 | 8.913 | 8.531 | 7.474 | 2 |
| 2025-05-26T14:27:00 | 56.101992 | 18.479781 | 2.0 | 8.364 | 2 | 8.908 | 8.538 | 7.468 | 2 |
| 2025-05-26T14:28:00 | 56.101988 | 18.479782 | 2.0 | 8.352 | 2 | 8.918 | 8.524 | 7.480 | 2 |
| 2025-05-26T14:29:00 | 56.101997 | 18.479775 | 2.0 | 8.355 | 2 | 8.930 | 8.520 | 7.492 | 2 |
| 2025-05-26T14:30:00 | 56.102001 | 18.479762 | 2.0 | 8.358 | 2 | 8.931 | 8.523 | 7.492 | 2 |
| 2025-05-26T14:31:00 | 56.101996 | 18.479772 | 2.0 | 8.336 | 2 | 8.930 | 8.518 | 7.492 | 2 |
| 2025-05-26T14:32:00 | 56.101999 | 18.479787 | 2.0 | 8.339 | 2 | 8.927 | 8.503 | 7.493 | 2 |
| 2025-05-26T14:33:00 | 56.102010 | 18.479802 | 2.0 | 8.345 | 2 | 8.927 | 8.504 | 7.493 | 2 |
| 2025-05-26T14:34:00 | 56.102031 | 18.479815 | 2.0 | 8.349 | 2 | 8.928 | 8.514 | 7.491 | 2 |
| 2025-05-26T14:35:00 | 56.102048 | 18.479834 | 2.0 | 8.337 | 2 | 8.929 | 8.510 | 7.493 | 2 |
| 2025-05-26T14:36:00 | 56.102065 | 18.479842 | 2.0 | 8.340 | 2 | 8.909 | 8.505 | 7.476 | 2 |
| 2025-05-26T14:37:00 | 56.102068 | 18.479840 | 2.0 | 8.322 | 2 | 8.926 | 8.501 | 7.492 | 2 |
| 2025-05-26T14:38:00 | 56.102066 | 18.479834 | 2.0 | 8.315 | 2 | 8.920 | 8.484 | 7.491 | 2 |
| 2025-05-26T14:39:00 | 56.102058 | 18.479818 | 2.0 | 8.333 | 2 | 8.906 | 8.486 | 7.477 | 2 |
| 2025-05-26T14:40:00 | 56.102056 | 18.479805 | 2.0 | 8.320 | 2 | 8.925 | 8.496 | 7.492 | 2 |
| 2025-05-26T14:41:00 | 56.102030 | 18.479751 | 2.0 | 8.348 | 2 | 8.924 | 8.495 | 7.492 | 2 |
| 2025-05-26T14:42:00 | 56.101987 | 18.479713 | 2.0 | 8.337 | 2 | 8.928 | 8.511 | 7.492 | 2 |
| 2025-05-26T14:43:00 | 56.101958 | 18.479724 | 2.0 | 8.325 | 2 | 8.926 | 8.500 | 7.493 | 2 |
| 2025-05-26T14:44:00 | 56.101909 | 18.479728 | 2.0 | 8.332 | 2 | 8.925 | 8.496 | 7.492 | 2 |
| 2025-05-26T14:45:00 | 56.101885 | 18.479743 | 2.0 | 8.317 | 2 | 8.925 | 8.495 | 7.493 | 2 |
| 2025-05-26T14:46:00 | 56.101850 | 18.479795 | 2.0 | 8.318 | 2 | 8.922 | 8.484 | 7.492 | 2 |
| 2025-05-26T14:47:00 | 56.101811 | 18.479831 | 2.0 | 8.296 | 2 | 8.920 | 8.476 | 7.492 | 2 |
| 2025-05-26T14:48:00 | 56.101786 | 18.479801 | 2.0 | 8.320 | 2 | 8.917 | 8.466 | 7.492 | 2 |
| 2025-05-26T14:49:00 | 56.101772 | 18.479795 | 2.0 | 8.319 | 2 | 8.920 | 8.481 | 7.491 | 2 |
| 2025-05-26T14:50:00 | 56.101700 | 18.479787 | 2.0 | 8.327 | 2 | 8.922 | 8.488 | 7.491 | 2 |
| 2025-05-26T14:51:00 | 56.101625 | 18.479828 | 2.0 | 8.329 | 2 | 8.923 | 8.492 | 7.492 | 2 |
| 2025-05-26T14:52:00 | 56.101566 | 18.479881 | 2.0 | 8.336 | 2 | 8.924 | 8.496 | 7.492 | 2 |
| 2025-05-26T14:53:00 | 56.101489 | 18.479879 | 2.0 | 8.332 | 2 | 8.925 | 8.500 | 7.492 | 2 |
| 2025-05-26T14:54:00 | 56.101350 | 18.479720 | 2.0 | 8.308 | 2 | 8.923 | 8.492 | 7.492 | 2 |
| 2025-05-26T14:55:00 | 56.101155 | 18.479381 | 2.0 | 8.329 | 2 | 8.919 | 8.474 | 7.492 | 2 |
| 2025-05-26T14:56:00 | 56.100956 | 18.478977 | 2.0 | 8.332 | 2 | 8.923 | 8.497 | 7.490 | 2 |
| 2025-05-26T14:57:00 | 56.100716 | 18.478468 | 2.0 | 8.314 | 2 | 8.922 | 8.493 | 7.490 | 2 |
| 2025-05-26T14:58:00 | 56.100440 | 18.477831 | 2.0 | 8.317 | 2 | 8.921 | 8.480 | 7.492 | 2 |
| 2025-05-26T14:59:00 | 56.100152 | 18.477120 | 2.0 | 8.317 | 2 | 8.809 | 8.487 | 7.390 | 2 |
| 2025-05-26T15:01:00 | 56.099608 | 18.475746 | 2.0 | 8.306 | 2 | 8.827 | 8.465 | 7.410 | 2 |
| 2025-05-26T15:02:00 | 56.099364 | 18.475124 | 2.0 | 8.299 | 2 | 8.799 | 8.476 | 7.383 | 2 |
| 2025-05-26T15:03:00 | 56.099147 | 18.474641 | 2.0 | 8.276 | 2 | 8.886 | 8.461 | 7.465 | 2 |
| 2025-05-26T15:04:00 | 56.099007 | 18.474432 | 2.0 | 8.260 | 2 | 8.912 | 8.432 | 7.494 | 2 |
| 2025-05-26T15:05:00 | 56.098936 | 18.474434 | 2.0 | 8.263 | 2 | 8.910 | 8.430 | 7.493 | 2 |
| 2025-05-26T15:06:00 | 56.098904 | 18.474479 | 2.0 | 8.297 | 2 | 8.910 | 8.434 | 7.492 | 2 |
| 2025-05-26T15:07:00 | 56.098851 | 18.474501 | 2.0 | 8.308 | 2 | 8.916 | 8.462 | 7.492 | 2 |
| 2025-05-26T15:08:00 | 56.098768 | 18.474492 | 2.0 | 8.302 | 2 | 8.919 | 8.471 | 7.492 | 2 |
| 2025-05-26T15:09:00 | 56.098671 | 18.474436 | 2.0 | 8.301 | 2 | 8.918 | 8.467 | 7.492 | 2 |
| 2025-05-26T15:10:00 | 56.098596 | 18.474343 | 2.0 | 8.303 | 2 | 8.918 | 8.467 | 7.492 | 2 |
| 2025-05-26T15:11:00 | 56.098500 | 18.474144 | 2.0 | 8.298 | 2 | 8.917 | 8.466 | 7.492 | 2 |
| 2025-05-26T15:12:00 | 56.098313 | 18.473694 | 2.0 | 8.253 | 2 | 8.915 | 8.452 | 7.493 | 2 |
| 2025-05-26T15:13:00 | 56.098047 | 18.473053 | 2.0 | 8.264 | 2 | 8.907 | 8.421 | 7.492 | 2 |
| 2025-05-26T15:14:00 | 56.097755 | 18.472348 | 2.0 | 8.263 | 2 | 8.909 | 8.427 | 7.493 | 2 |
| 2025-05-26T15:15:00 | 56.097441 | 18.471586 | 2.0 | 8.256 | 2 | 8.908 | 8.426 | 7.492 | 2 |
| 2025-05-26T15:16:00 | 56.097085 | 18.470660 | 2.0 | 8.247 | 2 | 8.907 | 8.422 | 7.492 | 2 |
| 2025-05-26T15:17:00 | 56.096676 | 18.469551 | 2.0 | 8.256 | 2 | 8.906 | 8.414 | 7.493 | 2 |
| 2025-05-26T15:18:00 | 56.096198 | 18.468171 | 2.0 | 8.254 | 2 | 8.907 | 8.417 | 7.493 | 2 |
| 2025-05-26T15:19:00 | 56.095660 | 18.466548 | 2.0 | 8.266 | 2 | 8.906 | 8.418 | 7.492 | 2 |
| 2025-05-26T15:20:00 | 56.095112 | 18.464933 | 2.0 | 8.267 | 2 | 8.901 | 8.433 | 7.484 | 2 |
| 2025-05-26T15:21:00 | 56.094686 | 18.463749 | 2.0 | 8.244 | 2 | 8.878 | 8.427 | 7.465 | 2 |
| 2025-05-26T15:22:00 | 56.094364 | 18.462944 | 2.0 | 8.227 | 2 | 8.856 | 8.407 | 7.449 | 2 |
| 2025-05-26T15:23:00 | 56.094134 | 18.462441 | 2.0 | 8.234 | 2 | 8.765 | 8.397 | 7.369 | 2 |
| 2025-05-26T15:24:00 | 56.093963 | 18.462193 | 2.0 | 8.230 | 2 | 8.901 | 8.397 | 7.492 | 2 |
| 2025-05-26T15:25:00 | 56.093840 | 18.462112 | 2.0 | 8.246 | 2 | 8.902 | 8.401 | 7.492 | 2 |
| 2025-05-26T15:26:00 | 56.093762 | 18.462146 | 2.0 | 8.250 | 2 | 8.906 | 8.414 | 7.493 | 2 |
| 2025-05-26T15:27:00 | 56.093755 | 18.462280 | 2.0 | 8.252 | 2 | 8.906 | 8.415 | 7.492 | 2 |
| 2025-05-26T15:28:00 | 56.093785 | 18.462312 | 2.0 | 8.256 | 2 | 8.907 | 8.420 | 7.492 | 2 |
| 2025-05-26T15:29:00 | 56.093770 | 18.462291 | 2.0 | 8.262 | 2 | 8.856 | 8.421 | 7.446 | 2 |
| 2025-05-26T15:30:00 | 56.093729 | 18.462221 | 2.0 | 8.260 | 2 | 8.814 | 8.429 | 7.406 | 2 |
| 2025-05-26T15:31:00 | 56.093666 | 18.462114 | 2.0 | 8.229 | 2 | 8.811 | 8.419 | 7.406 | 2 |
| 2025-05-26T15:32:00 | 56.093601 | 18.462038 | 2.0 | 8.246 | 2 | 8.763 | 8.399 | 7.366 | 2 |
| 2025-05-26T15:33:00 | 56.093558 | 18.462024 | 2.0 | 8.251 | 2 | 8.881 | 8.414 | 7.470 | 2 |
| 2025-05-26T15:34:00 | 56.093548 | 18.462048 | 2.0 | 8.241 | 2 | 8.907 | 8.415 | 7.493 | 2 |
| 2025-05-26T15:35:00 | 56.093533 | 18.462148 | 2.0 | 8.255 | 2 | 8.906 | 8.411 | 7.493 | 2 |
| 2025-05-26T15:36:00 | 56.093558 | 18.462278 | 2.0 | 8.246 | 2 | 8.908 | 8.421 | 7.493 | 2 |
| 2025-05-26T15:37:00 | 56.093558 | 18.462300 | 2.0 | 8.233 | 2 | 8.904 | 8.405 | 7.493 | 2 |
| 2025-05-26T15:38:00 | 56.093529 | 18.462261 | 2.0 | 8.246 | 2 | 8.903 | 8.403 | 7.492 | 2 |
| 2025-05-26T15:39:00 | 56.093494 | 18.462210 | 2.0 | 8.251 | 2 | 8.905 | 8.413 | 7.492 | 2 |
| 2025-05-26T15:40:00 | 56.093441 | 18.462100 | 2.0 | 8.259 | 2 | 8.907 | 8.418 | 7.493 | 2 |
| 2025-05-26T15:41:00 | 56.093375 | 18.461949 | 2.0 | 8.264 | 2 | 8.908 | 8.426 | 7.492 | 2 |
| 2025-05-26T15:42:00 | 56.093297 | 18.461793 | 2.0 | 8.253 | 2 | 8.909 | 8.426 | 7.493 | 2 |
| 2025-05-26T15:43:00 | 56.093418 | 18.461572 | 2.0 | 8.245 | 2 | 8.907 | 8.417 | 7.493 | 2 |
| 2025-05-26T15:44:00 | 56.093694 | 18.462366 | 2.0 | 8.230 | 2 | 8.905 | 8.406 | 7.493 | 2 |
| 2025-05-26T15:45:00 | 56.093984 | 18.464416 | 2.0 | 8.228 | 2 | 8.903 | 8.397 | 7.494 | 2 |
| 2025-05-26T15:46:00 | 56.094317 | 18.467167 | 2.0 | 8.235 | 2 | 8.903 | 8.398 | 7.493 | 2 |
| 2025-05-26T15:47:00 | 56.094692 | 18.470300 | 2.0 | 8.238 | 2 | 8.904 | 8.401 | 7.494 | 2 |
| 2025-05-26T15:48:00 | 56.095085 | 18.473661 | 2.0 | 8.247 | 2 | 8.905 | 8.407 | 7.493 | 2 |
| 2025-05-26T15:49:00 | 56.095563 | 18.477094 | 2.0 | 8.275 | 2 | 8.906 | 8.418 | 7.492 | 2 |
| 2025-05-26T15:50:00 | 56.096113 | 18.480488 | 2.0 | 8.309 | 2 | 8.911 | 8.445 | 7.491 | 2 |
| 2025-05-26T15:51:00 | 56.096648 | 18.483505 | 2.0 | 8.310 | 2 | 8.919 | 8.475 | 7.492 | 2 |
| 2025-05-26T15:52:00 | 56.097124 | 18.486053 | 2.0 | 8.312 | 2 | 8.890 | 8.473 | 7.466 | 2 |
| 2025-05-26T15:54:00 | 56.096555 | 18.487720 | 2.0 | 8.283 | 2 | 8.916 | 8.457 | 7.493 | 2 |
| 2025-05-26T15:55:00 | 56.096333 | 18.487513 | 2.0 | 8.246 | 2 | 8.888 | 8.440 | 7.471 | 2 |
| 2025-05-26T15:56:00 | 56.096278 | 18.487326 | 2.0 | 8.264 | 2 | 8.893 | 8.418 | 7.480 | 2 |
| 2025-05-26T15:57:00 | 56.096308 | 18.487271 | 2.0 | 8.299 | 2 | 8.901 | 8.441 | 7.482 | 2 |
| 2025-05-26T15:58:00 | 56.096312 | 18.487165 | 2.0 | 8.317 | 2 | 8.916 | 8.466 | 7.491 | 2 |
| 2025-05-26T15:59:00 | 56.096251 | 18.486925 | 2.0 | 8.316 | 2 | 8.919 | 8.481 | 7.490 | 2 |
| 2025-05-26T16:00:00 | 56.096167 | 18.486552 | 2.0 | 8.301 | 2 | 8.920 | 8.478 | 7.492 | 2 |
| 2025-05-26T16:01:00 | 56.096096 | 18.486098 | 2.0 | 8.313 | 2 | 8.917 | 8.466 | 7.492 | 2 |
| 2025-05-26T16:02:00 | 56.096079 | 18.485802 | 2.0 | 8.319 | 2 | 8.919 | 8.478 | 7.491 | 2 |
| 2025-05-26T16:03:00 | 56.096106 | 18.485640 | 2.0 | 8.322 | 2 | 8.921 | 8.484 | 7.491 | 2 |
| 2025-05-26T16:04:00 | 56.096174 | 18.485592 | 2.0 | 8.319 | 2 | 8.904 | 8.485 | 7.476 | 2 |
| 2025-05-26T16:05:00 | 56.096266 | 18.485562 | 2.0 | 8.318 | 2 | 8.901 | 8.484 | 7.473 | 2 |
| 2025-05-26T16:06:00 | 56.096349 | 18.485492 | 2.0 | 8.319 | 2 | 8.909 | 8.484 | 7.481 | 2 |
| 2025-05-26T16:07:00 | 56.096415 | 18.485452 | 2.0 | 8.301 | 2 | 8.920 | 8.478 | 7.492 | 2 |
| 2025-05-26T16:08:00 | 56.096471 | 18.485434 | 2.0 | 8.298 | 2 | 8.915 | 8.467 | 7.490 | 2 |
| 2025-05-26T16:10:00 | 56.096517 | 18.485395 | 2.0 | 8.305 | 2 | 8.815 | 8.477 | 7.397 | 2 |
| 2025-05-26T16:12:00 | 56.096489 | 18.485294 | 2.0 | 8.299 | 2 | 8.917 | 8.473 | 7.490 | 2 |
| 2025-05-26T16:13:00 | 56.096485 | 18.485265 | 2.0 | 8.298 | 2 | 8.890 | 8.467 | 7.467 | 2 |
| 2025-05-26T16:14:00 | 56.096480 | 18.485256 | 2.0 | 8.301 | 2 | 8.887 | 8.464 | 7.465 | 2 |
| 2025-05-26T16:15:00 | 56.096475 | 18.485218 | 2.0 | 8.296 | 2 | 8.781 | 8.465 | 7.369 | 2 |
| 2025-05-26T16:16:00 | 56.096480 | 18.485214 | 2.0 | 8.313 | 2 | 8.785 | 8.466 | 7.372 | 2 |
| 2025-05-26T16:18:00 | 56.096511 | 18.485288 | 2.0 | 8.301 | 2 | 8.914 | 8.476 | 7.487 | 2 |
| 2025-05-26T16:19:00 | 56.096532 | 18.485356 | 2.0 | 8.297 | 2 | 8.919 | 8.469 | 7.493 | 2 |
| 2025-05-26T16:20:00 | 56.096556 | 18.485457 | 2.0 | 8.293 | 2 | 8.917 | 8.460 | 7.493 | 2 |
| 2025-05-26T16:21:00 | 56.096572 | 18.485504 | 2.0 | 8.296 | 2 | 8.917 | 8.458 | 7.493 | 2 |
| 2025-05-26T16:22:00 | 56.096553 | 18.485469 | 2.0 | 8.311 | 2 | 8.918 | 8.467 | 7.492 | 2 |
| 2025-05-26T16:23:00 | 56.096524 | 18.485414 | 2.0 | 8.300 | 2 | 8.920 | 8.475 | 7.492 | 2 |
| 2025-05-26T16:24:00 | 56.096426 | 18.485201 | 2.0 | 8.293 | 2 | 8.918 | 8.462 | 7.493 | 2 |
| 2025-05-26T16:25:00 | 56.096349 | 18.484963 | 2.0 | 8.283 | 2 | 8.916 | 8.457 | 7.493 | 2 |
| 2025-05-26T16:26:00 | 56.096279 | 18.484707 | 2.0 | 8.295 | 2 | 8.915 | 8.452 | 7.493 | 2 |
| 2025-05-26T16:27:00 | 56.096208 | 18.484428 | 2.0 | 8.293 | 2 | 8.915 | 8.460 | 7.491 | 2 |
| 2025-05-26T16:28:00 | 56.096121 | 18.484113 | 2.0 | 8.286 | 2 | 8.916 | 8.457 | 7.493 | 2 |
| 2025-05-26T16:29:00 | 56.096031 | 18.483783 | 2.0 | 8.293 | 2 | 8.914 | 8.453 | 7.492 | 2 |
| 2025-05-26T16:30:00 | 56.095939 | 18.483463 | 2.0 | 8.289 | 2 | 8.917 | 8.460 | 7.493 | 2 |
| 2025-05-26T16:31:00 | 56.095864 | 18.483194 | 2.0 | 8.285 | 2 | 8.915 | 8.454 | 7.492 | 2 |
| 2025-05-26T16:32:00 | 56.095805 | 18.482972 | 2.0 | 8.280 | 2 | 8.848 | 8.449 | 7.433 | 2 |
| 2025-05-26T16:33:00 | 56.095764 | 18.482793 | 2.0 | 8.281 | 2 | 8.809 | 8.447 | 7.398 | 2 |
| 2025-05-26T16:34:00 | 56.095741 | 18.482652 | 2.0 | 8.280 | 2 | 8.864 | 8.446 | 7.448 | 2 |
| 2025-05-26T16:38:00 | 56.095897 | 18.482666 | 2.0 | 8.278 | 2 | 8.915 | 8.448 | 7.494 | 2 |
| 2025-05-26T16:39:00 | 56.095983 | 18.482771 | 2.0 | 8.275 | 2 | 8.913 | 8.441 | 7.493 | 2 |
| 2025-05-26T16:40:00 | 56.096063 | 18.482871 | 2.0 | 8.277 | 2 | 8.913 | 8.441 | 7.493 | 2 |
| 2025-05-26T16:41:00 | 56.096133 | 18.482805 | 2.0 | 8.287 | 2 | 8.913 | 8.444 | 7.493 | 2 |
| 2025-05-26T16:42:00 | 56.096100 | 18.482478 | 2.0 | 8.277 | 2 | 8.915 | 8.449 | 7.493 | 2 |
| 2025-05-26T16:43:00 | 56.095956 | 18.481861 | 2.0 | 8.263 | 2 | 8.913 | 8.438 | 7.494 | 2 |
| 2025-05-26T16:44:00 | 56.095735 | 18.480994 | 2.0 | 8.268 | 2 | 8.911 | 8.430 | 7.494 | 2 |
| 2025-05-26T16:45:00 | 56.095492 | 18.480033 | 2.0 | 8.265 | 2 | 8.911 | 8.432 | 7.493 | 2 |
| 2025-05-26T16:46:00 | 56.095246 | 18.479039 | 2.0 | 8.255 | 2 | 8.911 | 8.429 | 7.494 | 2 |
| 2025-05-26T16:47:00 | 56.095000 | 18.478064 | 2.0 | 8.257 | 2 | 8.908 | 8.421 | 7.493 | 2 |
| 2025-05-26T16:48:00 | 56.094762 | 18.477093 | 2.0 | 8.259 | 2 | 8.908 | 8.421 | 7.493 | 2 |
| 2025-05-26T16:49:00 | 56.094526 | 18.476130 | 2.0 | 8.256 | 2 | 8.909 | 8.425 | 7.493 | 2 |
| 2025-05-26T16:50:00 | 56.094283 | 18.475190 | 2.0 | 8.252 | 2 | 8.850 | 8.422 | 7.440 | 2 |
| 2025-05-26T16:51:00 | 56.094046 | 18.474270 | 2.0 | 8.249 | 2 | 8.836 | 8.414 | 7.429 | 2 |
| 2025-05-26T16:52:00 | 56.093814 | 18.473346 | 2.0 | 8.236 | 2 | 8.852 | 8.414 | 7.444 | 2 |
| 2025-05-26T16:53:00 | 56.093586 | 18.472413 | 2.0 | 8.232 | 2 | 8.812 | 8.399 | 7.411 | 2 |
| 2025-05-26T16:54:00 | 56.093352 | 18.471487 | 2.0 | 8.229 | 2 | 8.813 | 8.396 | 7.412 | 2 |
| 2025-05-26T16:55:00 | 56.093115 | 18.470558 | 2.0 | 8.219 | 2 | 8.903 | 8.394 | 7.494 | 2 |
| 2025-05-26T16:56:00 | 56.092887 | 18.469645 | 2.0 | 8.204 | 2 | 8.901 | 8.382 | 7.495 | 2 |
| 2025-05-26T16:57:00 | 56.092655 | 18.468745 | 2.0 | 8.204 | 2 | 8.898 | 8.371 | 7.495 | 2 |
| 2025-05-26T16:58:00 | 56.092424 | 18.467835 | 2.0 | 8.200 | 2 | 8.898 | 8.369 | 7.495 | 2 |
| 2025-05-26T16:59:00 | 56.092192 | 18.466935 | 2.0 | 8.197 | 2 | 8.895 | 8.364 | 7.493 | 2 |
| 2025-05-26T17:00:00 | 56.091960 | 18.466045 | 2.0 | 8.201 | 2 | 8.896 | 8.363 | 7.494 | 2 |
| 2025-05-26T17:01:00 | 56.091728 | 18.465154 | 2.0 | 8.194 | 2 | 8.898 | 8.366 | 7.496 | 2 |
| 2025-05-26T17:02:00 | 56.091499 | 18.464270 | 2.0 | 8.200 | 2 | 8.897 | 8.361 | 7.496 | 2 |
| 2025-05-26T17:03:00 | 56.091268 | 18.463400 | 2.0 | 8.207 | 2 | 8.898 | 8.367 | 7.495 | 2 |
| 2025-05-26T17:04:00 | 56.091051 | 18.462560 | 2.0 | 8.208 | 2 | 8.900 | 8.371 | 7.496 | 2 |
| 2025-05-26T17:05:00 | 56.090824 | 18.461692 | 2.0 | 8.202 | 2 | 8.900 | 8.372 | 7.496 | 2 |
| 2025-05-26T17:06:00 | 56.090579 | 18.460755 | 2.0 | 8.200 | 2 | 8.894 | 8.368 | 7.492 | 2 |
| 2025-05-26T17:07:00 | 56.090320 | 18.459781 | 2.0 | 8.213 | 2 | 8.899 | 8.370 | 7.496 | 2 |
| 2025-05-26T17:08:00 | 56.090054 | 18.458783 | 2.0 | 8.188 | 2 | 8.900 | 8.372 | 7.496 | 2 |
| 2025-05-26T17:09:00 | 56.089791 | 18.457804 | 2.0 | 8.179 | 2 | 8.896 | 8.352 | 7.497 | 2 |
| 2025-05-26T17:10:00 | 56.089524 | 18.456839 | 2.0 | 8.174 | 2 | 8.894 | 8.346 | 7.496 | 2 |
| 2025-05-26T17:11:00 | 56.089268 | 18.455896 | 2.0 | 8.168 | 2 | 8.892 | 8.337 | 7.496 | 2 |
| 2025-05-26T17:12:00 | 56.089022 | 18.454983 | 2.0 | 8.163 | 2 | 8.890 | 8.334 | 7.495 | 2 |
| 2025-05-26T17:13:00 | 56.088776 | 18.454073 | 2.0 | 8.161 | 2 | 8.809 | 8.327 | 7.423 | 2 |
| 2025-05-26T17:14:00 | 56.088532 | 18.453179 | 2.0 | 8.153 | 2 | 8.746 | 8.326 | 7.366 | 2 |
| 2025-05-26T17:15:00 | 56.088292 | 18.452302 | 2.0 | 8.149 | 2 | 8.747 | 8.318 | 7.369 | 2 |
| 2025-05-26T17:16:00 | 56.088050 | 18.451421 | 2.0 | 8.156 | 2 | 8.849 | 8.316 | 7.462 | 2 |
| 2025-05-26T17:17:00 | 56.087803 | 18.450540 | 2.0 | 8.159 | 2 | 8.825 | 8.323 | 7.439 | 2 |
| 2025-05-26T17:18:00 | 56.087556 | 18.449669 | 2.0 | 8.151 | 2 | 8.764 | 8.323 | 7.383 | 2 |
| 2025-05-26T17:22:00 | 56.086597 | 18.446207 | 2.0 | 8.146 | 2 | 8.747 | 8.312 | 7.370 | 2 |
| 2025-05-26T17:23:00 | 56.086352 | 18.445299 | 2.0 | 8.140 | 2 | 8.886 | 8.310 | 7.497 | 2 |
| 2025-05-26T17:24:00 | 56.086093 | 18.444366 | 2.0 | 8.138 | 2 | 8.855 | 8.306 | 7.469 | 2 |
| 2025-05-26T17:25:00 | 56.085825 | 18.443431 | 2.0 | 8.129 | 2 | 8.849 | 8.302 | 7.465 | 2 |
| 2025-05-26T17:27:00 | 56.086173 | 18.443103 | 2.0 | 8.150 | 2 | 8.773 | 8.298 | 7.397 | 2 |
| 2025-05-26T17:28:00 | 56.086372 | 18.444173 | 2.0 | 8.153 | 2 | 8.825 | 8.316 | 7.440 | 2 |
Only the first 2000 rows were shown. To view the complete dataset, download it as tab-delimited text. You can still view the full matrix in your browser, but be aware that this may crash the browser due to the huge size.
